<?xml version='1.0' encoding='UTF-8'?><gpx version="1.1" creator="JPX - https://github.com/jenetics/jpx" xmlns="http://www.topografix.com/GPX/1/1"><trk><trkseg><trkpt lat="38.115562" lon="13.3623889"><ele>28.999999999999996</ele><time>2026-04-28T15:01:27.788Z</time></trkpt><trkpt lat="38.1154823" lon="13.36244"><ele>29.0</ele><time>2026-04-28T15:01:29.788Z</time></trkpt><trkpt lat="38.1153979" lon="13.3624669"><ele>29.0</ele><time>2026-04-28T15:01:31.787Z</time></trkpt><trkpt lat="38.115297" lon="13.362503"><ele>29.0</ele><time>2026-04-28T15:01:33.787Z</time></trkpt><trkpt lat="38.1152358" lon="13.3625601"><ele>28.999999999999996</ele><time>2026-04-28T15:01:35.794Z</time></trkpt><trkpt lat="38.115156" lon="13.3625596"><ele>29.0</ele><time>2026-04-28T15:01:37.787Z</time></trkpt><trkpt lat="38.1151507" lon="13.3626725"><ele>29.0</ele><time>2026-04-28T15:01:39.789Z</time></trkpt><trkpt lat="38.1152017" lon="13.3628091"><ele>29.0</ele><time>2026-04-28T15:01:41.788Z</time></trkpt><trkpt lat="38.1152294" lon="13.362921"><ele>29.0</ele><time>2026-04-28T15:01:43.786Z</time></trkpt><trkpt lat="38.1152549" lon="13.3630344"><ele>29.0</ele><time>2026-04-28T15:01:45.791Z</time></trkpt><trkpt lat="38.1152604" lon="13.3631527"><ele>29.0</ele><time>2026-04-28T15:01:47.788Z</time></trkpt><trkpt lat="38.1152678" lon="13.3632573"><ele>28.833333333333332</ele><time>2026-04-28T15:01:49.786Z</time></trkpt><trkpt lat="38.1152764" lon="13.3633471"><ele>28.666666666666664</ele><time>2026-04-28T15:01:52.788Z</time></trkpt><trkpt lat="38.1153626" lon="13.363346"><ele>28.5</ele><time>2026-04-28T15:01:55.787Z</time></trkpt><trkpt lat="38.1154254" lon="13.3634115"><ele>28.333333333333336</ele><time>2026-04-28T15:01:58.785Z</time></trkpt><trkpt lat="38.1154173" lon="13.3635103"><ele>28.166666666666668</ele><time>2026-04-28T15:02:01.785Z</time></trkpt><trkpt lat="38.115441" lon="13.3636288"><ele>28.0</ele><time>2026-04-28T15:02:16.786Z</time></trkpt><trkpt lat="38.1154395" lon="13.363729"><ele>28.000000000000004</ele><time>2026-04-28T15:02:18.784Z</time></trkpt><trkpt lat="38.1154403" lon="13.3638335"><ele>28.0</ele><time>2026-04-28T15:02:20.783Z</time></trkpt><trkpt lat="38.11544" lon="13.3639326"><ele>28.0</ele><time>2026-04-28T15:02:22.783Z</time></trkpt><trkpt lat="38.1154787" lon="13.3640041"><ele>28.0</ele><time>2026-04-28T15:02:31.787Z</time></trkpt><trkpt lat="38.1154201" lon="13.3640819"><ele>28.000000000000004</ele><time>2026-04-28T15:02:35.79Z</time></trkpt><trkpt lat="38.1153094" lon="13.364145"><ele>28.0</ele><time>2026-04-28T15:02:37.79Z</time></trkpt><trkpt lat="38.1152359" lon="13.364183"><ele>27.666666666666668</ele><time>2026-04-28T15:02:38.79Z</time></trkpt><trkpt lat="38.1151562" lon="13.3642214"><ele>27.333333333333336</ele><time>2026-04-28T15:02:39.788Z</time></trkpt><trkpt lat="38.1150793" lon="13.3642607"><ele>27.0</ele><time>2026-04-28T15:02:40.789Z</time></trkpt><trkpt lat="38.115" lon="13.3642929"><ele>26.666666666666664</ele><time>2026-04-28T15:02:41.787Z</time></trkpt><trkpt lat="38.1149255" lon="13.3643331"><ele>26.333333333333332</ele><time>2026-04-28T15:02:42.787Z</time></trkpt><trkpt lat="38.1148516" lon="13.3643704"><ele>26.0</ele><time>2026-04-28T15:02:43.791Z</time></trkpt><trkpt lat="38.1147799" lon="13.3644056"><ele>25.666666666666664</ele><time>2026-04-28T15:02:44.787Z</time></trkpt><trkpt lat="38.1147205" lon="13.364435"><ele>25.333333333333332</ele><time>2026-04-28T15:02:45.789Z</time></trkpt><trkpt lat="38.1146081" lon="13.3644894"><ele>25.0</ele><time>2026-04-28T15:02:47.79Z</time></trkpt><trkpt lat="38.1145498" lon="13.3645268"><ele>24.666666666666664</ele><time>2026-04-28T15:02:48.785Z</time></trkpt><trkpt lat="38.1144818" lon="13.3645577"><ele>24.333333333333332</ele><time>2026-04-28T15:02:49.788Z</time></trkpt><trkpt lat="38.1144047" lon="13.3645994"><ele>24.0</ele><time>2026-04-28T15:02:50.789Z</time></trkpt><trkpt lat="38.1143158" lon="13.3646572"><ele>23.5</ele><time>2026-04-28T15:02:51.791Z</time></trkpt><trkpt lat="38.1142127" lon="13.3647142"><ele>23.0</ele><time>2026-04-28T15:02:52.79Z</time></trkpt><trkpt lat="38.1141023" lon="13.3647725"><ele>22.5</ele><time>2026-04-28T15:02:53.792Z</time></trkpt><trkpt lat="38.1139862" lon="13.3648326"><ele>22.0</ele><time>2026-04-28T15:02:54.79Z</time></trkpt><trkpt lat="38.1138724" lon="13.3648963"><ele>23.0</ele><time>2026-04-28T15:02:55.788Z</time></trkpt><trkpt lat="38.1137554" lon="13.3649552"><ele>24.0</ele><time>2026-04-28T15:02:56.786Z</time></trkpt><trkpt lat="38.1136448" lon="13.3650111"><ele>25.0</ele><time>2026-04-28T15:02:57.787Z</time></trkpt><trkpt lat="38.1135371" lon="13.3650662"><ele>26.0</ele><time>2026-04-28T15:02:58.785Z</time></trkpt><trkpt lat="38.1134376" lon="13.3651102"><ele>26.0</ele><time>2026-04-28T15:02:59.788Z</time></trkpt><trkpt lat="38.1133451" lon="13.365153"><ele>26.0</ele><time>2026-04-28T15:03:00.789Z</time></trkpt><trkpt lat="38.1132566" lon="13.3651911"><ele>26.0</ele><time>2026-04-28T15:03:01.79Z</time></trkpt><trkpt lat="38.1131707" lon="13.3652233"><ele>26.0</ele><time>2026-04-28T15:03:02.786Z</time></trkpt><trkpt lat="38.1130894" lon="13.3652589"><ele>26.0</ele><time>2026-04-28T15:03:03.786Z</time></trkpt><trkpt lat="38.1130108" lon="13.3652971"><ele>26.499999999999996</ele><time>2026-04-28T15:03:04.791Z</time></trkpt><trkpt lat="38.1129283" lon="13.3653354"><ele>27.0</ele><time>2026-04-28T15:03:05.79Z</time></trkpt><trkpt lat="38.1128458" lon="13.3653765"><ele>27.5</ele><time>2026-04-28T15:03:06.788Z</time></trkpt><trkpt lat="38.1127725" lon="13.365411"><ele>28.0</ele><time>2026-04-28T15:03:07.794Z</time></trkpt><trkpt lat="38.1127062" lon="13.365454"><ele>28.499999999999996</ele><time>2026-04-28T15:03:08.787Z</time></trkpt><trkpt lat="38.1126407" lon="13.3654897"><ele>29.0</ele><time>2026-04-28T15:03:09.788Z</time></trkpt><trkpt lat="38.1125791" lon="13.3655235"><ele>28.85714285714286</ele><time>2026-04-28T15:03:10.79Z</time></trkpt><trkpt lat="38.1125208" lon="13.3655546"><ele>28.714285714285715</ele><time>2026-04-28T15:03:11.787Z</time></trkpt><trkpt lat="38.1124575" lon="13.3655725"><ele>28.571428571428573</ele><time>2026-04-28T15:03:12.792Z</time></trkpt><trkpt lat="38.1123939" lon="13.3656031"><ele>28.42857142857143</ele><time>2026-04-28T15:03:13.787Z</time></trkpt><trkpt lat="38.1123346" lon="13.36564"><ele>28.285714285714285</ele><time>2026-04-28T15:03:14.787Z</time></trkpt><trkpt lat="38.112267" lon="13.36568"><ele>28.142857142857142</ele><time>2026-04-28T15:03:15.783Z</time></trkpt><trkpt lat="38.1122026" lon="13.3657193"><ele>28.0</ele><time>2026-04-28T15:03:16.787Z</time></trkpt><trkpt lat="38.1121336" lon="13.3657554"><ele>28.000000000000004</ele><time>2026-04-28T15:03:17.785Z</time></trkpt><trkpt lat="38.1120591" lon="13.3657938"><ele>28.0</ele><time>2026-04-28T15:03:18.788Z</time></trkpt><trkpt lat="38.1119793" lon="13.3658243"><ele>28.0</ele><time>2026-04-28T15:03:19.789Z</time></trkpt><trkpt lat="38.1119022" lon="13.3658582"><ele>28.0</ele><time>2026-04-28T15:03:20.784Z</time></trkpt><trkpt lat="38.1118226" lon="13.3658887"><ele>28.000000000000004</ele><time>2026-04-28T15:03:21.789Z</time></trkpt><trkpt lat="38.1117383" lon="13.3659247"><ele>28.0</ele><time>2026-04-28T15:03:22.787Z</time></trkpt><trkpt lat="38.1116594" lon="13.3659614"><ele>28.000000000000004</ele><time>2026-04-28T15:03:23.787Z</time></trkpt><trkpt lat="38.1115775" lon="13.365999"><ele>28.0</ele><time>2026-04-28T15:03:24.793Z</time></trkpt><trkpt lat="38.1114948" lon="13.3660429"><ele>28.0</ele><time>2026-04-28T15:03:25.788Z</time></trkpt><trkpt lat="38.1114182" lon="13.3660868"><ele>28.0</ele><time>2026-04-28T15:03:26.782Z</time></trkpt><trkpt lat="38.1113501" lon="13.3661306"><ele>28.000000000000004</ele><time>2026-04-28T15:03:27.789Z</time></trkpt><trkpt lat="38.1112797" lon="13.366169"><ele>28.0</ele><time>2026-04-28T15:03:28.789Z</time></trkpt><trkpt lat="38.111205" lon="13.3661966"><ele>27.857142857142858</ele><time>2026-04-28T15:03:29.787Z</time></trkpt><trkpt lat="38.1111321" lon="13.3662272"><ele>27.714285714285715</ele><time>2026-04-28T15:03:30.787Z</time></trkpt><trkpt lat="38.1110597" lon="13.3662587"><ele>27.57142857142857</ele><time>2026-04-28T15:03:31.793Z</time></trkpt><trkpt lat="38.1109843" lon="13.366284"><ele>27.42857142857143</ele><time>2026-04-28T15:03:32.789Z</time></trkpt><trkpt lat="38.1109121" lon="13.3663052"><ele>27.285714285714285</ele><time>2026-04-28T15:03:33.792Z</time></trkpt><trkpt lat="38.110843" lon="13.366328"><ele>27.142857142857142</ele><time>2026-04-28T15:03:34.792Z</time></trkpt><trkpt lat="38.1107778" lon="13.3663495"><ele>27.0</ele><time>2026-04-28T15:03:35.792Z</time></trkpt><trkpt lat="38.1106711" lon="13.3663584"><ele>27.6</ele><time>2026-04-28T15:03:37.789Z</time></trkpt><trkpt lat="38.1105674" lon="13.366306"><ele>28.200000000000003</ele><time>2026-04-28T15:03:39.798Z</time></trkpt><trkpt lat="38.1105167" lon="13.3662379"><ele>28.8</ele><time>2026-04-28T15:03:40.792Z</time></trkpt><trkpt lat="38.1104656" lon="13.3661362"><ele>29.4</ele><time>2026-04-28T15:03:41.798Z</time></trkpt><trkpt lat="38.1104123" lon="13.3660029"><ele>30.0</ele><time>2026-04-28T15:03:42.787Z</time></trkpt><trkpt lat="38.110355" lon="13.3658633"><ele>30.0</ele><time>2026-04-28T15:03:43.798Z</time></trkpt><trkpt lat="38.1102973" lon="13.3657165"><ele>30.0</ele><time>2026-04-28T15:03:44.789Z</time></trkpt><trkpt lat="38.1102514" lon="13.3655849"><ele>30.0</ele><time>2026-04-28T15:03:45.8Z</time></trkpt><trkpt lat="38.1102125" lon="13.3654762"><ele>30.0</ele><time>2026-04-28T15:03:46.799Z</time></trkpt><trkpt lat="38.1101809" lon="13.3653902"><ele>30.0</ele><time>2026-04-28T15:03:47.795Z</time></trkpt><trkpt lat="38.1101386" lon="13.3652735"><ele>29.6</ele><time>2026-04-28T15:03:49.79Z</time></trkpt><trkpt lat="38.1101108" lon="13.3651734"><ele>29.2</ele><time>2026-04-28T15:03:51.789Z</time></trkpt><trkpt lat="38.1100689" lon="13.3650629"><ele>28.799999999999997</ele><time>2026-04-28T15:03:53.797Z</time></trkpt><trkpt lat="38.110003" lon="13.3649146"><ele>28.4</ele><time>2026-04-28T15:03:55.797Z</time></trkpt><trkpt lat="38.1099712" lon="13.3648139"><ele>28.0</ele><time>2026-04-28T15:03:56.792Z</time></trkpt><trkpt lat="38.1099471" lon="13.3647045"><ele>28.333333333333336</ele><time>2026-04-28T15:03:57.794Z</time></trkpt><trkpt lat="38.1099301" lon="13.364602"><ele>28.666666666666668</ele><time>2026-04-28T15:03:58.791Z</time></trkpt><trkpt lat="38.1099194" lon="13.3645199"><ele>29.0</ele><time>2026-04-28T15:03:59.787Z</time></trkpt><trkpt lat="38.1099042" lon="13.3643945"><ele>29.333333333333336</ele><time>2026-04-28T15:04:01.788Z</time></trkpt><trkpt lat="38.1099031" lon="13.3642986"><ele>29.666666666666668</ele><time>2026-04-28T15:04:04.788Z</time></trkpt><trkpt lat="38.1098829" lon="13.364192"><ele>30.0</ele><time>2026-04-28T15:04:07.792Z</time></trkpt><trkpt lat="38.1098706" lon="13.3640753"><ele>30.4</ele><time>2026-04-28T15:04:09.795Z</time></trkpt><trkpt lat="38.1098137" lon="13.3640246"><ele>30.8</ele><time>2026-04-28T15:04:11.79Z</time></trkpt><trkpt lat="38.1096992" lon="13.3640739"><ele>31.200000000000003</ele><time>2026-04-28T15:04:13.796Z</time></trkpt><trkpt lat="38.1096242" lon="13.3641201"><ele>31.6</ele><time>2026-04-28T15:04:14.792Z</time></trkpt><trkpt lat="38.1095472" lon="13.3641865"><ele>32.0</ele><time>2026-04-28T15:04:15.792Z</time></trkpt><trkpt lat="38.1094691" lon="13.3642289"><ele>31.999999999999996</ele><time>2026-04-28T15:04:16.79Z</time></trkpt><trkpt lat="38.1094041" lon="13.3642714"><ele>32.0</ele><time>2026-04-28T15:04:17.79Z</time></trkpt><trkpt lat="38.1093206" lon="13.3643089"><ele>32.0</ele><time>2026-04-28T15:04:19.787Z</time></trkpt><trkpt lat="38.1092252" lon="13.3643583"><ele>32.0</ele><time>2026-04-28T15:04:21.795Z</time></trkpt><trkpt lat="38.1091553" lon="13.3644021"><ele>31.999999999999996</ele><time>2026-04-28T15:04:22.787Z</time></trkpt><trkpt lat="38.1090764" lon="13.3644546"><ele>32.0</ele><time>2026-04-28T15:04:23.788Z</time></trkpt><trkpt lat="38.1089915" lon="13.3645088"><ele>32.166666666666664</ele><time>2026-04-28T15:04:24.787Z</time></trkpt><trkpt lat="38.1089001" lon="13.364562"><ele>32.33333333333333</ele><time>2026-04-28T15:04:25.789Z</time></trkpt><trkpt lat="38.1088264" lon="13.364603"><ele>32.5</ele><time>2026-04-28T15:04:26.794Z</time></trkpt><trkpt lat="38.1087662" lon="13.3646296"><ele>32.666666666666664</ele><time>2026-04-28T15:04:27.792Z</time></trkpt><trkpt lat="38.1086848" lon="13.3645989"><ele>32.833333333333336</ele><time>2026-04-28T15:04:30.793Z</time></trkpt><trkpt lat="38.1086373" lon="13.3644793"><ele>33.0</ele><time>2026-04-28T15:04:32.79Z</time></trkpt><trkpt lat="38.1086068" lon="13.3643987"><ele>33.0</ele><time>2026-04-28T15:04:33.788Z</time></trkpt><trkpt lat="38.1085886" lon="13.3643136"><ele>33.0</ele><time>2026-04-28T15:04:34.79Z</time></trkpt><trkpt lat="38.108564" lon="13.3642262"><ele>33.0</ele><time>2026-04-28T15:04:35.794Z</time></trkpt><trkpt lat="38.1085433" lon="13.3641496"><ele>33.0</ele><time>2026-04-28T15:04:36.787Z</time></trkpt><trkpt lat="38.1084819" lon="13.3640215"><ele>33.0</ele><time>2026-04-28T15:04:38.788Z</time></trkpt><trkpt lat="38.1084518" lon="13.3639435"><ele>33.0</ele><time>2026-04-28T15:04:39.789Z</time></trkpt><trkpt lat="38.1084151" lon="13.3638565"><ele>33.333333333333336</ele><time>2026-04-28T15:04:40.788Z</time></trkpt><trkpt lat="38.1083756" lon="13.3637731"><ele>33.666666666666664</ele><time>2026-04-28T15:04:41.787Z</time></trkpt><trkpt lat="38.1083411" lon="13.3636978"><ele>34.0</ele><time>2026-04-28T15:04:42.79Z</time></trkpt><trkpt lat="38.1082895" lon="13.3635855"><ele>34.33333333333333</ele><time>2026-04-28T15:04:44.784Z</time></trkpt><trkpt lat="38.1081978" lon="13.3635745"><ele>34.666666666666664</ele><time>2026-04-28T15:04:46.79Z</time></trkpt><trkpt lat="38.1081272" lon="13.3635948"><ele>35.0</ele><time>2026-04-28T15:04:47.789Z</time></trkpt><trkpt lat="38.1080526" lon="13.3636278"><ele>35.0</ele><time>2026-04-28T15:04:48.793Z</time></trkpt><trkpt lat="38.1079696" lon="13.363669"><ele>35.0</ele><time>2026-04-28T15:04:49.79Z</time></trkpt><trkpt lat="38.1078855" lon="13.3637284"><ele>35.0</ele><time>2026-04-28T15:04:50.792Z</time></trkpt><trkpt lat="38.1077967" lon="13.3637766"><ele>35.0</ele><time>2026-04-28T15:04:51.789Z</time></trkpt><trkpt lat="38.1077096" lon="13.363825"><ele>35.0</ele><time>2026-04-28T15:04:52.792Z</time></trkpt><trkpt lat="38.107625" lon="13.3638733"><ele>34.83333333333333</ele><time>2026-04-28T15:04:53.791Z</time></trkpt><trkpt lat="38.1075491" lon="13.3639215"><ele>34.666666666666664</ele><time>2026-04-28T15:04:54.789Z</time></trkpt><trkpt lat="38.1074859" lon="13.3639632"><ele>34.5</ele><time>2026-04-28T15:04:55.787Z</time></trkpt><trkpt lat="38.1073903" lon="13.3640316"><ele>34.333333333333336</ele><time>2026-04-28T15:04:57.793Z</time></trkpt><trkpt lat="38.1073351" lon="13.3640737"><ele>34.16666666666667</ele><time>2026-04-28T15:04:58.791Z</time></trkpt><trkpt lat="38.1072712" lon="13.3641149"><ele>34.0</ele><time>2026-04-28T15:04:59.786Z</time></trkpt><trkpt lat="38.1071987" lon="13.3641615"><ele>34.333333333333336</ele><time>2026-04-28T15:05:00.789Z</time></trkpt><trkpt lat="38.1071231" lon="13.3642177"><ele>34.66666666666667</ele><time>2026-04-28T15:05:01.788Z</time></trkpt><trkpt lat="38.1070414" lon="13.364272"><ele>35.0</ele><time>2026-04-28T15:05:02.798Z</time></trkpt><trkpt lat="38.1069664" lon="13.3643181"><ele>35.333333333333336</ele><time>2026-04-28T15:05:03.796Z</time></trkpt><trkpt lat="38.1068945" lon="13.364356"><ele>35.666666666666664</ele><time>2026-04-28T15:05:04.792Z</time></trkpt><trkpt lat="38.1068346" lon="13.3643913"><ele>36.0</ele><time>2026-04-28T15:05:05.79Z</time></trkpt><trkpt lat="38.1067246" lon="13.3644709"><ele>36.00000000000001</ele><time>2026-04-28T15:05:07.787Z</time></trkpt><trkpt lat="38.1066673" lon="13.3645114"><ele>36.0</ele><time>2026-04-28T15:05:08.794Z</time></trkpt><trkpt lat="38.1066005" lon="13.3645553"><ele>36.0</ele><time>2026-04-28T15:05:09.791Z</time></trkpt><trkpt lat="38.1065295" lon="13.3646047"><ele>36.0</ele><time>2026-04-28T15:05:10.789Z</time></trkpt><trkpt lat="38.106455" lon="13.3646551"><ele>36.0</ele><time>2026-04-28T15:05:11.791Z</time></trkpt><trkpt lat="38.1063886" lon="13.3646998"><ele>36.00000000000001</ele><time>2026-04-28T15:05:12.789Z</time></trkpt><trkpt lat="38.1063282" lon="13.3647374"><ele>36.0</ele><time>2026-04-28T15:05:13.795Z</time></trkpt><trkpt lat="38.1062297" lon="13.3647952"><ele>35.6</ele><time>2026-04-28T15:05:15.787Z</time></trkpt><trkpt lat="38.1061331" lon="13.3648393"><ele>35.2</ele><time>2026-04-28T15:05:17.791Z</time></trkpt><trkpt lat="38.1060343" lon="13.3649017"><ele>34.8</ele><time>2026-04-28T15:05:19.79Z</time></trkpt><trkpt lat="38.1059507" lon="13.3649502"><ele>34.4</ele><time>2026-04-28T15:05:21.794Z</time></trkpt><trkpt lat="38.1058921" lon="13.3649192"><ele>34.0</ele><time>2026-04-28T15:05:24.792Z</time></trkpt><trkpt lat="38.1058513" lon="13.364812"><ele>34.4</ele><time>2026-04-28T15:05:26.795Z</time></trkpt><trkpt lat="38.1058005" lon="13.3646859"><ele>34.8</ele><time>2026-04-28T15:05:28.791Z</time></trkpt><trkpt lat="38.1057715" lon="13.3645936"><ele>35.2</ele><time>2026-04-28T15:05:30.792Z</time></trkpt><trkpt lat="38.1057338" lon="13.3645062"><ele>35.6</ele><time>2026-04-28T15:05:33.792Z</time></trkpt><trkpt lat="38.1056713" lon="13.364366"><ele>36.0</ele><time>2026-04-28T15:05:35.793Z</time></trkpt><trkpt lat="38.105614" lon="13.3642462"><ele>36.0</ele><time>2026-04-28T15:05:36.787Z</time></trkpt><trkpt lat="38.1055623" lon="13.3641228"><ele>36.0</ele><time>2026-04-28T15:05:37.798Z</time></trkpt><trkpt lat="38.1055184" lon="13.3640147"><ele>36.0</ele><time>2026-04-28T15:05:38.79Z</time></trkpt><trkpt lat="38.1054881" lon="13.3639179"><ele>36.0</ele><time>2026-04-28T15:05:39.794Z</time></trkpt><trkpt lat="38.105444" lon="13.3638187"><ele>36.0</ele><time>2026-04-28T15:05:40.788Z</time></trkpt><trkpt lat="38.1053889" lon="13.3636977"><ele>35.4</ele><time>2026-04-28T15:05:41.791Z</time></trkpt><trkpt lat="38.1053319" lon="13.3635603"><ele>34.8</ele><time>2026-04-28T15:05:42.791Z</time></trkpt><trkpt lat="38.1052746" lon="13.3634238"><ele>34.199999999999996</ele><time>2026-04-28T15:05:43.793Z</time></trkpt><trkpt lat="38.1052258" lon="13.3632983"><ele>33.6</ele><time>2026-04-28T15:05:44.79Z</time></trkpt><trkpt lat="38.1051816" lon="13.3631972"><ele>33.0</ele><time>2026-04-28T15:05:45.795Z</time></trkpt><trkpt lat="38.1051407" lon="13.3631119"><ele>33.0</ele><time>2026-04-28T15:05:46.79Z</time></trkpt><trkpt lat="38.1051064" lon="13.3630368"><ele>33.0</ele><time>2026-04-28T15:05:47.796Z</time></trkpt><trkpt lat="38.1050432" lon="13.3629058"><ele>33.0</ele><time>2026-04-28T15:05:49.798Z</time></trkpt><trkpt lat="38.1049982" lon="13.3628432"><ele>33.0</ele><time>2026-04-28T15:05:50.79Z</time></trkpt><trkpt lat="38.1049444" lon="13.362799"><ele>33.0</ele><time>2026-04-28T15:05:51.788Z</time></trkpt><trkpt lat="38.1048535" lon="13.3627827"><ele>33.0</ele><time>2026-04-28T15:05:52.792Z</time></trkpt><trkpt lat="38.1047394" lon="13.3627769"><ele>32.75</ele><time>2026-04-28T15:05:53.793Z</time></trkpt><trkpt lat="38.1046111" lon="13.3627729"><ele>32.5</ele><time>2026-04-28T15:05:54.792Z</time></trkpt><trkpt lat="38.1044787" lon="13.3627782"><ele>32.25</ele><time>2026-04-28T15:05:55.788Z</time></trkpt><trkpt lat="38.1043586" lon="13.3627815"><ele>32.0</ele><time>2026-04-28T15:05:56.795Z</time></trkpt><trkpt lat="38.104254" lon="13.3627785"><ele>32.0</ele><time>2026-04-28T15:05:57.793Z</time></trkpt><trkpt lat="38.1041521" lon="13.3627577"><ele>32.0</ele><time>2026-04-28T15:05:58.788Z</time></trkpt><trkpt lat="38.1040456" lon="13.3627292"><ele>32.0</ele><time>2026-04-28T15:05:59.79Z</time></trkpt><trkpt lat="38.1039321" lon="13.3627011"><ele>32.0</ele><time>2026-04-28T15:06:00.793Z</time></trkpt><trkpt lat="38.1038324" lon="13.3626737"><ele>32.0</ele><time>2026-04-28T15:06:01.788Z</time></trkpt><trkpt lat="38.1037695" lon="13.362658"><ele>32.166666666666664</ele><time>2026-04-28T15:06:02.794Z</time></trkpt><trkpt lat="38.1036853" lon="13.362602"><ele>32.33333333333333</ele><time>2026-04-28T15:06:04.788Z</time></trkpt><trkpt lat="38.1036289" lon="13.3625587"><ele>32.5</ele><time>2026-04-28T15:06:05.788Z</time></trkpt><trkpt lat="38.1035547" lon="13.3625123"><ele>32.666666666666664</ele><time>2026-04-28T15:06:06.796Z</time></trkpt><trkpt lat="38.1034647" lon="13.3624639"><ele>32.833333333333336</ele><time>2026-04-28T15:06:07.792Z</time></trkpt><trkpt lat="38.1033706" lon="13.3624148"><ele>33.0</ele><time>2026-04-28T15:06:08.793Z</time></trkpt><trkpt lat="38.1032795" lon="13.3623691"><ele>33.285714285714285</ele><time>2026-04-28T15:06:09.796Z</time></trkpt><trkpt lat="38.103196" lon="13.3623226"><ele>33.57142857142857</ele><time>2026-04-28T15:06:10.79Z</time></trkpt><trkpt lat="38.1031221" lon="13.3622796"><ele>33.85714285714286</ele><time>2026-04-28T15:06:11.791Z</time></trkpt><trkpt lat="38.1030586" lon="13.3622435"><ele>34.14285714285714</ele><time>2026-04-28T15:06:12.789Z</time></trkpt><trkpt lat="38.1030019" lon="13.3622067"><ele>34.42857142857143</ele><time>2026-04-28T15:06:13.789Z</time></trkpt><trkpt lat="38.1029434" lon="13.3621682"><ele>34.714285714285715</ele><time>2026-04-28T15:06:14.79Z</time></trkpt><trkpt lat="38.1028781" lon="13.3621292"><ele>35.0</ele><time>2026-04-28T15:06:15.79Z</time></trkpt><trkpt lat="38.1028045" lon="13.3620898"><ele>35.0</ele><time>2026-04-28T15:06:16.789Z</time></trkpt><trkpt lat="38.1027233" lon="13.362049"><ele>35.0</ele><time>2026-04-28T15:06:17.793Z</time></trkpt><trkpt lat="38.1026436" lon="13.3620014"><ele>35.0</ele><time>2026-04-28T15:06:18.793Z</time></trkpt><trkpt lat="38.1025643" lon="13.3619538"><ele>35.0</ele><time>2026-04-28T15:06:19.794Z</time></trkpt><trkpt lat="38.1024785" lon="13.3619094"><ele>35.0</ele><time>2026-04-28T15:06:20.792Z</time></trkpt><trkpt lat="38.1023931" lon="13.3618601"><ele>35.2</ele><time>2026-04-28T15:06:21.792Z</time></trkpt><trkpt lat="38.1023184" lon="13.3618132"><ele>35.4</ele><time>2026-04-28T15:06:22.793Z</time></trkpt><trkpt lat="38.1022387" lon="13.3617685"><ele>35.6</ele><time>2026-04-28T15:06:23.791Z</time></trkpt><trkpt lat="38.1021514" lon="13.3617207"><ele>35.8</ele><time>2026-04-28T15:06:24.797Z</time></trkpt><trkpt lat="38.1020578" lon="13.3616648"><ele>36.0</ele><time>2026-04-28T15:06:25.792Z</time></trkpt><trkpt lat="38.1019534" lon="13.3615937"><ele>36.0</ele><time>2026-04-28T15:06:26.792Z</time></trkpt><trkpt lat="38.1018498" lon="13.3615071"><ele>36.0</ele><time>2026-04-28T15:06:27.794Z</time></trkpt><trkpt lat="38.1017565" lon="13.3614055"><ele>36.0</ele><time>2026-04-28T15:06:28.79Z</time></trkpt><trkpt lat="38.1016685" lon="13.3613074"><ele>36.0</ele><time>2026-04-28T15:06:29.798Z</time></trkpt><trkpt lat="38.1015892" lon="13.3612067"><ele>36.2</ele><time>2026-04-28T15:06:30.795Z</time></trkpt><trkpt lat="38.1015093" lon="13.3611016"><ele>36.400000000000006</ele><time>2026-04-28T15:06:31.792Z</time></trkpt><trkpt lat="38.101438" lon="13.3609972"><ele>36.6</ele><time>2026-04-28T15:06:32.796Z</time></trkpt><trkpt lat="38.1013776" lon="13.3609024"><ele>36.800000000000004</ele><time>2026-04-28T15:06:33.798Z</time></trkpt><trkpt lat="38.1013236" lon="13.3608163"><ele>37.0</ele><time>2026-04-28T15:06:34.792Z</time></trkpt><trkpt lat="38.1012713" lon="13.3607333"><ele>37.0</ele><time>2026-04-28T15:06:35.802Z</time></trkpt><trkpt lat="38.1012145" lon="13.3606538"><ele>37.0</ele><time>2026-04-28T15:06:36.794Z</time></trkpt><trkpt lat="38.1011438" lon="13.3605673"><ele>37.0</ele><time>2026-04-28T15:06:37.799Z</time></trkpt><trkpt lat="38.1010593" lon="13.3604683"><ele>37.0</ele><time>2026-04-28T15:06:38.79Z</time></trkpt><trkpt lat="38.1009685" lon="13.360358"><ele>37.0</ele><time>2026-04-28T15:06:39.794Z</time></trkpt><trkpt lat="38.1008722" lon="13.3602352"><ele>37.5</ele><time>2026-04-28T15:06:40.795Z</time></trkpt><trkpt lat="38.1007716" lon="13.3600992"><ele>38.0</ele><time>2026-04-28T15:06:41.796Z</time></trkpt><trkpt lat="38.1006727" lon="13.3599541"><ele>38.5</ele><time>2026-04-28T15:06:42.797Z</time></trkpt><trkpt lat="38.1005766" lon="13.359821"><ele>39.0</ele><time>2026-04-28T15:06:43.793Z</time></trkpt><trkpt lat="38.1004923" lon="13.3597116"><ele>39.6</ele><time>2026-04-28T15:06:44.794Z</time></trkpt><trkpt lat="38.1004171" lon="13.3596203"><ele>40.2</ele><time>2026-04-28T15:06:45.795Z</time></trkpt><trkpt lat="38.1003406" lon="13.3595292"><ele>40.800000000000004</ele><time>2026-04-28T15:06:46.796Z</time></trkpt><trkpt lat="38.1002611" lon="13.3594242"><ele>41.4</ele><time>2026-04-28T15:06:47.798Z</time></trkpt><trkpt lat="38.100195" lon="13.3593112"><ele>42.0</ele><time>2026-04-28T15:06:48.794Z</time></trkpt><trkpt lat="38.1001546" lon="13.3591991"><ele>42.0</ele><time>2026-04-28T15:06:49.796Z</time></trkpt><trkpt lat="38.1001415" lon="13.3590947"><ele>42.0</ele><time>2026-04-28T15:06:50.794Z</time></trkpt><trkpt lat="38.1001496" lon="13.3590015"><ele>42.0</ele><time>2026-04-28T15:06:51.795Z</time></trkpt><trkpt lat="38.1001744" lon="13.3589101"><ele>42.0</ele><time>2026-04-28T15:06:52.794Z</time></trkpt><trkpt lat="38.1002156" lon="13.3588214"><ele>42.0</ele><time>2026-04-28T15:06:53.797Z</time></trkpt><trkpt lat="38.1002726" lon="13.3587248"><ele>42.0</ele><time>2026-04-28T15:06:54.794Z</time></trkpt><trkpt lat="38.1003473" lon="13.3586186"><ele>42.2</ele><time>2026-04-28T15:06:55.796Z</time></trkpt><trkpt lat="38.1004294" lon="13.3585086"><ele>42.400000000000006</ele><time>2026-04-28T15:06:56.79Z</time></trkpt><trkpt lat="38.1005037" lon="13.3584003"><ele>42.599999999999994</ele><time>2026-04-28T15:06:57.798Z</time></trkpt><trkpt lat="38.1005535" lon="13.3582977"><ele>42.8</ele><time>2026-04-28T15:06:58.793Z</time></trkpt><trkpt lat="38.1005723" lon="13.3582101"><ele>43.0</ele><time>2026-04-28T15:06:59.789Z</time></trkpt><trkpt lat="38.100525" lon="13.3580912"><ele>44.599999999999994</ele><time>2026-04-28T15:07:01.795Z</time></trkpt><trkpt lat="38.1004654" lon="13.3580125"><ele>46.199999999999996</ele><time>2026-04-28T15:07:02.795Z</time></trkpt><trkpt lat="38.1003908" lon="13.3579196"><ele>47.8</ele><time>2026-04-28T15:07:03.79Z</time></trkpt><trkpt lat="38.1003069" lon="13.3578057"><ele>49.4</ele><time>2026-04-28T15:07:04.794Z</time></trkpt><trkpt lat="38.1002283" lon="13.3576823"><ele>51.0</ele><time>2026-04-28T15:07:05.79Z</time></trkpt><trkpt lat="38.1001479" lon="13.3575547"><ele>51.0</ele><time>2026-04-28T15:07:06.792Z</time></trkpt><trkpt lat="38.1000672" lon="13.3574235"><ele>51.0</ele><time>2026-04-28T15:07:07.789Z</time></trkpt><trkpt lat="38.0999927" lon="13.3572858"><ele>51.0</ele><time>2026-04-28T15:07:08.794Z</time></trkpt><trkpt lat="38.0999274" lon="13.3571532"><ele>51.0</ele><time>2026-04-28T15:07:09.793Z</time></trkpt><trkpt lat="38.0998724" lon="13.3570306"><ele>51.333333333333336</ele><time>2026-04-28T15:07:10.795Z</time></trkpt><trkpt lat="38.099823" lon="13.3569232"><ele>51.66666666666667</ele><time>2026-04-28T15:07:11.788Z</time></trkpt><trkpt lat="38.099781" lon="13.3568182"><ele>52.0</ele><time>2026-04-28T15:07:12.796Z</time></trkpt><trkpt lat="38.0997433" lon="13.3567268"><ele>52.333333333333336</ele><time>2026-04-28T15:07:13.793Z</time></trkpt><trkpt lat="38.0997128" lon="13.3566487"><ele>52.66666666666667</ele><time>2026-04-28T15:07:14.792Z</time></trkpt><trkpt lat="38.0996678" lon="13.3565322"><ele>53.0</ele><time>2026-04-28T15:07:16.796Z</time></trkpt><trkpt lat="38.0996029" lon="13.3564867"><ele>53.00000000000001</ele><time>2026-04-28T15:07:20.793Z</time></trkpt><trkpt lat="38.0994962" lon="13.3564915"><ele>53.0</ele><time>2026-04-28T15:07:22.792Z</time></trkpt><trkpt lat="38.0994332" lon="13.3565023"><ele>53.0</ele><time>2026-04-28T15:07:23.794Z</time></trkpt><trkpt lat="38.0993626" lon="13.3565266"><ele>53.0</ele><time>2026-04-28T15:07:24.789Z</time></trkpt><trkpt lat="38.0992969" lon="13.3565562"><ele>53.00000000000001</ele><time>2026-04-28T15:07:25.787Z</time></trkpt><trkpt lat="38.0991966" lon="13.3565882"><ele>53.0</ele><time>2026-04-28T15:07:27.788Z</time></trkpt><trkpt lat="38.0991366" lon="13.3565327"><ele>53.0</ele><time>2026-04-28T15:07:29.792Z</time></trkpt><trkpt lat="38.09909" lon="13.3563708"><ele>53.0</ele><time>2026-04-28T15:07:31.791Z</time></trkpt><trkpt lat="38.0990673" lon="13.3562516"><ele>53.0</ele><time>2026-04-28T15:07:32.798Z</time></trkpt><trkpt lat="38.0990431" lon="13.3561144"><ele>53.0</ele><time>2026-04-28T15:07:33.788Z</time></trkpt><trkpt lat="38.0990107" lon="13.3559738"><ele>54.25</ele><time>2026-04-28T15:07:34.788Z</time></trkpt><trkpt lat="38.0989678" lon="13.3558251"><ele>55.5</ele><time>2026-04-28T15:07:35.791Z</time></trkpt><trkpt lat="38.0989237" lon="13.3556668"><ele>56.75</ele><time>2026-04-28T15:07:36.798Z</time></trkpt><trkpt lat="38.0988858" lon="13.3555089"><ele>58.0</ele><time>2026-04-28T15:07:37.806Z</time></trkpt><trkpt lat="38.0988504" lon="13.3553649"><ele>58.0</ele><time>2026-04-28T15:07:38.789Z</time></trkpt><trkpt lat="38.0988166" lon="13.3552295"><ele>58.0</ele><time>2026-04-28T15:07:39.787Z</time></trkpt><trkpt lat="38.0987799" lon="13.3550991"><ele>58.0</ele><time>2026-04-28T15:07:40.791Z</time></trkpt><trkpt lat="38.0987494" lon="13.3549847"><ele>58.0</ele><time>2026-04-28T15:07:41.79Z</time></trkpt><trkpt lat="38.098724" lon="13.3548948"><ele>58.0</ele><time>2026-04-28T15:07:42.788Z</time></trkpt><trkpt lat="38.0986992" lon="13.3548066"><ele>57.8</ele><time>2026-04-28T15:07:43.794Z</time></trkpt><trkpt lat="38.098675" lon="13.3547023"><ele>57.599999999999994</ele><time>2026-04-28T15:07:44.792Z</time></trkpt><trkpt lat="38.0986432" lon="13.3545884"><ele>57.400000000000006</ele><time>2026-04-28T15:07:45.796Z</time></trkpt><trkpt lat="38.0986032" lon="13.3544646"><ele>57.2</ele><time>2026-04-28T15:07:46.791Z</time></trkpt><trkpt lat="38.0985565" lon="13.3543275"><ele>57.0</ele><time>2026-04-28T15:07:47.787Z</time></trkpt><trkpt lat="38.0985138" lon="13.3541947"><ele>57.0</ele><time>2026-04-28T15:07:48.794Z</time></trkpt><trkpt lat="38.0984765" lon="13.3540702"><ele>57.0</ele><time>2026-04-28T15:07:49.789Z</time></trkpt><trkpt lat="38.0984455" lon="13.3539497"><ele>57.0</ele><time>2026-04-28T15:07:50.795Z</time></trkpt><trkpt lat="38.0984189" lon="13.3538462"><ele>57.0</ele><time>2026-04-28T15:07:51.789Z</time></trkpt><trkpt lat="38.0983973" lon="13.3537633"><ele>57.0</ele><time>2026-04-28T15:07:52.791Z</time></trkpt><trkpt lat="38.0983854" lon="13.35368"><ele>57.0</ele><time>2026-04-28T15:07:53.79Z</time></trkpt><trkpt lat="38.0983738" lon="13.3536007"><ele>56.0</ele><time>2026-04-28T15:07:54.789Z</time></trkpt><trkpt lat="38.0983558" lon="13.3534531"><ele>55.0</ele><time>2026-04-28T15:07:56.792Z</time></trkpt><trkpt lat="38.0983309" lon="13.3533371"><ele>54.0</ele><time>2026-04-28T15:07:58.789Z</time></trkpt><trkpt lat="38.098292" lon="13.3532522"><ele>53.0</ele><time>2026-04-28T15:08:00.794Z</time></trkpt><trkpt lat="38.0981896" lon="13.3532722"><ele>52.0</ele><time>2026-04-28T15:08:03.796Z</time></trkpt><trkpt lat="38.0981263" lon="13.3533066"><ele>51.6</ele><time>2026-04-28T15:08:04.791Z</time></trkpt><trkpt lat="38.0980557" lon="13.3533297"><ele>51.2</ele><time>2026-04-28T15:08:05.798Z</time></trkpt><trkpt lat="38.097945" lon="13.3533504"><ele>50.8</ele><time>2026-04-28T15:08:07.79Z</time></trkpt><trkpt lat="38.0978769" lon="13.3532832"><ele>50.4</ele><time>2026-04-28T15:08:09.794Z</time></trkpt><trkpt lat="38.0978715" lon="13.3531018"><ele>50.0</ele><time>2026-04-28T15:08:11.79Z</time></trkpt><trkpt lat="38.0978707" lon="13.3529863"><ele>50.0</ele><time>2026-04-28T15:08:12.791Z</time></trkpt><trkpt lat="38.0978586" lon="13.3528682"><ele>50.0</ele><time>2026-04-28T15:08:13.792Z</time></trkpt><trkpt lat="38.0978332" lon="13.3527409"><ele>50.0</ele><time>2026-04-28T15:08:14.797Z</time></trkpt><trkpt lat="38.0977931" lon="13.352618"><ele>50.0</ele><time>2026-04-28T15:08:15.797Z</time></trkpt><trkpt lat="38.0977446" lon="13.3525001"><ele>50.0</ele><time>2026-04-28T15:08:16.793Z</time></trkpt><trkpt lat="38.0976925" lon="13.3523833"><ele>50.0</ele><time>2026-04-28T15:08:17.793Z</time></trkpt><trkpt lat="38.0976363" lon="13.3522691"><ele>50.0</ele><time>2026-04-28T15:08:18.789Z</time></trkpt><trkpt lat="38.0975811" lon="13.3521614"><ele>50.0</ele><time>2026-04-28T15:08:19.79Z</time></trkpt><trkpt lat="38.0975326" lon="13.3520672"><ele>50.0</ele><time>2026-04-28T15:08:20.79Z</time></trkpt><trkpt lat="38.0974953" lon="13.3519906"><ele>50.0</ele><time>2026-04-28T15:08:21.787Z</time></trkpt><trkpt lat="38.0974706" lon="13.3518743"><ele>50.66666666666667</ele><time>2026-04-28T15:08:23.786Z</time></trkpt><trkpt lat="38.0975069" lon="13.3517734"><ele>51.333333333333336</ele><time>2026-04-28T15:08:25.789Z</time></trkpt><trkpt lat="38.0975505" lon="13.3516741"><ele>52.0</ele><time>2026-04-28T15:08:27.791Z</time></trkpt><trkpt lat="38.0975294" lon="13.3515619"><ele>52.66666666666667</ele><time>2026-04-28T15:08:29.794Z</time></trkpt><trkpt lat="38.0974958" lon="13.3514923"><ele>53.333333333333336</ele><time>2026-04-28T15:08:30.79Z</time></trkpt><trkpt lat="38.0974516" lon="13.3514044"><ele>54.0</ele><time>2026-04-28T15:08:31.788Z</time></trkpt><trkpt lat="38.097407" lon="13.3512978"><ele>54.400000000000006</ele><time>2026-04-28T15:08:32.798Z</time></trkpt><trkpt lat="38.0973696" lon="13.3511777"><ele>54.800000000000004</ele><time>2026-04-28T15:08:33.796Z</time></trkpt><trkpt lat="38.0973349" lon="13.3510562"><ele>55.199999999999996</ele><time>2026-04-28T15:08:34.797Z</time></trkpt><trkpt lat="38.0973095" lon="13.3509374"><ele>55.599999999999994</ele><time>2026-04-28T15:08:35.796Z</time></trkpt><trkpt lat="38.0972959" lon="13.3508246"><ele>56.0</ele><time>2026-04-28T15:08:36.788Z</time></trkpt><trkpt lat="38.0972843" lon="13.3507349"><ele>56.00000000000001</ele><time>2026-04-28T15:08:37.79Z</time></trkpt><trkpt lat="38.097261" lon="13.3506011"><ele>56.0</ele><time>2026-04-28T15:08:39.798Z</time></trkpt><trkpt lat="38.0972482" lon="13.3505045"><ele>56.0</ele><time>2026-04-28T15:08:41.789Z</time></trkpt><trkpt lat="38.0972455" lon="13.3504214"><ele>56.0</ele><time>2026-04-28T15:08:45.789Z</time></trkpt><trkpt lat="38.0972266" lon="13.3503304"><ele>56.00000000000001</ele><time>2026-04-28T15:08:49.795Z</time></trkpt><trkpt lat="38.0972093" lon="13.3502503"><ele>56.0</ele><time>2026-04-28T15:08:51.789Z</time></trkpt><trkpt lat="38.0972011" lon="13.350151"><ele>56.8</ele><time>2026-04-28T15:08:55.796Z</time></trkpt><trkpt lat="38.0971707" lon="13.3500746"><ele>57.599999999999994</ele><time>2026-04-28T15:09:00.796Z</time></trkpt><trkpt lat="38.0971547" lon="13.3499577"><ele>58.4</ele><time>2026-04-28T15:09:03.795Z</time></trkpt><trkpt lat="38.0971391" lon="13.3498612"><ele>59.2</ele><time>2026-04-28T15:09:06.798Z</time></trkpt><trkpt lat="38.0970732" lon="13.3498054"><ele>60.0</ele><time>2026-04-28T15:09:08.793Z</time></trkpt><trkpt lat="38.0969389" lon="13.3497862"><ele>60.0</ele><time>2026-04-28T15:09:10.793Z</time></trkpt><trkpt lat="38.0968593" lon="13.3497805"><ele>60.0</ele><time>2026-04-28T15:09:11.79Z</time></trkpt><trkpt lat="38.096776" lon="13.3497749"><ele>60.0</ele><time>2026-04-28T15:09:12.792Z</time></trkpt><trkpt lat="38.0966951" lon="13.3497745"><ele>60.0</ele><time>2026-04-28T15:09:13.789Z</time></trkpt><trkpt lat="38.0966237" lon="13.3497683"><ele>60.0</ele><time>2026-04-28T15:09:14.793Z</time></trkpt><trkpt lat="38.0965606" lon="13.3497632"><ele>60.0</ele><time>2026-04-28T15:09:15.792Z</time></trkpt><trkpt lat="38.0964529" lon="13.3497719"><ele>60.333333333333336</ele><time>2026-04-28T15:09:17.797Z</time></trkpt><trkpt lat="38.0963275" lon="13.3497609"><ele>60.66666666666667</ele><time>2026-04-28T15:09:19.797Z</time></trkpt><trkpt lat="38.0962542" lon="13.3497668"><ele>61.0</ele><time>2026-04-28T15:09:20.791Z</time></trkpt><trkpt lat="38.0961778" lon="13.3497675"><ele>61.333333333333336</ele><time>2026-04-28T15:09:21.798Z</time></trkpt><trkpt lat="38.0960989" lon="13.3497614"><ele>61.66666666666667</ele><time>2026-04-28T15:09:22.787Z</time></trkpt><trkpt lat="38.0960185" lon="13.3497499"><ele>62.0</ele><time>2026-04-28T15:09:23.797Z</time></trkpt><trkpt lat="38.095932" lon="13.3497435"><ele>62.0</ele><time>2026-04-28T15:09:24.79Z</time></trkpt><trkpt lat="38.0958387" lon="13.349744"><ele>62.0</ele><time>2026-04-28T15:09:25.794Z</time></trkpt><trkpt lat="38.0957405" lon="13.3497496"><ele>62.0</ele><time>2026-04-28T15:09:26.792Z</time></trkpt><trkpt lat="38.0956413" lon="13.3497769"><ele>62.0</ele><time>2026-04-28T15:09:27.798Z</time></trkpt><trkpt lat="38.0955397" lon="13.3498172"><ele>62.0</ele><time>2026-04-28T15:09:28.795Z</time></trkpt><trkpt lat="38.0954353" lon="13.3498602"><ele>61.25</ele><time>2026-04-28T15:09:29.795Z</time></trkpt><trkpt lat="38.095328" lon="13.3499033"><ele>60.5</ele><time>2026-04-28T15:09:30.796Z</time></trkpt><trkpt lat="38.0952198" lon="13.3499451"><ele>59.75</ele><time>2026-04-28T15:09:31.799Z</time></trkpt><trkpt lat="38.0951101" lon="13.3499848"><ele>59.0</ele><time>2026-04-28T15:09:32.794Z</time></trkpt><trkpt lat="38.0949988" lon="13.3500156"><ele>59.25</ele><time>2026-04-28T15:09:33.798Z</time></trkpt><trkpt lat="38.0948859" lon="13.3500291"><ele>59.5</ele><time>2026-04-28T15:09:34.792Z</time></trkpt><trkpt lat="38.0947759" lon="13.3500237"><ele>59.75</ele><time>2026-04-28T15:09:35.802Z</time></trkpt><trkpt lat="38.0946651" lon="13.3500063"><ele>60.0</ele><time>2026-04-28T15:09:36.802Z</time></trkpt><trkpt lat="38.0945512" lon="13.3499814"><ele>60.0</ele><time>2026-04-28T15:09:37.795Z</time></trkpt><trkpt lat="38.0944386" lon="13.3499491"><ele>60.0</ele><time>2026-04-28T15:09:38.796Z</time></trkpt><trkpt lat="38.0943281" lon="13.3499142"><ele>60.0</ele><time>2026-04-28T15:09:39.795Z</time></trkpt><trkpt lat="38.0942253" lon="13.3498754"><ele>60.0</ele><time>2026-04-28T15:09:40.795Z</time></trkpt><trkpt lat="38.0941338" lon="13.3498366"><ele>60.0</ele><time>2026-04-28T15:09:41.796Z</time></trkpt><trkpt lat="38.0940494" lon="13.349795"><ele>60.8</ele><time>2026-04-28T15:09:42.795Z</time></trkpt><trkpt lat="38.0939642" lon="13.3497587"><ele>61.6</ele><time>2026-04-28T15:09:43.794Z</time></trkpt><trkpt lat="38.093872" lon="13.3497203"><ele>62.400000000000006</ele><time>2026-04-28T15:09:44.793Z</time></trkpt><trkpt lat="38.0937734" lon="13.3496755"><ele>63.2</ele><time>2026-04-28T15:09:45.792Z</time></trkpt><trkpt lat="38.0936601" lon="13.3496233"><ele>64.0</ele><time>2026-04-28T15:09:46.793Z</time></trkpt><trkpt lat="38.0935409" lon="13.3495627"><ele>64.0</ele><time>2026-04-28T15:09:47.798Z</time></trkpt><trkpt lat="38.0934269" lon="13.3494931"><ele>64.0</ele><time>2026-04-28T15:09:48.797Z</time></trkpt><trkpt lat="38.0933312" lon="13.349431"><ele>64.0</ele><time>2026-04-28T15:09:49.795Z</time></trkpt><trkpt lat="38.0932541" lon="13.3493878"><ele>64.0</ele><time>2026-04-28T15:09:50.794Z</time></trkpt><trkpt lat="38.0931883" lon="13.3493602"><ele>64.0</ele><time>2026-04-28T15:09:51.792Z</time></trkpt><trkpt lat="38.0931256" lon="13.3493411"><ele>64.16666666666666</ele><time>2026-04-28T15:09:52.788Z</time></trkpt><trkpt lat="38.0930577" lon="13.3493241"><ele>64.33333333333333</ele><time>2026-04-28T15:09:53.789Z</time></trkpt><trkpt lat="38.0929789" lon="13.3493064"><ele>64.5</ele><time>2026-04-28T15:09:54.788Z</time></trkpt><trkpt lat="38.0928917" lon="13.3492803"><ele>64.66666666666667</ele><time>2026-04-28T15:09:55.79Z</time></trkpt><trkpt lat="38.0928063" lon="13.3492465"><ele>64.83333333333334</ele><time>2026-04-28T15:09:56.788Z</time></trkpt><trkpt lat="38.0927228" lon="13.3492028"><ele>65.0</ele><time>2026-04-28T15:09:57.797Z</time></trkpt><trkpt lat="38.0926419" lon="13.3491492"><ele>65.0</ele><time>2026-04-28T15:09:58.794Z</time></trkpt><trkpt lat="38.0925584" lon="13.349092"><ele>65.0</ele><time>2026-04-28T15:09:59.791Z</time></trkpt><trkpt lat="38.09248" lon="13.3490279"><ele>65.0</ele><time>2026-04-28T15:10:00.793Z</time></trkpt><trkpt lat="38.0924101" lon="13.3489698"><ele>65.0</ele><time>2026-04-28T15:10:01.792Z</time></trkpt><trkpt lat="38.0923451" lon="13.3489019"><ele>65.0</ele><time>2026-04-28T15:10:02.798Z</time></trkpt><trkpt lat="38.0922833" lon="13.3488162"><ele>65.0</ele><time>2026-04-28T15:10:03.791Z</time></trkpt><trkpt lat="38.0922252" lon="13.3487208"><ele>62.2</ele><time>2026-04-28T15:10:04.801Z</time></trkpt><trkpt lat="38.0921762" lon="13.3486122"><ele>59.4</ele><time>2026-04-28T15:10:05.791Z</time></trkpt><trkpt lat="38.0921391" lon="13.3484907"><ele>56.599999999999994</ele><time>2026-04-28T15:10:06.801Z</time></trkpt><trkpt lat="38.0921184" lon="13.3483578"><ele>53.8</ele><time>2026-04-28T15:10:07.797Z</time></trkpt><trkpt lat="38.0921129" lon="13.348209"><ele>51.0</ele><time>2026-04-28T15:10:08.789Z</time></trkpt><trkpt lat="38.0921246" lon="13.3480382"><ele>50.0</ele><time>2026-04-28T15:10:09.802Z</time></trkpt><trkpt lat="38.0921478" lon="13.3478503"><ele>49.0</ele><time>2026-04-28T15:10:10.799Z</time></trkpt><trkpt lat="38.0921901" lon="13.3476468"><ele>48.0</ele><time>2026-04-28T15:10:11.789Z</time></trkpt><trkpt lat="38.0922326" lon="13.3474291"><ele>50.33333333333333</ele><time>2026-04-28T15:10:12.798Z</time></trkpt><trkpt lat="38.0922659" lon="13.3472022"><ele>52.666666666666664</ele><time>2026-04-28T15:10:13.799Z</time></trkpt><trkpt lat="38.0922795" lon="13.3469647"><ele>55.0</ele><time>2026-04-28T15:10:14.793Z</time></trkpt><trkpt lat="38.0922724" lon="13.3467223"><ele>55.0</ele><time>2026-04-28T15:10:15.794Z</time></trkpt><trkpt lat="38.0922463" lon="13.3464787"><ele>55.0</ele><time>2026-04-28T15:10:16.799Z</time></trkpt><trkpt lat="38.0922171" lon="13.3462493"><ele>55.0</ele><time>2026-04-28T15:10:17.789Z</time></trkpt><trkpt lat="38.0922006" lon="13.3460583"><ele>55.6</ele><time>2026-04-28T15:10:18.79Z</time></trkpt><trkpt lat="38.0921957" lon="13.3459161"><ele>56.2</ele><time>2026-04-28T15:10:19.793Z</time></trkpt><trkpt lat="38.0921935" lon="13.3458084"><ele>56.8</ele><time>2026-04-28T15:10:20.796Z</time></trkpt><trkpt lat="38.0921661" lon="13.3456799"><ele>57.4</ele><time>2026-04-28T15:10:22.791Z</time></trkpt><trkpt lat="38.0920893" lon="13.3456327"><ele>58.0</ele><time>2026-04-28T15:10:25.792Z</time></trkpt><trkpt lat="38.0920435" lon="13.3455546"><ele>60.2</ele><time>2026-04-28T15:10:27.792Z</time></trkpt><trkpt lat="38.0920001" lon="13.3454806"><ele>62.4</ele><time>2026-04-28T15:10:28.799Z</time></trkpt><trkpt lat="38.0919363" lon="13.3453938"><ele>64.60000000000001</ele><time>2026-04-28T15:10:29.797Z</time></trkpt><trkpt lat="38.0918599" lon="13.3452934"><ele>66.8</ele><time>2026-04-28T15:10:30.795Z</time></trkpt><trkpt lat="38.09178" lon="13.3451735"><ele>69.0</ele><time>2026-04-28T15:10:31.799Z</time></trkpt><trkpt lat="38.0917044" lon="13.345049"><ele>69.0</ele><time>2026-04-28T15:10:32.797Z</time></trkpt><trkpt lat="38.0916379" lon="13.3449309"><ele>69.0</ele><time>2026-04-28T15:10:33.798Z</time></trkpt><trkpt lat="38.0915622" lon="13.3448194"><ele>69.0</ele><time>2026-04-28T15:10:34.798Z</time></trkpt><trkpt lat="38.0914725" lon="13.3447074"><ele>69.0</ele><time>2026-04-28T15:10:35.799Z</time></trkpt><trkpt lat="38.0913796" lon="13.344574"><ele>69.75</ele><time>2026-04-28T15:10:36.794Z</time></trkpt><trkpt lat="38.0912826" lon="13.3444334"><ele>70.5</ele><time>2026-04-28T15:10:37.803Z</time></trkpt><trkpt lat="38.0911913" lon="13.344311"><ele>71.25</ele><time>2026-04-28T15:10:38.797Z</time></trkpt><trkpt lat="38.0911103" lon="13.3442044"><ele>72.0</ele><time>2026-04-28T15:10:39.8Z</time></trkpt><trkpt lat="38.0910324" lon="13.3440971"><ele>72.0</ele><time>2026-04-28T15:10:40.798Z</time></trkpt><trkpt lat="38.0909602" lon="13.3439864"><ele>72.0</ele><time>2026-04-28T15:10:41.795Z</time></trkpt><trkpt lat="38.0908937" lon="13.3438816"><ele>72.0</ele><time>2026-04-28T15:10:42.798Z</time></trkpt><trkpt lat="38.0908382" lon="13.3437917"><ele>72.0</ele><time>2026-04-28T15:10:43.799Z</time></trkpt><trkpt lat="38.0907994" lon="13.3437246"><ele>72.0</ele><time>2026-04-28T15:10:44.799Z</time></trkpt><trkpt lat="38.090798" lon="13.3436231"><ele>72.25</ele><time>2026-04-28T15:10:46.797Z</time></trkpt><trkpt lat="38.090883" lon="13.3435189"><ele>72.5</ele><time>2026-04-28T15:10:48.797Z</time></trkpt><trkpt lat="38.0909609" lon="13.3434419"><ele>72.75</ele><time>2026-04-28T15:10:49.795Z</time></trkpt><trkpt lat="38.0910529" lon="13.3433416"><ele>73.0</ele><time>2026-04-28T15:10:50.794Z</time></trkpt><trkpt lat="38.0911499" lon="13.343219"><ele>73.0</ele><time>2026-04-28T15:10:51.793Z</time></trkpt><trkpt lat="38.0912448" lon="13.3430788"><ele>73.0</ele><time>2026-04-28T15:10:52.795Z</time></trkpt><trkpt lat="38.091347" lon="13.3429216"><ele>73.0</ele><time>2026-04-28T15:10:53.797Z</time></trkpt><trkpt lat="38.0914479" lon="13.3427539"><ele>74.0</ele><time>2026-04-28T15:10:54.797Z</time></trkpt><trkpt lat="38.0915568" lon="13.3425834"><ele>75.0</ele><time>2026-04-28T15:10:55.801Z</time></trkpt><trkpt lat="38.0916741" lon="13.3424127"><ele>76.0</ele><time>2026-04-28T15:10:56.793Z</time></trkpt><trkpt lat="38.0917947" lon="13.3422503"><ele>75.33333333333333</ele><time>2026-04-28T15:10:57.797Z</time></trkpt><trkpt lat="38.0919116" lon="13.3420997"><ele>74.66666666666667</ele><time>2026-04-28T15:10:58.796Z</time></trkpt><trkpt lat="38.0920253" lon="13.3419587"><ele>74.0</ele><time>2026-04-28T15:10:59.791Z</time></trkpt><trkpt lat="38.0921387" lon="13.341818"><ele>74.0</ele><time>2026-04-28T15:11:00.801Z</time></trkpt><trkpt lat="38.0922507" lon="13.3416732"><ele>74.0</ele><time>2026-04-28T15:11:01.797Z</time></trkpt><trkpt lat="38.0923601" lon="13.3415284"><ele>74.0</ele><time>2026-04-28T15:11:02.797Z</time></trkpt><trkpt lat="38.092461" lon="13.3413918"><ele>73.75</ele><time>2026-04-28T15:11:03.803Z</time></trkpt><trkpt lat="38.0925559" lon="13.3412601"><ele>73.5</ele><time>2026-04-28T15:11:04.791Z</time></trkpt><trkpt lat="38.0926501" lon="13.3411234"><ele>73.25</ele><time>2026-04-28T15:11:05.799Z</time></trkpt><trkpt lat="38.0927485" lon="13.3409821"><ele>73.0</ele><time>2026-04-28T15:11:06.797Z</time></trkpt><trkpt lat="38.0928536" lon="13.3408347"><ele>73.0</ele><time>2026-04-28T15:11:07.797Z</time></trkpt><trkpt lat="38.0929698" lon="13.3406843"><ele>73.0</ele><time>2026-04-28T15:11:08.803Z</time></trkpt><trkpt lat="38.0931053" lon="13.34053"><ele>73.0</ele><time>2026-04-28T15:11:09.796Z</time></trkpt><trkpt lat="38.0932489" lon="13.3403694"><ele>72.0</ele><time>2026-04-28T15:11:10.795Z</time></trkpt><trkpt lat="38.093396" lon="13.3401955"><ele>71.0</ele><time>2026-04-28T15:11:11.801Z</time></trkpt><trkpt lat="38.0935396" lon="13.3400215"><ele>70.0</ele><time>2026-04-28T15:11:12.794Z</time></trkpt><trkpt lat="38.0936733" lon="13.3398563"><ele>72.33333333333333</ele><time>2026-04-28T15:11:13.794Z</time></trkpt><trkpt lat="38.0937946" lon="13.3396931"><ele>74.66666666666667</ele><time>2026-04-28T15:11:14.796Z</time></trkpt><trkpt lat="38.0939067" lon="13.3395364"><ele>77.0</ele><time>2026-04-28T15:11:15.79Z</time></trkpt><trkpt lat="38.094011" lon="13.3393928"><ele>77.25</ele><time>2026-04-28T15:11:16.8Z</time></trkpt><trkpt lat="38.094109" lon="13.3392569"><ele>77.5</ele><time>2026-04-28T15:11:17.793Z</time></trkpt><trkpt lat="38.0942062" lon="13.3391405"><ele>77.75</ele><time>2026-04-28T15:11:18.795Z</time></trkpt><trkpt lat="38.094293" lon="13.339043"><ele>78.0</ele><time>2026-04-28T15:11:19.793Z</time></trkpt><trkpt lat="38.094374" lon="13.3389513"><ele>77.83333333333333</ele><time>2026-04-28T15:11:20.792Z</time></trkpt><trkpt lat="38.0944489" lon="13.338876"><ele>77.66666666666667</ele><time>2026-04-28T15:11:21.797Z</time></trkpt><trkpt lat="38.0945195" lon="13.3388219"><ele>77.5</ele><time>2026-04-28T15:11:22.792Z</time></trkpt><trkpt lat="38.0945867" lon="13.3387935"><ele>77.33333333333334</ele><time>2026-04-28T15:11:23.794Z</time></trkpt><trkpt lat="38.0946563" lon="13.3387892"><ele>77.16666666666667</ele><time>2026-04-28T15:11:24.796Z</time></trkpt><trkpt lat="38.0947295" lon="13.3388135"><ele>77.0</ele><time>2026-04-28T15:11:25.796Z</time></trkpt><trkpt lat="38.0947975" lon="13.338869"><ele>77.2</ele><time>2026-04-28T15:11:26.796Z</time></trkpt><trkpt lat="38.0948554" lon="13.3389558"><ele>77.4</ele><time>2026-04-28T15:11:27.796Z</time></trkpt><trkpt lat="38.0948924" lon="13.339077"><ele>77.6</ele><time>2026-04-28T15:11:28.799Z</time></trkpt><trkpt lat="38.0949105" lon="13.3392149"><ele>77.8</ele><time>2026-04-28T15:11:29.791Z</time></trkpt><trkpt lat="38.094905" lon="13.3393493"><ele>78.0</ele><time>2026-04-28T15:11:30.792Z</time></trkpt><trkpt lat="38.0948806" lon="13.3394748"><ele>78.0</ele><time>2026-04-28T15:11:31.801Z</time></trkpt><trkpt lat="38.094836" lon="13.3395988"><ele>78.0</ele><time>2026-04-28T15:11:32.797Z</time></trkpt><trkpt lat="38.0947712" lon="13.3397115"><ele>78.0</ele><time>2026-04-28T15:11:33.794Z</time></trkpt><trkpt lat="38.0946961" lon="13.3398033"><ele>78.0</ele><time>2026-04-28T15:11:34.803Z</time></trkpt><trkpt lat="38.0946143" lon="13.3398587"><ele>78.0</ele><time>2026-04-28T15:11:35.8Z</time></trkpt><trkpt lat="38.0945417" lon="13.3398801"><ele>78.0</ele><time>2026-04-28T15:11:36.796Z</time></trkpt><trkpt lat="38.0944748" lon="13.3398698"><ele>78.0</ele><time>2026-04-28T15:11:37.8Z</time></trkpt><trkpt lat="38.0943891" lon="13.3398103"><ele>78.0</ele><time>2026-04-28T15:11:39.8Z</time></trkpt><trkpt lat="38.0943463" lon="13.3397086"><ele>78.0</ele><time>2026-04-28T15:11:41.793Z</time></trkpt><trkpt lat="38.0943175" lon="13.3396365"><ele>78.0</ele><time>2026-04-28T15:11:42.798Z</time></trkpt><trkpt lat="38.0942738" lon="13.3395472"><ele>78.0</ele><time>2026-04-28T15:11:43.795Z</time></trkpt><trkpt lat="38.0942137" lon="13.3394456"><ele>78.0</ele><time>2026-04-28T15:11:44.797Z</time></trkpt><trkpt lat="38.0941427" lon="13.3393322"><ele>78.0</ele><time>2026-04-28T15:11:45.791Z</time></trkpt><trkpt lat="38.0940662" lon="13.3392036"><ele>78.0</ele><time>2026-04-28T15:11:46.799Z</time></trkpt><trkpt lat="38.093983" lon="13.3390656"><ele>78.0</ele><time>2026-04-28T15:11:47.797Z</time></trkpt><trkpt lat="38.0938974" lon="13.338912"><ele>78.0</ele><time>2026-04-28T15:11:48.793Z</time></trkpt><trkpt lat="38.0938079" lon="13.3387499"><ele>78.0</ele><time>2026-04-28T15:11:49.791Z</time></trkpt><trkpt lat="38.0937156" lon="13.3385837"><ele>78.0</ele><time>2026-04-28T15:11:50.793Z</time></trkpt><trkpt lat="38.0936224" lon="13.3384117"><ele>78.0</ele><time>2026-04-28T15:11:51.799Z</time></trkpt><trkpt lat="38.0935285" lon="13.3382311"><ele>78.0</ele><time>2026-04-28T15:11:52.79Z</time></trkpt><trkpt lat="38.0934299" lon="13.3380441"><ele>78.0</ele><time>2026-04-28T15:11:53.798Z</time></trkpt><trkpt lat="38.093324" lon="13.3378473"><ele>78.33333333333333</ele><time>2026-04-28T15:11:54.797Z</time></trkpt><trkpt lat="38.093215" lon="13.3376451"><ele>78.66666666666666</ele><time>2026-04-28T15:11:55.8Z</time></trkpt><trkpt lat="38.093103" lon="13.3374349"><ele>79.0</ele><time>2026-04-28T15:11:56.794Z</time></trkpt><trkpt lat="38.0929859" lon="13.3372202"><ele>79.33333333333333</ele><time>2026-04-28T15:11:57.796Z</time></trkpt><trkpt lat="38.0928679" lon="13.3370082"><ele>79.66666666666667</ele><time>2026-04-28T15:11:58.798Z</time></trkpt><trkpt lat="38.0927506" lon="13.336804"><ele>80.0</ele><time>2026-04-28T15:11:59.799Z</time></trkpt><trkpt lat="38.0926336" lon="13.3366181"><ele>80.0</ele><time>2026-04-28T15:12:00.796Z</time></trkpt><trkpt lat="38.0925146" lon="13.3364507"><ele>80.0</ele><time>2026-04-28T15:12:01.8Z</time></trkpt><trkpt lat="38.0923869" lon="13.3362988"><ele>80.0</ele><time>2026-04-28T15:12:02.798Z</time></trkpt><trkpt lat="38.0922537" lon="13.3361645"><ele>80.66666666666667</ele><time>2026-04-28T15:12:03.806Z</time></trkpt><trkpt lat="38.0921102" lon="13.3360429"><ele>81.33333333333333</ele><time>2026-04-28T15:12:04.796Z</time></trkpt><trkpt lat="38.0919576" lon="13.3359333"><ele>82.0</ele><time>2026-04-28T15:12:05.801Z</time></trkpt><trkpt lat="38.0917903" lon="13.3358386"><ele>82.0</ele><time>2026-04-28T15:12:06.798Z</time></trkpt><trkpt lat="38.0916102" lon="13.3357495"><ele>82.0</ele><time>2026-04-28T15:12:07.8Z</time></trkpt><trkpt lat="38.0914162" lon="13.3356769"><ele>82.0</ele><time>2026-04-28T15:12:08.796Z</time></trkpt><trkpt lat="38.0912104" lon="13.3356216"><ele>82.66666666666666</ele><time>2026-04-28T15:12:09.801Z</time></trkpt><trkpt lat="38.0909983" lon="13.3355825"><ele>83.33333333333333</ele><time>2026-04-28T15:12:10.795Z</time></trkpt><trkpt lat="38.0907856" lon="13.3355524"><ele>84.0</ele><time>2026-04-28T15:12:11.796Z</time></trkpt><trkpt lat="38.0905691" lon="13.3355264"><ele>85.0</ele><time>2026-04-28T15:12:12.792Z</time></trkpt><trkpt lat="38.0903496" lon="13.3354999"><ele>86.0</ele><time>2026-04-28T15:12:13.802Z</time></trkpt><trkpt lat="38.0901281" lon="13.33547"><ele>87.0</ele><time>2026-04-28T15:12:14.796Z</time></trkpt><trkpt lat="38.0899058" lon="13.33544"><ele>88.0</ele><time>2026-04-28T15:12:15.802Z</time></trkpt><trkpt lat="38.0896792" lon="13.3354101"><ele>89.0</ele><time>2026-04-28T15:12:16.799Z</time></trkpt><trkpt lat="38.0894536" lon="13.3353752"><ele>89.0</ele><time>2026-04-28T15:12:17.796Z</time></trkpt><trkpt lat="38.0892257" lon="13.3353348"><ele>89.0</ele><time>2026-04-28T15:12:18.797Z</time></trkpt><trkpt lat="38.0889933" lon="13.3352921"><ele>91.5</ele><time>2026-04-28T15:12:19.799Z</time></trkpt><trkpt lat="38.0887621" lon="13.3352512"><ele>94.0</ele><time>2026-04-28T15:12:20.795Z</time></trkpt><trkpt lat="38.0885272" lon="13.3352095"><ele>94.0</ele><time>2026-04-28T15:12:21.796Z</time></trkpt><trkpt lat="38.0882925" lon="13.335165"><ele>94.0</ele><time>2026-04-28T15:12:22.795Z</time></trkpt><trkpt lat="38.0880571" lon="13.3351174"><ele>95.0</ele><time>2026-04-28T15:12:23.807Z</time></trkpt><trkpt lat="38.0878242" lon="13.3350592"><ele>96.0</ele><time>2026-04-28T15:12:24.795Z</time></trkpt><trkpt lat="38.0875975" lon="13.3349768"><ele>95.0</ele><time>2026-04-28T15:12:25.797Z</time></trkpt><trkpt lat="38.0873798" lon="13.3348698"><ele>94.0</ele><time>2026-04-28T15:12:26.795Z</time></trkpt><trkpt lat="38.0871707" lon="13.3347366"><ele>95.0</ele><time>2026-04-28T15:12:27.797Z</time></trkpt><trkpt lat="38.0869743" lon="13.3345802"><ele>96.0</ele><time>2026-04-28T15:12:28.804Z</time></trkpt><trkpt lat="38.0867909" lon="13.3344018"><ele>96.0</ele><time>2026-04-28T15:12:29.797Z</time></trkpt><trkpt lat="38.0866222" lon="13.3342039"><ele>96.0</ele><time>2026-04-28T15:12:30.798Z</time></trkpt><trkpt lat="38.086478" lon="13.333979"><ele>91.5</ele><time>2026-04-28T15:12:31.798Z</time></trkpt><trkpt lat="38.0863588" lon="13.3337281"><ele>87.0</ele><time>2026-04-28T15:12:32.801Z</time></trkpt><trkpt lat="38.0862537" lon="13.3334637"><ele>87.0</ele><time>2026-04-28T15:12:33.795Z</time></trkpt><trkpt lat="38.0861603" lon="13.3331902"><ele>87.0</ele><time>2026-04-28T15:12:34.801Z</time></trkpt><trkpt lat="38.0860898" lon="13.3329221"><ele>90.66666666666666</ele><time>2026-04-28T15:12:35.794Z</time></trkpt><trkpt lat="38.0860307" lon="13.3326626"><ele>94.33333333333333</ele><time>2026-04-28T15:12:36.796Z</time></trkpt><trkpt lat="38.0859859" lon="13.3324013"><ele>98.0</ele><time>2026-04-28T15:12:37.801Z</time></trkpt><trkpt lat="38.0859435" lon="13.332134"><ele>98.33333333333333</ele><time>2026-04-28T15:12:38.797Z</time></trkpt><trkpt lat="38.0858995" lon="13.3318645"><ele>98.66666666666666</ele><time>2026-04-28T15:12:39.798Z</time></trkpt><trkpt lat="38.0858548" lon="13.331592"><ele>99.0</ele><time>2026-04-28T15:12:40.795Z</time></trkpt><trkpt lat="38.0858067" lon="13.331319"><ele>99.66666666666666</ele><time>2026-04-28T15:12:41.794Z</time></trkpt><trkpt lat="38.0857593" lon="13.3310419"><ele>100.33333333333333</ele><time>2026-04-28T15:12:42.8Z</time></trkpt><trkpt lat="38.0857136" lon="13.3307693"><ele>101.0</ele><time>2026-04-28T15:12:43.797Z</time></trkpt><trkpt lat="38.0856666" lon="13.3305035"><ele>101.0</ele><time>2026-04-28T15:12:44.794Z</time></trkpt><trkpt lat="38.0856129" lon="13.3302421"><ele>101.0</ele><time>2026-04-28T15:12:45.8Z</time></trkpt><trkpt lat="38.0855595" lon="13.3299938"><ele>101.0</ele><time>2026-04-28T15:12:46.795Z</time></trkpt><trkpt lat="38.0855045" lon="13.3297694"><ele>102.66666666666666</ele><time>2026-04-28T15:12:47.796Z</time></trkpt><trkpt lat="38.0854384" lon="13.3295697"><ele>104.33333333333334</ele><time>2026-04-28T15:12:48.79Z</time></trkpt><trkpt lat="38.0853544" lon="13.3293886"><ele>106.0</ele><time>2026-04-28T15:12:49.796Z</time></trkpt><trkpt lat="38.0852564" lon="13.3292142"><ele>106.0</ele><time>2026-04-28T15:12:50.8Z</time></trkpt><trkpt lat="38.0851413" lon="13.3290403"><ele>106.0</ele><time>2026-04-28T15:12:51.795Z</time></trkpt><trkpt lat="38.0850152" lon="13.3288725"><ele>106.0</ele><time>2026-04-28T15:12:52.79Z</time></trkpt><trkpt lat="38.0848926" lon="13.3287284"><ele>106.75</ele><time>2026-04-28T15:12:53.795Z</time></trkpt><trkpt lat="38.0847839" lon="13.3286134"><ele>107.5</ele><time>2026-04-28T15:12:54.8Z</time></trkpt><trkpt lat="38.0846798" lon="13.3285137"><ele>108.25</ele><time>2026-04-28T15:12:55.794Z</time></trkpt><trkpt lat="38.084568" lon="13.3284145"><ele>109.0</ele><time>2026-04-28T15:12:56.797Z</time></trkpt><trkpt lat="38.0844491" lon="13.3283087"><ele>109.0</ele><time>2026-04-28T15:12:57.793Z</time></trkpt><trkpt lat="38.0843108" lon="13.328196"><ele>109.0</ele><time>2026-04-28T15:12:58.796Z</time></trkpt><trkpt lat="38.084162" lon="13.3280807"><ele>109.0</ele><time>2026-04-28T15:12:59.791Z</time></trkpt><trkpt lat="38.0840106" lon="13.3279652"><ele>108.66666666666667</ele><time>2026-04-28T15:13:00.789Z</time></trkpt><trkpt lat="38.0838564" lon="13.3278404"><ele>108.33333333333334</ele><time>2026-04-28T15:13:01.795Z</time></trkpt><trkpt lat="38.0836986" lon="13.327704"><ele>108.0</ele><time>2026-04-28T15:13:02.79Z</time></trkpt><trkpt lat="38.0835352" lon="13.32756"><ele>108.0</ele><time>2026-04-28T15:13:03.791Z</time></trkpt><trkpt lat="38.0833741" lon="13.3274047"><ele>108.0</ele><time>2026-04-28T15:13:04.798Z</time></trkpt><trkpt lat="38.0832114" lon="13.327236"><ele>108.0</ele><time>2026-04-28T15:13:05.801Z</time></trkpt><trkpt lat="38.0830542" lon="13.3270438"><ele>106.33333333333334</ele><time>2026-04-28T15:13:06.798Z</time></trkpt><trkpt lat="38.0829059" lon="13.3268347"><ele>104.66666666666667</ele><time>2026-04-28T15:13:07.794Z</time></trkpt><trkpt lat="38.0827629" lon="13.3266125"><ele>103.0</ele><time>2026-04-28T15:13:08.795Z</time></trkpt><trkpt lat="38.0826265" lon="13.3263829"><ele>103.0</ele><time>2026-04-28T15:13:09.798Z</time></trkpt><trkpt lat="38.0824883" lon="13.3261439"><ele>103.0</ele><time>2026-04-28T15:13:10.792Z</time></trkpt><trkpt lat="38.0823527" lon="13.3258965"><ele>96.5</ele><time>2026-04-28T15:13:11.8Z</time></trkpt><trkpt lat="38.0822146" lon="13.3256447"><ele>90.0</ele><time>2026-04-28T15:13:12.794Z</time></trkpt><trkpt lat="38.0820752" lon="13.3253901"><ele>90.0</ele><time>2026-04-28T15:13:13.796Z</time></trkpt><trkpt lat="38.0819355" lon="13.3251361"><ele>90.0</ele><time>2026-04-28T15:13:14.795Z</time></trkpt><trkpt lat="38.0817943" lon="13.3248819"><ele>90.5</ele><time>2026-04-28T15:13:15.793Z</time></trkpt><trkpt lat="38.081656" lon="13.3246275"><ele>91.0</ele><time>2026-04-28T15:13:16.798Z</time></trkpt><trkpt lat="38.0815113" lon="13.3243824"><ele>91.0</ele><time>2026-04-28T15:13:17.799Z</time></trkpt><trkpt lat="38.081356" lon="13.3241486"><ele>91.0</ele><time>2026-04-28T15:13:18.793Z</time></trkpt><trkpt lat="38.0811884" lon="13.3239308"><ele>97.5</ele><time>2026-04-28T15:13:19.8Z</time></trkpt><trkpt lat="38.0810071" lon="13.3237328"><ele>104.0</ele><time>2026-04-28T15:13:20.798Z</time></trkpt><trkpt lat="38.0808064" lon="13.3235593"><ele>97.5</ele><time>2026-04-28T15:13:21.796Z</time></trkpt><trkpt lat="38.0805913" lon="13.3234181"><ele>91.0</ele><time>2026-04-28T15:13:22.793Z</time></trkpt><trkpt lat="38.0803634" lon="13.323299"><ele>91.0</ele><time>2026-04-28T15:13:23.799Z</time></trkpt><trkpt lat="38.0801295" lon="13.3231986"><ele>91.0</ele><time>2026-04-28T15:13:24.797Z</time></trkpt><trkpt lat="38.0798894" lon="13.3231237"><ele>86.5</ele><time>2026-04-28T15:13:25.8Z</time></trkpt><trkpt lat="38.0796416" lon="13.3230864"><ele>82.0</ele><time>2026-04-28T15:13:26.797Z</time></trkpt><trkpt lat="38.0793952" lon="13.3230649"><ele>82.0</ele><time>2026-04-28T15:13:27.799Z</time></trkpt><trkpt lat="38.0791454" lon="13.3230688"><ele>82.0</ele><time>2026-04-28T15:13:28.8Z</time></trkpt><trkpt lat="38.0788945" lon="13.323103"><ele>85.0</ele><time>2026-04-28T15:13:29.795Z</time></trkpt><trkpt lat="38.0786442" lon="13.3231691"><ele>88.0</ele><time>2026-04-28T15:13:30.798Z</time></trkpt><trkpt lat="38.0784006" lon="13.3232641"><ele>91.5</ele><time>2026-04-28T15:13:31.79Z</time></trkpt><trkpt lat="38.078171" lon="13.3233715"><ele>95.0</ele><time>2026-04-28T15:13:32.8Z</time></trkpt><trkpt lat="38.0779441" lon="13.3234871"><ele>95.0</ele><time>2026-04-28T15:13:33.792Z</time></trkpt><trkpt lat="38.0777146" lon="13.3236044"><ele>95.0</ele><time>2026-04-28T15:13:34.801Z</time></trkpt><trkpt lat="38.0774921" lon="13.323716"><ele>99.0</ele><time>2026-04-28T15:13:35.803Z</time></trkpt><trkpt lat="38.077265" lon="13.3238238"><ele>103.0</ele><time>2026-04-28T15:13:36.79Z</time></trkpt><trkpt lat="38.0770373" lon="13.323928"><ele>103.0</ele><time>2026-04-28T15:13:37.805Z</time></trkpt><trkpt lat="38.0768132" lon="13.3240286"><ele>103.0</ele><time>2026-04-28T15:13:38.793Z</time></trkpt><trkpt lat="38.0765849" lon="13.3241286"><ele>104.5</ele><time>2026-04-28T15:13:39.8Z</time></trkpt><trkpt lat="38.0763555" lon="13.3242298"><ele>106.0</ele><time>2026-04-28T15:13:40.793Z</time></trkpt><trkpt lat="38.0761252" lon="13.3243303"><ele>106.0</ele><time>2026-04-28T15:13:41.789Z</time></trkpt><trkpt lat="38.0758948" lon="13.3244267"><ele>106.0</ele><time>2026-04-28T15:13:42.789Z</time></trkpt><trkpt lat="38.0756629" lon="13.3245174"><ele>112.0</ele><time>2026-04-28T15:13:43.799Z</time></trkpt><trkpt lat="38.0754286" lon="13.3245936"><ele>118.0</ele><time>2026-04-28T15:13:44.79Z</time></trkpt><trkpt lat="38.0751904" lon="13.3246493"><ele>118.0</ele><time>2026-04-28T15:13:45.791Z</time></trkpt><trkpt lat="38.0749487" lon="13.3246906"><ele>118.0</ele><time>2026-04-28T15:13:46.791Z</time></trkpt><trkpt lat="38.074709" lon="13.3247142"><ele>119.5</ele><time>2026-04-28T15:13:47.799Z</time></trkpt><trkpt lat="38.074474" lon="13.3247212"><ele>121.0</ele><time>2026-04-28T15:13:48.793Z</time></trkpt><trkpt lat="38.0742466" lon="13.3247154"><ele>123.5</ele><time>2026-04-28T15:13:49.796Z</time></trkpt><trkpt lat="38.0740148" lon="13.3246857"><ele>126.0</ele><time>2026-04-28T15:13:50.799Z</time></trkpt><trkpt lat="38.0737889" lon="13.3246396"><ele>126.0</ele><time>2026-04-28T15:13:51.793Z</time></trkpt><trkpt lat="38.0735635" lon="13.3245911"><ele>126.0</ele><time>2026-04-28T15:13:52.8Z</time></trkpt><trkpt lat="38.0733385" lon="13.3245369"><ele>129.5</ele><time>2026-04-28T15:13:53.799Z</time></trkpt><trkpt lat="38.0731159" lon="13.3244883"><ele>133.0</ele><time>2026-04-28T15:13:54.796Z</time></trkpt><trkpt lat="38.0728928" lon="13.324437"><ele>133.0</ele><time>2026-04-28T15:13:55.8Z</time></trkpt><trkpt lat="38.0726692" lon="13.3243824"><ele>133.0</ele><time>2026-04-28T15:13:56.799Z</time></trkpt><trkpt lat="38.0724496" lon="13.3243296"><ele>134.33333333333334</ele><time>2026-04-28T15:13:57.798Z</time></trkpt><trkpt lat="38.0722296" lon="13.3242764"><ele>135.66666666666666</ele><time>2026-04-28T15:13:58.797Z</time></trkpt><trkpt lat="38.0720089" lon="13.3242293"><ele>137.0</ele><time>2026-04-28T15:13:59.794Z</time></trkpt><trkpt lat="38.0717885" lon="13.3241822"><ele>139.0</ele><time>2026-04-28T15:14:00.793Z</time></trkpt><trkpt lat="38.0715673" lon="13.3241324"><ele>141.0</ele><time>2026-04-28T15:14:01.796Z</time></trkpt><trkpt lat="38.0713463" lon="13.3240802"><ele>143.0</ele><time>2026-04-28T15:14:02.808Z</time></trkpt><trkpt lat="38.0711253" lon="13.3240256"><ele>143.0</ele><time>2026-04-28T15:14:03.817Z</time></trkpt><trkpt lat="38.0709069" lon="13.3239689"><ele>143.0</ele><time>2026-04-28T15:14:04.8Z</time></trkpt><trkpt lat="38.0706878" lon="13.3239048"><ele>143.0</ele><time>2026-04-28T15:14:05.816Z</time></trkpt><trkpt lat="38.0704683" lon="13.3238336"><ele>144.5</ele><time>2026-04-28T15:14:06.812Z</time></trkpt><trkpt lat="38.0702507" lon="13.3237521"><ele>146.0</ele><time>2026-04-28T15:14:07.807Z</time></trkpt><trkpt lat="38.0700356" lon="13.3236588"><ele>148.0</ele><time>2026-04-28T15:14:08.805Z</time></trkpt><trkpt lat="38.0698243" lon="13.3235596"><ele>150.0</ele><time>2026-04-28T15:14:09.816Z</time></trkpt><trkpt lat="38.0696177" lon="13.3234515"><ele>152.0</ele><time>2026-04-28T15:14:10.806Z</time></trkpt><trkpt lat="38.0694151" lon="13.323333"><ele>152.0</ele><time>2026-04-28T15:14:11.814Z</time></trkpt><trkpt lat="38.0692155" lon="13.3232063"><ele>152.0</ele><time>2026-04-28T15:14:12.806Z</time></trkpt><trkpt lat="38.0690176" lon="13.3230649"><ele>154.0</ele><time>2026-04-28T15:14:13.805Z</time></trkpt><trkpt lat="38.068822" lon="13.3229182"><ele>156.0</ele><time>2026-04-28T15:14:14.81Z</time></trkpt><trkpt lat="38.0686282" lon="13.3227606"><ele>156.0</ele><time>2026-04-28T15:14:15.81Z</time></trkpt><trkpt lat="38.0684401" lon="13.3225883"><ele>156.0</ele><time>2026-04-28T15:14:16.808Z</time></trkpt><trkpt lat="38.0682582" lon="13.3224072"><ele>159.5</ele><time>2026-04-28T15:14:17.814Z</time></trkpt><trkpt lat="38.068081" lon="13.3222254"><ele>163.0</ele><time>2026-04-28T15:14:18.812Z</time></trkpt><trkpt lat="38.0679053" lon="13.3220414"><ele>163.0</ele><time>2026-04-28T15:14:19.808Z</time></trkpt><trkpt lat="38.0677312" lon="13.321856"><ele>163.0</ele><time>2026-04-28T15:14:20.81Z</time></trkpt><trkpt lat="38.0675596" lon="13.3216718"><ele>166.0</ele><time>2026-04-28T15:14:21.81Z</time></trkpt><trkpt lat="38.0673895" lon="13.3214842"><ele>169.0</ele><time>2026-04-28T15:14:22.811Z</time></trkpt><trkpt lat="38.0672195" lon="13.3212976"><ele>169.5</ele><time>2026-04-28T15:14:23.813Z</time></trkpt><trkpt lat="38.0670479" lon="13.3211116"><ele>170.0</ele><time>2026-04-28T15:14:24.798Z</time></trkpt><trkpt lat="38.0668753" lon="13.3209275"><ele>170.0</ele><time>2026-04-28T15:14:25.813Z</time></trkpt><trkpt lat="38.0667022" lon="13.3207422"><ele>170.0</ele><time>2026-04-28T15:14:26.809Z</time></trkpt><trkpt lat="38.0665292" lon="13.3205572"><ele>173.5</ele><time>2026-04-28T15:14:27.811Z</time></trkpt><trkpt lat="38.0663569" lon="13.3203733"><ele>177.0</ele><time>2026-04-28T15:14:28.808Z</time></trkpt><trkpt lat="38.0661842" lon="13.3201911"><ele>177.0</ele><time>2026-04-28T15:14:29.804Z</time></trkpt><trkpt lat="38.0660114" lon="13.3200084"><ele>177.0</ele><time>2026-04-28T15:14:30.808Z</time></trkpt><trkpt lat="38.0658386" lon="13.3198264"><ele>177.0</ele><time>2026-04-28T15:14:31.81Z</time></trkpt><trkpt lat="38.0656665" lon="13.3196459"><ele>181.0</ele><time>2026-04-28T15:14:32.806Z</time></trkpt><trkpt lat="38.0654949" lon="13.3194611"><ele>185.0</ele><time>2026-04-28T15:14:33.815Z</time></trkpt><trkpt lat="38.0653208" lon="13.3192762"><ele>185.0</ele><time>2026-04-28T15:14:34.806Z</time></trkpt><trkpt lat="38.0651479" lon="13.3190883"><ele>185.0</ele><time>2026-04-28T15:14:35.808Z</time></trkpt><trkpt lat="38.0649772" lon="13.3189019"><ele>189.0</ele><time>2026-04-28T15:14:36.802Z</time></trkpt><trkpt lat="38.0648048" lon="13.318717"><ele>193.0</ele><time>2026-04-28T15:14:37.805Z</time></trkpt><trkpt lat="38.064632" lon="13.3185309"><ele>193.0</ele><time>2026-04-28T15:14:38.81Z</time></trkpt><trkpt lat="38.064457" lon="13.318347"><ele>193.0</ele><time>2026-04-28T15:14:39.808Z</time></trkpt><trkpt lat="38.0642822" lon="13.3181624"><ele>194.5</ele><time>2026-04-28T15:14:40.81Z</time></trkpt><trkpt lat="38.0641074" lon="13.3179773"><ele>196.0</ele><time>2026-04-28T15:14:41.806Z</time></trkpt><trkpt lat="38.0639306" lon="13.3177918"><ele>196.0</ele><time>2026-04-28T15:14:42.811Z</time></trkpt><trkpt lat="38.0637545" lon="13.3176048"><ele>196.0</ele><time>2026-04-28T15:14:43.81Z</time></trkpt><trkpt lat="38.0635796" lon="13.317417"><ele>193.5</ele><time>2026-04-28T15:14:44.799Z</time></trkpt><trkpt lat="38.0634059" lon="13.3172276"><ele>191.0</ele><time>2026-04-28T15:14:45.811Z</time></trkpt><trkpt lat="38.0632329" lon="13.3170396"><ele>200.0</ele><time>2026-04-28T15:14:46.807Z</time></trkpt><trkpt lat="38.0630624" lon="13.3168503"><ele>209.0</ele><time>2026-04-28T15:14:47.806Z</time></trkpt><trkpt lat="38.062889" lon="13.3166608"><ele>209.0</ele><time>2026-04-28T15:14:48.81Z</time></trkpt><trkpt lat="38.0627129" lon="13.3164706"><ele>209.0</ele><time>2026-04-28T15:14:49.801Z</time></trkpt><trkpt lat="38.0625359" lon="13.3162791"><ele>210.0</ele><time>2026-04-28T15:14:50.808Z</time></trkpt><trkpt lat="38.0623604" lon="13.3160888"><ele>211.0</ele><time>2026-04-28T15:14:51.814Z</time></trkpt><trkpt lat="38.0621851" lon="13.3158995"><ele>211.0</ele><time>2026-04-28T15:14:52.807Z</time></trkpt><trkpt lat="38.0620108" lon="13.3157115"><ele>211.0</ele><time>2026-04-28T15:14:53.809Z</time></trkpt><trkpt lat="38.061835" lon="13.3155221"><ele>214.0</ele><time>2026-04-28T15:14:54.819Z</time></trkpt><trkpt lat="38.0616589" lon="13.315331"><ele>217.0</ele><time>2026-04-28T15:14:55.809Z</time></trkpt><trkpt lat="38.06148" lon="13.3151391"><ele>217.0</ele><time>2026-04-28T15:14:56.81Z</time></trkpt><trkpt lat="38.0613008" lon="13.3149473"><ele>217.0</ele><time>2026-04-28T15:14:57.791Z</time></trkpt><trkpt lat="38.0611231" lon="13.3147538"><ele>212.5</ele><time>2026-04-28T15:14:58.803Z</time></trkpt><trkpt lat="38.0609429" lon="13.3145588"><ele>208.0</ele><time>2026-04-28T15:14:59.803Z</time></trkpt><trkpt lat="38.0607618" lon="13.3143632"><ele>217.0</ele><time>2026-04-28T15:15:00.817Z</time></trkpt><trkpt lat="38.0605808" lon="13.314168"><ele>226.0</ele><time>2026-04-28T15:15:01.809Z</time></trkpt><trkpt lat="38.0603981" lon="13.3139724"><ele>222.0</ele><time>2026-04-28T15:15:02.793Z</time></trkpt><trkpt lat="38.0602167" lon="13.3137775"><ele>218.0</ele><time>2026-04-28T15:15:03.807Z</time></trkpt><trkpt lat="38.0600336" lon="13.3135817"><ele>222.5</ele><time>2026-04-28T15:15:04.809Z</time></trkpt><trkpt lat="38.05985" lon="13.3133891"><ele>227.0</ele><time>2026-04-28T15:15:05.816Z</time></trkpt><trkpt lat="38.0596662" lon="13.3131987"><ele>221.5</ele><time>2026-04-28T15:15:06.814Z</time></trkpt><trkpt lat="38.0594825" lon="13.31301"><ele>216.0</ele><time>2026-04-28T15:15:07.808Z</time></trkpt><trkpt lat="38.0593041" lon="13.3128258"><ele>216.0</ele><time>2026-04-28T15:15:08.806Z</time></trkpt><trkpt lat="38.0591285" lon="13.3126517"><ele>216.0</ele><time>2026-04-28T15:15:09.812Z</time></trkpt><trkpt lat="38.0589525" lon="13.3124815"><ele>216.0</ele><time>2026-04-28T15:15:10.808Z</time></trkpt><trkpt lat="38.0587769" lon="13.312312"><ele>218.0</ele><time>2026-04-28T15:15:11.803Z</time></trkpt><trkpt lat="38.0586031" lon="13.3121415"><ele>220.0</ele><time>2026-04-28T15:15:12.802Z</time></trkpt><trkpt lat="38.0584304" lon="13.3119763"><ele>222.0</ele><time>2026-04-28T15:15:13.801Z</time></trkpt><trkpt lat="38.0582646" lon="13.3118297"><ele>227.66666666666669</ele><time>2026-04-28T15:15:14.808Z</time></trkpt><trkpt lat="38.0581081" lon="13.3117034"><ele>233.33333333333334</ele><time>2026-04-28T15:15:15.813Z</time></trkpt><trkpt lat="38.0579615" lon="13.3115922"><ele>239.0</ele><time>2026-04-28T15:15:16.812Z</time></trkpt><trkpt lat="38.0578273" lon="13.3114857"><ele>237.5</ele><time>2026-04-28T15:15:17.797Z</time></trkpt><trkpt lat="38.0577105" lon="13.3113767"><ele>236.0</ele><time>2026-04-28T15:15:18.805Z</time></trkpt><trkpt lat="38.0576166" lon="13.3112689"><ele>234.5</ele><time>2026-04-28T15:15:19.811Z</time></trkpt><trkpt lat="38.0575512" lon="13.3111589"><ele>233.0</ele><time>2026-04-28T15:15:20.791Z</time></trkpt><trkpt lat="38.0575142" lon="13.3110425"><ele>233.0</ele><time>2026-04-28T15:15:21.793Z</time></trkpt><trkpt lat="38.0575005" lon="13.3109138"><ele>233.0</ele><time>2026-04-28T15:15:22.802Z</time></trkpt><trkpt lat="38.0575199" lon="13.3107725"><ele>233.0</ele><time>2026-04-28T15:15:23.798Z</time></trkpt><trkpt lat="38.0575616" lon="13.3106301"><ele>233.0</ele><time>2026-04-28T15:15:24.801Z</time></trkpt><trkpt lat="38.0576032" lon="13.3104852"><ele>231.0</ele><time>2026-04-28T15:15:25.796Z</time></trkpt><trkpt lat="38.0576239" lon="13.3103368"><ele>229.0</ele><time>2026-04-28T15:15:26.795Z</time></trkpt><trkpt lat="38.0576156" lon="13.3101902"><ele>227.0</ele><time>2026-04-28T15:15:27.799Z</time></trkpt><trkpt lat="38.0575672" lon="13.3100595"><ele>225.0</ele><time>2026-04-28T15:15:28.797Z</time></trkpt><trkpt lat="38.0574781" lon="13.3099595"><ele>228.25</ele><time>2026-04-28T15:15:29.797Z</time></trkpt><trkpt lat="38.0573544" lon="13.3099013"><ele>231.5</ele><time>2026-04-28T15:15:30.794Z</time></trkpt><trkpt lat="38.0572215" lon="13.3098878"><ele>234.75</ele><time>2026-04-28T15:15:31.788Z</time></trkpt><trkpt lat="38.0570844" lon="13.309918"><ele>238.0</ele><time>2026-04-28T15:15:32.793Z</time></trkpt><trkpt lat="38.0569516" lon="13.3099856"><ele>238.0</ele><time>2026-04-28T15:15:33.795Z</time></trkpt><trkpt lat="38.0568302" lon="13.3100936"><ele>238.0</ele><time>2026-04-28T15:15:34.793Z</time></trkpt><trkpt lat="38.0567117" lon="13.3102335"><ele>238.0</ele><time>2026-04-28T15:15:35.795Z</time></trkpt><trkpt lat="38.0565991" lon="13.3103866"><ele>239.33333333333331</ele><time>2026-04-28T15:15:36.795Z</time></trkpt><trkpt lat="38.0564805" lon="13.3105363"><ele>240.66666666666669</ele><time>2026-04-28T15:15:37.795Z</time></trkpt><trkpt lat="38.0563552" lon="13.3106825"><ele>242.0</ele><time>2026-04-28T15:15:38.795Z</time></trkpt><trkpt lat="38.0562311" lon="13.3108269"><ele>245.33333333333334</ele><time>2026-04-28T15:15:39.791Z</time></trkpt><trkpt lat="38.05611" lon="13.3109678"><ele>248.66666666666669</ele><time>2026-04-28T15:15:40.796Z</time></trkpt><trkpt lat="38.0559983" lon="13.3111009"><ele>252.0</ele><time>2026-04-28T15:15:41.794Z</time></trkpt><trkpt lat="38.055895" lon="13.311216"><ele>252.0</ele><time>2026-04-28T15:15:42.789Z</time></trkpt><trkpt lat="38.0558015" lon="13.3113109"><ele>252.0</ele><time>2026-04-28T15:15:43.795Z</time></trkpt><trkpt lat="38.0557165" lon="13.3113824"><ele>252.0</ele><time>2026-04-28T15:15:44.796Z</time></trkpt><trkpt lat="38.0556304" lon="13.3114253"><ele>252.0</ele><time>2026-04-28T15:15:45.794Z</time></trkpt><trkpt lat="38.0555373" lon="13.3114349"><ele>252.0</ele><time>2026-04-28T15:15:46.793Z</time></trkpt><trkpt lat="38.0554467" lon="13.3114096"><ele>254.75</ele><time>2026-04-28T15:15:47.792Z</time></trkpt><trkpt lat="38.0553514" lon="13.3113491"><ele>257.5</ele><time>2026-04-28T15:15:48.797Z</time></trkpt><trkpt lat="38.0552635" lon="13.3112562"><ele>260.25</ele><time>2026-04-28T15:15:49.79Z</time></trkpt><trkpt lat="38.0552016" lon="13.3111339"><ele>263.0</ele><time>2026-04-28T15:15:50.796Z</time></trkpt><trkpt lat="38.0551528" lon="13.310998"><ele>263.0</ele><time>2026-04-28T15:15:51.788Z</time></trkpt><trkpt lat="38.0551044" lon="13.3108589"><ele>263.0</ele><time>2026-04-28T15:15:52.792Z</time></trkpt><trkpt lat="38.0550555" lon="13.3107254"><ele>263.0</ele><time>2026-04-28T15:15:53.791Z</time></trkpt><trkpt lat="38.0549969" lon="13.3106004"><ele>263.0</ele><time>2026-04-28T15:15:54.793Z</time></trkpt><trkpt lat="38.0549301" lon="13.310497"><ele>262.0</ele><time>2026-04-28T15:15:55.798Z</time></trkpt><trkpt lat="38.0548558" lon="13.3104184"><ele>261.0</ele><time>2026-04-28T15:15:56.795Z</time></trkpt><trkpt lat="38.0547643" lon="13.3103535"><ele>260.0</ele><time>2026-04-28T15:15:57.79Z</time></trkpt><trkpt lat="38.0546601" lon="13.310303"><ele>259.0</ele><time>2026-04-28T15:15:58.801Z</time></trkpt><trkpt lat="38.0545382" lon="13.3102705"><ele>258.0</ele><time>2026-04-28T15:15:59.795Z</time></trkpt><trkpt lat="38.0544036" lon="13.3102671"><ele>258.0</ele><time>2026-04-28T15:16:00.793Z</time></trkpt><trkpt lat="38.0542597" lon="13.3102933"><ele>258.0</ele><time>2026-04-28T15:16:01.793Z</time></trkpt><trkpt lat="38.054113" lon="13.3103415"><ele>258.0</ele><time>2026-04-28T15:16:02.791Z</time></trkpt><trkpt lat="38.0539656" lon="13.310402"><ele>261.0</ele><time>2026-04-28T15:16:03.796Z</time></trkpt><trkpt lat="38.0538282" lon="13.3104589"><ele>264.0</ele><time>2026-04-28T15:16:04.798Z</time></trkpt><trkpt lat="38.0536991" lon="13.3105112"><ele>267.0</ele><time>2026-04-28T15:16:05.799Z</time></trkpt><trkpt lat="38.0535873" lon="13.3105393"><ele>270.0</ele><time>2026-04-28T15:16:06.791Z</time></trkpt><trkpt lat="38.0534978" lon="13.3105529"><ele>270.0</ele><time>2026-04-28T15:16:07.793Z</time></trkpt><trkpt lat="38.0534189" lon="13.3105497"><ele>270.0</ele><time>2026-04-28T15:16:08.798Z</time></trkpt><trkpt lat="38.0533562" lon="13.3105315"><ele>270.0</ele><time>2026-04-28T15:16:09.792Z</time></trkpt><trkpt lat="38.0532747" lon="13.3104757"><ele>270.0</ele><time>2026-04-28T15:16:11.794Z</time></trkpt><trkpt lat="38.0531895" lon="13.3104162"><ele>270.0</ele><time>2026-04-28T15:16:13.799Z</time></trkpt><trkpt lat="38.0531265" lon="13.3103747"><ele>270.0</ele><time>2026-04-28T15:16:14.794Z</time></trkpt><trkpt lat="38.0530619" lon="13.3103199"><ele>271.85714285714283</ele><time>2026-04-28T15:16:15.799Z</time></trkpt><trkpt lat="38.0530018" lon="13.3102678"><ele>273.71428571428567</ele><time>2026-04-28T15:16:16.794Z</time></trkpt><trkpt lat="38.0529455" lon="13.3102178"><ele>275.57142857142856</ele><time>2026-04-28T15:16:17.797Z</time></trkpt><trkpt lat="38.0528901" lon="13.3101682"><ele>277.42857142857144</ele><time>2026-04-28T15:16:18.794Z</time></trkpt><trkpt lat="38.0528343" lon="13.31012"><ele>279.28571428571433</ele><time>2026-04-28T15:16:19.798Z</time></trkpt><trkpt lat="38.0527747" lon="13.3100726"><ele>281.14285714285717</ele><time>2026-04-28T15:16:20.793Z</time></trkpt><trkpt lat="38.0527085" lon="13.3100265"><ele>283.0</ele><time>2026-04-28T15:16:21.793Z</time></trkpt><trkpt lat="38.0526312" lon="13.3099776"><ele>283.0</ele><time>2026-04-28T15:16:22.793Z</time></trkpt><trkpt lat="38.052541" lon="13.3099175"><ele>283.0</ele><time>2026-04-28T15:16:23.795Z</time></trkpt><trkpt lat="38.052436" lon="13.309836"><ele>283.0</ele><time>2026-04-28T15:16:24.791Z</time></trkpt><trkpt lat="38.0523236" lon="13.309743"><ele>283.0</ele><time>2026-04-28T15:16:25.799Z</time></trkpt><trkpt lat="38.0522141" lon="13.3096485"><ele>283.5</ele><time>2026-04-28T15:16:26.79Z</time></trkpt><trkpt lat="38.0521117" lon="13.3095588"><ele>284.0</ele><time>2026-04-28T15:16:27.796Z</time></trkpt><trkpt lat="38.0520085" lon="13.3094735"><ele>284.5</ele><time>2026-04-28T15:16:28.795Z</time></trkpt><trkpt lat="38.0519047" lon="13.3093937"><ele>285.0</ele><time>2026-04-28T15:16:29.794Z</time></trkpt><trkpt lat="38.0518059" lon="13.3093184"><ele>285.0</ele><time>2026-04-28T15:16:30.796Z</time></trkpt><trkpt lat="38.0517154" lon="13.3092479"><ele>285.0</ele><time>2026-04-28T15:16:31.795Z</time></trkpt><trkpt lat="38.0516347" lon="13.3091833"><ele>285.0</ele><time>2026-04-28T15:16:32.79Z</time></trkpt><trkpt lat="38.05156" lon="13.3091289"><ele>285.0</ele><time>2026-04-28T15:16:33.797Z</time></trkpt><trkpt lat="38.0514892" lon="13.3090864"><ele>285.0</ele><time>2026-04-28T15:16:34.794Z</time></trkpt><trkpt lat="38.0514233" lon="13.3090529"><ele>285.0</ele><time>2026-04-28T15:16:35.796Z</time></trkpt><trkpt lat="38.0513157" lon="13.3090086"><ele>286.0</ele><time>2026-04-28T15:16:37.795Z</time></trkpt><trkpt lat="38.0512477" lon="13.3090456"><ele>287.0</ele><time>2026-04-28T15:16:39.793Z</time></trkpt><trkpt lat="38.0512134" lon="13.3091186"><ele>288.0</ele><time>2026-04-28T15:16:41.8Z</time></trkpt><trkpt lat="38.0511658" lon="13.3091912"><ele>289.0</ele><time>2026-04-28T15:16:43.792Z</time></trkpt><trkpt lat="38.0510965" lon="13.309237"><ele>290.0</ele><time>2026-04-28T15:16:45.791Z</time></trkpt><trkpt lat="38.0509956" lon="13.3092236"><ele>291.0</ele><time>2026-04-28T15:16:47.791Z</time></trkpt><trkpt lat="38.0508686" lon="13.30918"><ele>291.0</ele><time>2026-04-28T15:16:49.793Z</time></trkpt><trkpt lat="38.0508015" lon="13.3091523"><ele>291.0</ele><time>2026-04-28T15:16:50.79Z</time></trkpt><trkpt lat="38.0507346" lon="13.309105"><ele>291.0</ele><time>2026-04-28T15:16:51.789Z</time></trkpt><trkpt lat="38.0506695" lon="13.309051"><ele>291.0</ele><time>2026-04-28T15:16:52.789Z</time></trkpt><trkpt lat="38.0506118" lon="13.3089993"><ele>291.0</ele><time>2026-04-28T15:16:53.79Z</time></trkpt><trkpt lat="38.050519" lon="13.3089244"><ele>291.0</ele><time>2026-04-28T15:16:55.796Z</time></trkpt><trkpt lat="38.0504079" lon="13.3089317"><ele>291.1666666666667</ele><time>2026-04-28T15:16:57.79Z</time></trkpt><trkpt lat="38.050342" lon="13.3089622"><ele>291.3333333333333</ele><time>2026-04-28T15:16:58.789Z</time></trkpt><trkpt lat="38.0502703" lon="13.3090088"><ele>291.5</ele><time>2026-04-28T15:16:59.791Z</time></trkpt><trkpt lat="38.0501988" lon="13.3090537"><ele>291.66666666666663</ele><time>2026-04-28T15:17:00.791Z</time></trkpt><trkpt lat="38.0501304" lon="13.3091023"><ele>291.8333333333333</ele><time>2026-04-28T15:17:01.792Z</time></trkpt><trkpt lat="38.0500727" lon="13.3091616"><ele>292.0</ele><time>2026-04-28T15:17:02.793Z</time></trkpt><trkpt lat="38.0500258" lon="13.3092414"><ele>292.0</ele><time>2026-04-28T15:17:03.791Z</time></trkpt><trkpt lat="38.0499869" lon="13.3093363"><ele>292.0</ele><time>2026-04-28T15:17:04.793Z</time></trkpt><trkpt lat="38.049958" lon="13.3094379"><ele>292.0</ele><time>2026-04-28T15:17:05.795Z</time></trkpt><trkpt lat="38.0499309" lon="13.3095479"><ele>292.0</ele><time>2026-04-28T15:17:06.791Z</time></trkpt><trkpt lat="38.0498971" lon="13.3096478"><ele>292.0</ele><time>2026-04-28T15:17:07.791Z</time></trkpt><trkpt lat="38.0498588" lon="13.3097168"><ele>292.0</ele><time>2026-04-28T15:17:08.796Z</time></trkpt><trkpt lat="38.0498102" lon="13.3097871"><ele>290.8333333333333</ele><time>2026-04-28T15:17:10.789Z</time></trkpt><trkpt lat="38.0497608" lon="13.309854"><ele>289.66666666666663</ele><time>2026-04-28T15:17:16.792Z</time></trkpt><trkpt lat="38.0496892" lon="13.3099608"><ele>288.5</ele><time>2026-04-28T15:17:18.794Z</time></trkpt><trkpt lat="38.0496426" lon="13.3100301"><ele>287.3333333333333</ele><time>2026-04-28T15:17:19.788Z</time></trkpt><trkpt lat="38.0495876" lon="13.3101054"><ele>286.1666666666667</ele><time>2026-04-28T15:17:20.794Z</time></trkpt><trkpt lat="38.0495287" lon="13.3102018"><ele>285.0</ele><time>2026-04-28T15:17:21.791Z</time></trkpt><trkpt lat="38.0494668" lon="13.3103316"><ele>285.0</ele><time>2026-04-28T15:17:22.788Z</time></trkpt><trkpt lat="38.0493984" lon="13.310476"><ele>285.0</ele><time>2026-04-28T15:17:23.793Z</time></trkpt><trkpt lat="38.0493256" lon="13.3106401"><ele>285.0</ele><time>2026-04-28T15:17:24.792Z</time></trkpt><trkpt lat="38.0492395" lon="13.3108118"><ele>285.0</ele><time>2026-04-28T15:17:25.79Z</time></trkpt><trkpt lat="38.0491428" lon="13.3109938"><ele>284.0</ele><time>2026-04-28T15:17:26.795Z</time></trkpt><trkpt lat="38.0490357" lon="13.3111866"><ele>283.0</ele><time>2026-04-28T15:17:27.792Z</time></trkpt><trkpt lat="38.048932" lon="13.3113779"><ele>282.0</ele><time>2026-04-28T15:17:28.793Z</time></trkpt><trkpt lat="38.0488338" lon="13.3115744"><ele>285.6666666666667</ele><time>2026-04-28T15:17:29.788Z</time></trkpt><trkpt lat="38.0487339" lon="13.3117787"><ele>289.33333333333337</ele><time>2026-04-28T15:17:30.789Z</time></trkpt><trkpt lat="38.0486396" lon="13.3119795"><ele>293.0</ele><time>2026-04-28T15:17:31.792Z</time></trkpt><trkpt lat="38.0485566" lon="13.3121681"><ele>297.25</ele><time>2026-04-28T15:17:32.79Z</time></trkpt><trkpt lat="38.0484789" lon="13.3123397"><ele>301.5</ele><time>2026-04-28T15:17:33.796Z</time></trkpt><trkpt lat="38.0483992" lon="13.3124892"><ele>305.75</ele><time>2026-04-28T15:17:34.795Z</time></trkpt><trkpt lat="38.0483107" lon="13.3126106"><ele>310.0</ele><time>2026-04-28T15:17:35.786Z</time></trkpt><trkpt lat="38.0482131" lon="13.3127008"><ele>310.0</ele><time>2026-04-28T15:17:36.789Z</time></trkpt><trkpt lat="38.0481089" lon="13.3127547"><ele>310.0</ele><time>2026-04-28T15:17:37.792Z</time></trkpt><trkpt lat="38.0480022" lon="13.3127773"><ele>310.0</ele><time>2026-04-28T15:17:38.794Z</time></trkpt><trkpt lat="38.0478792" lon="13.312794"><ele>310.0</ele><time>2026-04-28T15:17:39.79Z</time></trkpt><trkpt lat="38.0477604" lon="13.3128262"><ele>310.0</ele><time>2026-04-28T15:17:40.791Z</time></trkpt><trkpt lat="38.0476548" lon="13.3128845"><ele>310.0</ele><time>2026-04-28T15:17:41.789Z</time></trkpt><trkpt lat="38.0475669" lon="13.3129487"><ele>310.0</ele><time>2026-04-28T15:17:42.792Z</time></trkpt><trkpt lat="38.0474958" lon="13.3130183"><ele>310.0</ele><time>2026-04-28T15:17:43.792Z</time></trkpt><trkpt lat="38.0474409" lon="13.3131038"><ele>310.0</ele><time>2026-04-28T15:17:44.787Z</time></trkpt><trkpt lat="38.0473912" lon="13.3132136"><ele>314.25</ele><time>2026-04-28T15:17:45.789Z</time></trkpt><trkpt lat="38.0473413" lon="13.3133451"><ele>318.5</ele><time>2026-04-28T15:17:46.79Z</time></trkpt><trkpt lat="38.0472876" lon="13.3134884"><ele>322.75</ele><time>2026-04-28T15:17:47.784Z</time></trkpt><trkpt lat="38.0472335" lon="13.313637"><ele>327.0</ele><time>2026-04-28T15:17:48.791Z</time></trkpt><trkpt lat="38.0471781" lon="13.3137812"><ele>330.75</ele><time>2026-04-28T15:17:49.791Z</time></trkpt><trkpt lat="38.0471136" lon="13.3139264"><ele>334.5</ele><time>2026-04-28T15:17:50.79Z</time></trkpt><trkpt lat="38.0470249" lon="13.3140681"><ele>338.25</ele><time>2026-04-28T15:17:51.793Z</time></trkpt><trkpt lat="38.0469155" lon="13.3142053"><ele>342.0</ele><time>2026-04-28T15:17:52.789Z</time></trkpt><trkpt lat="38.0468006" lon="13.3143429"><ele>342.0</ele><time>2026-04-28T15:17:53.789Z</time></trkpt><trkpt lat="38.0466884" lon="13.3144773"><ele>342.0</ele><time>2026-04-28T15:17:54.792Z</time></trkpt><trkpt lat="38.046587" lon="13.3145967"><ele>342.0</ele><time>2026-04-28T15:17:55.794Z</time></trkpt><trkpt lat="38.0464925" lon="13.3146979"><ele>342.0</ele><time>2026-04-28T15:17:56.795Z</time></trkpt><trkpt lat="38.0463994" lon="13.314771"><ele>343.5</ele><time>2026-04-28T15:17:57.792Z</time></trkpt><trkpt lat="38.0463" lon="13.3148052"><ele>345.0</ele><time>2026-04-28T15:17:58.79Z</time></trkpt><trkpt lat="38.0461918" lon="13.3147987"><ele>346.5</ele><time>2026-04-28T15:17:59.787Z</time></trkpt><trkpt lat="38.0460721" lon="13.3147463"><ele>348.0</ele><time>2026-04-28T15:18:00.789Z</time></trkpt><trkpt lat="38.0459438" lon="13.3146565"><ele>348.5</ele><time>2026-04-28T15:18:01.792Z</time></trkpt><trkpt lat="38.0458165" lon="13.314559"><ele>349.0</ele><time>2026-04-28T15:18:02.791Z</time></trkpt><trkpt lat="38.0456862" lon="13.3144724"><ele>349.5</ele><time>2026-04-28T15:18:03.792Z</time></trkpt><trkpt lat="38.0455537" lon="13.3143902"><ele>350.0</ele><time>2026-04-28T15:18:04.788Z</time></trkpt><trkpt lat="38.0454326" lon="13.3143036"><ele>352.6</ele><time>2026-04-28T15:18:05.795Z</time></trkpt><trkpt lat="38.0453424" lon="13.3142139"><ele>355.2</ele><time>2026-04-28T15:18:06.789Z</time></trkpt><trkpt lat="38.0452876" lon="13.3141241"><ele>357.79999999999995</ele><time>2026-04-28T15:18:07.792Z</time></trkpt><trkpt lat="38.0452611" lon="13.3140164"><ele>360.4</ele><time>2026-04-28T15:18:08.793Z</time></trkpt><trkpt lat="38.0452745" lon="13.3138954"><ele>363.0</ele><time>2026-04-28T15:18:09.787Z</time></trkpt><trkpt lat="38.0453255" lon="13.3137765"><ele>365.0</ele><time>2026-04-28T15:18:10.79Z</time></trkpt><trkpt lat="38.0453956" lon="13.3136589"><ele>367.0</ele><time>2026-04-28T15:18:11.787Z</time></trkpt><trkpt lat="38.0454792" lon="13.3135455"><ele>369.0</ele><time>2026-04-28T15:18:12.794Z</time></trkpt><trkpt lat="38.0455583" lon="13.3134378"><ele>371.0</ele><time>2026-04-28T15:18:13.793Z</time></trkpt><trkpt lat="38.0456292" lon="13.3133295"><ele>371.0</ele><time>2026-04-28T15:18:14.791Z</time></trkpt><trkpt lat="38.0456918" lon="13.3132306"><ele>371.0</ele><time>2026-04-28T15:18:15.791Z</time></trkpt><trkpt lat="38.0457447" lon="13.3131391"><ele>371.0</ele><time>2026-04-28T15:18:16.797Z</time></trkpt><trkpt lat="38.0457827" lon="13.3130533"><ele>371.0</ele><time>2026-04-28T15:18:17.789Z</time></trkpt><trkpt lat="38.0457893" lon="13.3129665"><ele>371.0</ele><time>2026-04-28T15:18:18.795Z</time></trkpt><trkpt lat="38.0457673" lon="13.3128794"><ele>371.0</ele><time>2026-04-28T15:18:19.792Z</time></trkpt><trkpt lat="38.0457205" lon="13.3127992"><ele>375.6</ele><time>2026-04-28T15:18:20.787Z</time></trkpt><trkpt lat="38.0456634" lon="13.3127295"><ele>380.20000000000005</ele><time>2026-04-28T15:18:21.795Z</time></trkpt><trkpt lat="38.0455932" lon="13.3126731"><ele>384.79999999999995</ele><time>2026-04-28T15:18:22.791Z</time></trkpt><trkpt lat="38.0455099" lon="13.3126314"><ele>389.4</ele><time>2026-04-28T15:18:23.797Z</time></trkpt><trkpt lat="38.0454183" lon="13.312619"><ele>394.0</ele><time>2026-04-28T15:18:24.789Z</time></trkpt><trkpt lat="38.0453144" lon="13.3126439"><ele>394.0</ele><time>2026-04-28T15:18:25.794Z</time></trkpt><trkpt lat="38.0452116" lon="13.3127069"><ele>394.0</ele><time>2026-04-28T15:18:26.787Z</time></trkpt><trkpt lat="38.0451187" lon="13.3127995"><ele>394.0</ele><time>2026-04-28T15:18:27.793Z</time></trkpt><trkpt lat="38.0450469" lon="13.3129035"><ele>394.0</ele><time>2026-04-28T15:18:28.794Z</time></trkpt><trkpt lat="38.044974" lon="13.3130101"><ele>397.25</ele><time>2026-04-28T15:18:29.788Z</time></trkpt><trkpt lat="38.0448953" lon="13.3131242"><ele>400.5</ele><time>2026-04-28T15:18:30.791Z</time></trkpt><trkpt lat="38.0448182" lon="13.313244"><ele>403.75</ele><time>2026-04-28T15:18:31.788Z</time></trkpt><trkpt lat="38.0447346" lon="13.3133669"><ele>407.0</ele><time>2026-04-28T15:18:32.791Z</time></trkpt><trkpt lat="38.0446417" lon="13.3134929"><ele>407.0</ele><time>2026-04-28T15:18:33.789Z</time></trkpt><trkpt lat="38.0445396" lon="13.313621"><ele>407.0</ele><time>2026-04-28T15:18:34.796Z</time></trkpt><trkpt lat="38.0444237" lon="13.3137496"><ele>407.0</ele><time>2026-04-28T15:18:35.793Z</time></trkpt><trkpt lat="38.0442944" lon="13.3138782"><ele>410.3333333333333</ele><time>2026-04-28T15:18:36.786Z</time></trkpt><trkpt lat="38.0441571" lon="13.3140099"><ele>413.66666666666663</ele><time>2026-04-28T15:18:37.788Z</time></trkpt><trkpt lat="38.0440163" lon="13.3141475"><ele>417.0</ele><time>2026-04-28T15:18:38.787Z</time></trkpt><trkpt lat="38.0438763" lon="13.314292"><ele>417.0</ele><time>2026-04-28T15:18:39.791Z</time></trkpt><trkpt lat="38.0437452" lon="13.3144294"><ele>417.0</ele><time>2026-04-28T15:18:40.799Z</time></trkpt><trkpt lat="38.0436316" lon="13.3145563"><ele>417.0</ele><time>2026-04-28T15:18:41.797Z</time></trkpt><trkpt lat="38.0435423" lon="13.314685"><ele>412.25</ele><time>2026-04-28T15:18:42.786Z</time></trkpt><trkpt lat="38.0434752" lon="13.31483"><ele>407.5</ele><time>2026-04-28T15:18:43.796Z</time></trkpt><trkpt lat="38.0434224" lon="13.3149989"><ele>402.75</ele><time>2026-04-28T15:18:44.788Z</time></trkpt><trkpt lat="38.0433786" lon="13.3151927"><ele>398.0</ele><time>2026-04-28T15:18:45.79Z</time></trkpt><trkpt lat="38.0433462" lon="13.3153992"><ele>397.3333333333333</ele><time>2026-04-28T15:18:46.791Z</time></trkpt><trkpt lat="38.0433133" lon="13.315617"><ele>396.66666666666663</ele><time>2026-04-28T15:18:47.793Z</time></trkpt><trkpt lat="38.0432706" lon="13.3158385"><ele>396.0</ele><time>2026-04-28T15:18:48.794Z</time></trkpt><trkpt lat="38.0432206" lon="13.3160626"><ele>407.33333333333337</ele><time>2026-04-28T15:18:49.791Z</time></trkpt><trkpt lat="38.04316" lon="13.3162903"><ele>418.6666666666667</ele><time>2026-04-28T15:18:50.788Z</time></trkpt><trkpt lat="38.0430767" lon="13.3165091"><ele>430.0</ele><time>2026-04-28T15:18:51.794Z</time></trkpt><trkpt lat="38.0429762" lon="13.3167166"><ele>430.0</ele><time>2026-04-28T15:18:52.794Z</time></trkpt><trkpt lat="38.0428679" lon="13.3169196"><ele>430.0</ele><time>2026-04-28T15:18:53.789Z</time></trkpt><trkpt lat="38.0427633" lon="13.3171241"><ele>430.0</ele><time>2026-04-28T15:18:54.793Z</time></trkpt><trkpt lat="38.0426639" lon="13.3173294"><ele>426.0</ele><time>2026-04-28T15:18:55.794Z</time></trkpt><trkpt lat="38.0425719" lon="13.3175386"><ele>422.0</ele><time>2026-04-28T15:18:56.789Z</time></trkpt><trkpt lat="38.042488" lon="13.3177539"><ele>418.0</ele><time>2026-04-28T15:18:57.789Z</time></trkpt><trkpt lat="38.0424069" lon="13.3179671"><ele>425.33333333333337</ele><time>2026-04-28T15:18:58.793Z</time></trkpt><trkpt lat="38.0423289" lon="13.318171"><ele>432.66666666666663</ele><time>2026-04-28T15:18:59.792Z</time></trkpt><trkpt lat="38.0422544" lon="13.3183626"><ele>440.0</ele><time>2026-04-28T15:19:00.794Z</time></trkpt><trkpt lat="38.0421739" lon="13.3185341"><ele>440.0</ele><time>2026-04-28T15:19:01.794Z</time></trkpt><trkpt lat="38.0420862" lon="13.3186892"><ele>440.0</ele><time>2026-04-28T15:19:02.793Z</time></trkpt><trkpt lat="38.0419914" lon="13.3188287"><ele>440.0</ele><time>2026-04-28T15:19:03.803Z</time></trkpt><trkpt lat="38.0418868" lon="13.3189484"><ele>440.0</ele><time>2026-04-28T15:19:04.797Z</time></trkpt><trkpt lat="38.0417748" lon="13.3190455"><ele>441.25</ele><time>2026-04-28T15:19:05.797Z</time></trkpt><trkpt lat="38.0416553" lon="13.3191266"><ele>442.5</ele><time>2026-04-28T15:19:06.793Z</time></trkpt><trkpt lat="38.041532" lon="13.3192033"><ele>443.75</ele><time>2026-04-28T15:19:07.792Z</time></trkpt><trkpt lat="38.0414125" lon="13.3192872"><ele>445.0</ele><time>2026-04-28T15:19:08.797Z</time></trkpt><trkpt lat="38.0413084" lon="13.3193917"><ele>445.0</ele><time>2026-04-28T15:19:09.796Z</time></trkpt><trkpt lat="38.0412152" lon="13.3195163"><ele>445.0</ele><time>2026-04-28T15:19:10.796Z</time></trkpt><trkpt lat="38.0411302" lon="13.3196515"><ele>445.0</ele><time>2026-04-28T15:19:11.793Z</time></trkpt><trkpt lat="38.0410482" lon="13.3197929"><ele>445.0</ele><time>2026-04-28T15:19:12.795Z</time></trkpt><trkpt lat="38.040964" lon="13.319937"><ele>443.75</ele><time>2026-04-28T15:19:13.799Z</time></trkpt><trkpt lat="38.0408763" lon="13.3200773"><ele>442.5</ele><time>2026-04-28T15:19:14.793Z</time></trkpt><trkpt lat="38.0407847" lon="13.3202096"><ele>441.25</ele><time>2026-04-28T15:19:15.797Z</time></trkpt><trkpt lat="38.0406895" lon="13.3203254"><ele>440.0</ele><time>2026-04-28T15:19:16.8Z</time></trkpt><trkpt lat="38.0405918" lon="13.3204178"><ele>442.4</ele><time>2026-04-28T15:19:17.798Z</time></trkpt><trkpt lat="38.040489" lon="13.3204828"><ele>444.8</ele><time>2026-04-28T15:19:18.793Z</time></trkpt><trkpt lat="38.0403828" lon="13.3205255"><ele>447.20000000000005</ele><time>2026-04-28T15:19:19.794Z</time></trkpt><trkpt lat="38.0402844" lon="13.3205587"><ele>449.6</ele><time>2026-04-28T15:19:20.791Z</time></trkpt><trkpt lat="38.0402043" lon="13.320587"><ele>452.0</ele><time>2026-04-28T15:19:21.797Z</time></trkpt><trkpt lat="38.0401396" lon="13.3206096"><ele>451.99999999999994</ele><time>2026-04-28T15:19:22.796Z</time></trkpt><trkpt lat="38.0400657" lon="13.320625"><ele>452.0</ele><time>2026-04-28T15:19:24.8Z</time></trkpt><trkpt lat="38.0400021" lon="13.3206299"><ele>452.0</ele><time>2026-04-28T15:19:26.8Z</time></trkpt><trkpt lat="38.0398879" lon="13.3205856"><ele>452.0</ele><time>2026-04-28T15:19:28.793Z</time></trkpt><trkpt lat="38.0398333" lon="13.3205086"><ele>451.99999999999994</ele><time>2026-04-28T15:19:29.795Z</time></trkpt><trkpt lat="38.0397973" lon="13.3203894"><ele>452.0</ele><time>2026-04-28T15:19:30.793Z</time></trkpt><trkpt lat="38.0397821" lon="13.3202447"><ele>455.75</ele><time>2026-04-28T15:19:31.797Z</time></trkpt><trkpt lat="38.0397764" lon="13.3200824"><ele>459.5</ele><time>2026-04-28T15:19:32.801Z</time></trkpt><trkpt lat="38.0397834" lon="13.3199085"><ele>463.25</ele><time>2026-04-28T15:19:33.796Z</time></trkpt><trkpt lat="38.0397883" lon="13.3197371"><ele>467.0</ele><time>2026-04-28T15:19:34.798Z</time></trkpt><trkpt lat="38.0397916" lon="13.3195763"><ele>467.0</ele><time>2026-04-28T15:19:35.804Z</time></trkpt><trkpt lat="38.0397925" lon="13.3194529"><ele>467.00000000000006</ele><time>2026-04-28T15:19:36.792Z</time></trkpt><trkpt lat="38.0397896" lon="13.3193698"><ele>467.00000000000006</ele><time>2026-04-28T15:19:37.796Z</time></trkpt><trkpt lat="38.0397789" lon="13.3191977"><ele>467.0</ele><time>2026-04-28T15:19:39.796Z</time></trkpt><trkpt lat="38.0397793" lon="13.319094"><ele>467.0</ele><time>2026-04-28T15:19:40.792Z</time></trkpt><trkpt lat="38.0397785" lon="13.3189752"><ele>468.5</ele><time>2026-04-28T15:19:41.794Z</time></trkpt><trkpt lat="38.039783" lon="13.3188466"><ele>470.0</ele><time>2026-04-28T15:19:42.796Z</time></trkpt><trkpt lat="38.0397906" lon="13.3187084"><ele>471.5</ele><time>2026-04-28T15:19:43.795Z</time></trkpt><trkpt lat="38.0398075" lon="13.3185586"><ele>473.0</ele><time>2026-04-28T15:19:44.801Z</time></trkpt><trkpt lat="38.0398389" lon="13.3184015"><ele>473.0</ele><time>2026-04-28T15:19:45.796Z</time></trkpt><trkpt lat="38.0398912" lon="13.3182506"><ele>473.0</ele><time>2026-04-28T15:19:46.793Z</time></trkpt><trkpt lat="38.0399686" lon="13.3181079"><ele>473.0</ele><time>2026-04-28T15:19:47.796Z</time></trkpt><trkpt lat="38.0400616" lon="13.3179768"><ele>473.0</ele><time>2026-04-28T15:19:48.791Z</time></trkpt><trkpt lat="38.0401638" lon="13.3178593"><ele>473.5</ele><time>2026-04-28T15:19:49.797Z</time></trkpt><trkpt lat="38.0402704" lon="13.3177482"><ele>474.0</ele><time>2026-04-28T15:19:50.795Z</time></trkpt><trkpt lat="38.0403765" lon="13.3176384"><ele>474.5</ele><time>2026-04-28T15:19:51.793Z</time></trkpt><trkpt lat="38.040475" lon="13.3175199"><ele>475.0</ele><time>2026-04-28T15:19:52.796Z</time></trkpt><trkpt lat="38.0405639" lon="13.3173839"><ele>477.25</ele><time>2026-04-28T15:19:53.8Z</time></trkpt><trkpt lat="38.0406355" lon="13.3172272"><ele>479.5</ele><time>2026-04-28T15:19:54.798Z</time></trkpt><trkpt lat="38.0406901" lon="13.3170597"><ele>481.75</ele><time>2026-04-28T15:19:55.794Z</time></trkpt><trkpt lat="38.0407408" lon="13.3168894"><ele>484.0</ele><time>2026-04-28T15:19:56.793Z</time></trkpt><trkpt lat="38.0407923" lon="13.3167265"><ele>483.5</ele><time>2026-04-28T15:19:57.795Z</time></trkpt><trkpt lat="38.0408425" lon="13.3165704"><ele>483.0</ele><time>2026-04-28T15:19:58.799Z</time></trkpt><trkpt lat="38.0408905" lon="13.3164224"><ele>482.5</ele><time>2026-04-28T15:19:59.799Z</time></trkpt><trkpt lat="38.0409313" lon="13.3162841"><ele>482.0</ele><time>2026-04-28T15:20:00.8Z</time></trkpt><trkpt lat="38.0409526" lon="13.3161496"><ele>482.0</ele><time>2026-04-28T15:20:01.801Z</time></trkpt><trkpt lat="38.040951" lon="13.3160133"><ele>482.0</ele><time>2026-04-28T15:20:02.789Z</time></trkpt><trkpt lat="38.0409246" lon="13.3158776"><ele>482.0</ele><time>2026-04-28T15:20:03.801Z</time></trkpt><trkpt lat="38.0408751" lon="13.3157416"><ele>482.0</ele><time>2026-04-28T15:20:04.794Z</time></trkpt><trkpt lat="38.0408111" lon="13.3156057"><ele>487.0</ele><time>2026-04-28T15:20:05.795Z</time></trkpt><trkpt lat="38.0407417" lon="13.3154678"><ele>492.0</ele><time>2026-04-28T15:20:06.796Z</time></trkpt><trkpt lat="38.0406791" lon="13.3153215"><ele>497.0</ele><time>2026-04-28T15:20:07.793Z</time></trkpt><trkpt lat="38.0406238" lon="13.3151711"><ele>502.0</ele><time>2026-04-28T15:20:08.788Z</time></trkpt><trkpt lat="38.0405744" lon="13.3150221"><ele>502.0</ele><time>2026-04-28T15:20:09.796Z</time></trkpt><trkpt lat="38.0405242" lon="13.3148726"><ele>502.0</ele><time>2026-04-28T15:20:10.792Z</time></trkpt><trkpt lat="38.0404726" lon="13.314729"><ele>502.0</ele><time>2026-04-28T15:20:11.793Z</time></trkpt><trkpt lat="38.0404081" lon="13.3145886"><ele>502.0</ele><time>2026-04-28T15:20:12.796Z</time></trkpt><trkpt lat="38.040322" lon="13.3144486"><ele>502.5</ele><time>2026-04-28T15:20:13.799Z</time></trkpt><trkpt lat="38.0402275" lon="13.3143111"><ele>503.0</ele><time>2026-04-28T15:20:14.794Z</time></trkpt><trkpt lat="38.0401271" lon="13.3141755"><ele>503.5</ele><time>2026-04-28T15:20:15.798Z</time></trkpt><trkpt lat="38.0400259" lon="13.3140327"><ele>504.0</ele><time>2026-04-28T15:20:16.799Z</time></trkpt><trkpt lat="38.0399443" lon="13.3138717"><ele>505.0</ele><time>2026-04-28T15:20:17.795Z</time></trkpt><trkpt lat="38.039896" lon="13.3136968"><ele>506.0</ele><time>2026-04-28T15:20:18.789Z</time></trkpt><trkpt lat="38.0398815" lon="13.3135153"><ele>507.0</ele><time>2026-04-28T15:20:19.797Z</time></trkpt><trkpt lat="38.0399114" lon="13.31333"><ele>508.0</ele><time>2026-04-28T15:20:20.792Z</time></trkpt><trkpt lat="38.0399709" lon="13.3131409"><ele>510.33333333333337</ele><time>2026-04-28T15:20:21.79Z</time></trkpt><trkpt lat="38.0400214" lon="13.3129448"><ele>512.6666666666666</ele><time>2026-04-28T15:20:22.79Z</time></trkpt><trkpt lat="38.0400757" lon="13.3127434"><ele>515.0</ele><time>2026-04-28T15:20:23.795Z</time></trkpt><trkpt lat="38.0401315" lon="13.3125427"><ele>515.0</ele><time>2026-04-28T15:20:24.797Z</time></trkpt><trkpt lat="38.0401831" lon="13.3123359"><ele>515.0</ele><time>2026-04-28T15:20:25.796Z</time></trkpt><trkpt lat="38.040232" lon="13.3121228"><ele>515.0</ele><time>2026-04-28T15:20:26.796Z</time></trkpt><trkpt lat="38.0402801" lon="13.3119062"><ele>517.6666666666666</ele><time>2026-04-28T15:20:27.793Z</time></trkpt><trkpt lat="38.0403305" lon="13.311688"><ele>520.3333333333334</ele><time>2026-04-28T15:20:28.791Z</time></trkpt><trkpt lat="38.0403833" lon="13.3114653"><ele>523.0</ele><time>2026-04-28T15:20:29.79Z</time></trkpt><trkpt lat="38.0404322" lon="13.3112413"><ele>526.6666666666667</ele><time>2026-04-28T15:20:30.789Z</time></trkpt><trkpt lat="38.0404808" lon="13.3110206"><ele>530.3333333333334</ele><time>2026-04-28T15:20:31.794Z</time></trkpt><trkpt lat="38.0405299" lon="13.3108093"><ele>534.0</ele><time>2026-04-28T15:20:32.797Z</time></trkpt><trkpt lat="38.0405818" lon="13.3106079"><ele>533.0</ele><time>2026-04-28T15:20:33.797Z</time></trkpt><trkpt lat="38.0406436" lon="13.31042"><ele>532.0</ele><time>2026-04-28T15:20:34.794Z</time></trkpt><trkpt lat="38.0407164" lon="13.3102504"><ele>531.0</ele><time>2026-04-28T15:20:35.795Z</time></trkpt><trkpt lat="38.0408078" lon="13.3100968"><ele>531.0</ele><time>2026-04-28T15:20:36.794Z</time></trkpt><trkpt lat="38.0409167" lon="13.3099541"><ele>531.0</ele><time>2026-04-28T15:20:37.793Z</time></trkpt><trkpt lat="38.0410312" lon="13.3098156"><ele>531.0</ele><time>2026-04-28T15:20:38.795Z</time></trkpt><trkpt lat="38.0411458" lon="13.3096714"><ele>538.0</ele><time>2026-04-28T15:20:39.793Z</time></trkpt><trkpt lat="38.0412601" lon="13.3095268"><ele>545.0</ele><time>2026-04-28T15:20:40.792Z</time></trkpt><trkpt lat="38.0413755" lon="13.3093941"><ele>552.0</ele><time>2026-04-28T15:20:41.796Z</time></trkpt><trkpt lat="38.041493" lon="13.3092844"><ele>552.0</ele><time>2026-04-28T15:20:42.793Z</time></trkpt><trkpt lat="38.041612" lon="13.3092015"><ele>552.0</ele><time>2026-04-28T15:20:43.799Z</time></trkpt><trkpt lat="38.0417276" lon="13.3091537"><ele>552.0</ele><time>2026-04-28T15:20:44.793Z</time></trkpt><trkpt lat="38.0418389" lon="13.3091553"><ele>552.0</ele><time>2026-04-28T15:20:45.797Z</time></trkpt><trkpt lat="38.0419429" lon="13.3092005"><ele>549.0</ele><time>2026-04-28T15:20:46.797Z</time></trkpt><trkpt lat="38.0420393" lon="13.3092934"><ele>546.0</ele><time>2026-04-28T15:20:47.798Z</time></trkpt><trkpt lat="38.0421233" lon="13.3094301"><ele>543.0</ele><time>2026-04-28T15:20:48.795Z</time></trkpt><trkpt lat="38.0421892" lon="13.3096037"><ele>540.0</ele><time>2026-04-28T15:20:49.795Z</time></trkpt><trkpt lat="38.0422476" lon="13.309785"><ele>539.25</ele><time>2026-04-28T15:20:50.797Z</time></trkpt><trkpt lat="38.0423104" lon="13.309951"><ele>538.5</ele><time>2026-04-28T15:20:51.793Z</time></trkpt><trkpt lat="38.0423753" lon="13.3101155"><ele>537.75</ele><time>2026-04-28T15:20:52.797Z</time></trkpt><trkpt lat="38.0424271" lon="13.3102692"><ele>537.0</ele><time>2026-04-28T15:20:53.797Z</time></trkpt><trkpt lat="38.0424722" lon="13.3103983"><ele>537.0</ele><time>2026-04-28T15:20:54.792Z</time></trkpt><trkpt lat="38.0425262" lon="13.3104939"><ele>537.0</ele><time>2026-04-28T15:20:55.795Z</time></trkpt><trkpt lat="38.0426023" lon="13.3105493"><ele>537.0</ele><time>2026-04-28T15:20:56.793Z</time></trkpt><trkpt lat="38.0426933" lon="13.31056"><ele>537.0</ele><time>2026-04-28T15:20:57.796Z</time></trkpt><trkpt lat="38.0427858" lon="13.3105353"><ele>537.0</ele><time>2026-04-28T15:20:58.795Z</time></trkpt><trkpt lat="38.0428652" lon="13.3104647"><ele>537.0</ele><time>2026-04-28T15:20:59.793Z</time></trkpt><trkpt lat="38.0429216" lon="13.3103678"><ele>537.0</ele><time>2026-04-28T15:21:00.793Z</time></trkpt><trkpt lat="38.0429602" lon="13.3102697"><ele>537.0</ele><time>2026-04-28T15:21:01.792Z</time></trkpt><trkpt lat="38.0429639" lon="13.310168"><ele>537.0</ele><time>2026-04-28T15:21:02.792Z</time></trkpt><trkpt lat="38.0429298" lon="13.3100693"><ele>537.0</ele><time>2026-04-28T15:21:03.794Z</time></trkpt><trkpt lat="38.0428684" lon="13.3099698"><ele>537.0</ele><time>2026-04-28T15:21:04.79Z</time></trkpt><trkpt lat="38.0427969" lon="13.3098708"><ele>537.0</ele><time>2026-04-28T15:21:05.801Z</time></trkpt><trkpt lat="38.0427192" lon="13.3097517"><ele>537.0</ele><time>2026-04-28T15:21:06.796Z</time></trkpt><trkpt lat="38.0426563" lon="13.3096184"><ele>537.0</ele><time>2026-04-28T15:21:07.799Z</time></trkpt><trkpt lat="38.0426021" lon="13.3094723"><ele>537.0</ele><time>2026-04-28T15:21:08.796Z</time></trkpt><trkpt lat="38.0425536" lon="13.3093203"><ele>537.75</ele><time>2026-04-28T15:21:09.797Z</time></trkpt><trkpt lat="38.0425034" lon="13.3091667"><ele>538.5</ele><time>2026-04-28T15:21:10.798Z</time></trkpt><trkpt lat="38.0424571" lon="13.3090054"><ele>539.25</ele><time>2026-04-28T15:21:11.798Z</time></trkpt><trkpt lat="38.0424135" lon="13.3088423"><ele>540.0</ele><time>2026-04-28T15:21:12.793Z</time></trkpt><trkpt lat="38.042377" lon="13.3086773"><ele>544.6</ele><time>2026-04-28T15:21:13.795Z</time></trkpt><trkpt lat="38.0423423" lon="13.3085175"><ele>549.2</ele><time>2026-04-28T15:21:14.796Z</time></trkpt><trkpt lat="38.0423092" lon="13.3083687"><ele>553.8</ele><time>2026-04-28T15:21:15.802Z</time></trkpt><trkpt lat="38.0422634" lon="13.3082516"><ele>558.4</ele><time>2026-04-28T15:21:16.795Z</time></trkpt><trkpt lat="38.0421927" lon="13.3081799"><ele>563.0</ele><time>2026-04-28T15:21:17.79Z</time></trkpt><trkpt lat="38.0420871" lon="13.3081455"><ele>563.0</ele><time>2026-04-28T15:21:18.793Z</time></trkpt><trkpt lat="38.0419531" lon="13.3081484"><ele>563.0</ele><time>2026-04-28T15:21:19.789Z</time></trkpt><trkpt lat="38.041809" lon="13.308174"><ele>563.0</ele><time>2026-04-28T15:21:20.79Z</time></trkpt><trkpt lat="38.0416718" lon="13.3082164"><ele>563.0</ele><time>2026-04-28T15:21:21.796Z</time></trkpt><trkpt lat="38.0415381" lon="13.3082621"><ele>566.0</ele><time>2026-04-28T15:21:22.789Z</time></trkpt><trkpt lat="38.0413961" lon="13.3083072"><ele>569.0</ele><time>2026-04-28T15:21:23.794Z</time></trkpt><trkpt lat="38.0412475" lon="13.3083676"><ele>572.0</ele><time>2026-04-28T15:21:24.789Z</time></trkpt><trkpt lat="38.0411061" lon="13.3084393"><ele>572.0</ele><time>2026-04-28T15:21:25.792Z</time></trkpt><trkpt lat="38.0409741" lon="13.3085043"><ele>572.0</ele><time>2026-04-28T15:21:26.798Z</time></trkpt><trkpt lat="38.0408505" lon="13.3085541"><ele>572.0</ele><time>2026-04-28T15:21:27.788Z</time></trkpt><trkpt lat="38.0407371" lon="13.3085735"><ele>572.0</ele><time>2026-04-28T15:21:28.791Z</time></trkpt><trkpt lat="38.040634" lon="13.308548"><ele>573.4</ele><time>2026-04-28T15:21:29.79Z</time></trkpt><trkpt lat="38.0405431" lon="13.3084629"><ele>574.8000000000001</ele><time>2026-04-28T15:21:30.794Z</time></trkpt><trkpt lat="38.0404525" lon="13.3083784"><ele>576.2</ele><time>2026-04-28T15:21:31.796Z</time></trkpt><trkpt lat="38.0403502" lon="13.3083386"><ele>577.6</ele><time>2026-04-28T15:21:32.796Z</time></trkpt><trkpt lat="38.0402365" lon="13.3083475"><ele>579.0</ele><time>2026-04-28T15:21:33.796Z</time></trkpt><trkpt lat="38.0401198" lon="13.308404"><ele>579.0</ele><time>2026-04-28T15:21:34.796Z</time></trkpt><trkpt lat="38.0400075" lon="13.3084943"><ele>579.0</ele><time>2026-04-28T15:21:35.798Z</time></trkpt><trkpt lat="38.0398846" lon="13.3086078"><ele>579.0</ele><time>2026-04-28T15:21:36.792Z</time></trkpt><trkpt lat="38.0397545" lon="13.3087228"><ele>579.0</ele><time>2026-04-28T15:21:37.798Z</time></trkpt><trkpt lat="38.0396244" lon="13.30885"><ele>580.3333333333334</ele><time>2026-04-28T15:21:38.796Z</time></trkpt><trkpt lat="38.039494" lon="13.3089831"><ele>581.6666666666667</ele><time>2026-04-28T15:21:39.796Z</time></trkpt><trkpt lat="38.0393596" lon="13.309109"><ele>583.0</ele><time>2026-04-28T15:21:40.796Z</time></trkpt><trkpt lat="38.0392143" lon="13.3092085"><ele>590.0</ele><time>2026-04-28T15:21:41.793Z</time></trkpt><trkpt lat="38.0390592" lon="13.3092714"><ele>597.0</ele><time>2026-04-28T15:21:42.79Z</time></trkpt><trkpt lat="38.0388934" lon="13.3093023"><ele>604.0</ele><time>2026-04-28T15:21:43.795Z</time></trkpt><trkpt lat="38.0387226" lon="13.3093168"><ele>604.0</ele><time>2026-04-28T15:21:44.794Z</time></trkpt><trkpt lat="38.0385555" lon="13.3093339"><ele>604.0</ele><time>2026-04-28T15:21:45.79Z</time></trkpt><trkpt lat="38.038397" lon="13.3093757"><ele>604.0</ele><time>2026-04-28T15:21:46.798Z</time></trkpt><trkpt lat="38.0382681" lon="13.3094602"><ele>612.6666666666667</ele><time>2026-04-28T15:21:47.793Z</time></trkpt><trkpt lat="38.0381605" lon="13.3096001"><ele>621.3333333333334</ele><time>2026-04-28T15:21:48.792Z</time></trkpt><trkpt lat="38.0380749" lon="13.3097739"><ele>630.0</ele><time>2026-04-28T15:21:49.796Z</time></trkpt><trkpt lat="38.0380048" lon="13.3099678"><ele>630.0</ele><time>2026-04-28T15:21:50.799Z</time></trkpt><trkpt lat="38.0379527" lon="13.3101774"><ele>630.0</ele><time>2026-04-28T15:21:51.79Z</time></trkpt><trkpt lat="38.0379024" lon="13.3103936"><ele>630.0</ele><time>2026-04-28T15:21:52.795Z</time></trkpt><trkpt lat="38.0378389" lon="13.3106028"><ele>626.0</ele><time>2026-04-28T15:21:53.793Z</time></trkpt><trkpt lat="38.0377667" lon="13.3108049"><ele>622.0</ele><time>2026-04-28T15:21:54.799Z</time></trkpt><trkpt lat="38.0376881" lon="13.3110132"><ele>618.0</ele><time>2026-04-28T15:21:55.797Z</time></trkpt><trkpt lat="38.0376015" lon="13.3112088"><ele>618.0</ele><time>2026-04-28T15:21:56.8Z</time></trkpt><trkpt lat="38.0375081" lon="13.3113984"><ele>618.0</ele><time>2026-04-28T15:21:57.794Z</time></trkpt><trkpt lat="38.0374089" lon="13.3115815"><ele>618.0</ele><time>2026-04-28T15:21:58.793Z</time></trkpt><trkpt lat="38.0373061" lon="13.3117542"><ele>627.0</ele><time>2026-04-28T15:21:59.798Z</time></trkpt><trkpt lat="38.0371987" lon="13.311905"><ele>636.0</ele><time>2026-04-28T15:22:00.795Z</time></trkpt><trkpt lat="38.0370784" lon="13.3120248"><ele>645.0</ele><time>2026-04-28T15:22:01.794Z</time></trkpt><trkpt lat="38.0369514" lon="13.3121165"><ele>645.0</ele><time>2026-04-28T15:22:02.796Z</time></trkpt><trkpt lat="38.0368362" lon="13.3122141"><ele>645.0</ele><time>2026-04-28T15:22:03.797Z</time></trkpt><trkpt lat="38.0367479" lon="13.3123378"><ele>645.0</ele><time>2026-04-28T15:22:04.787Z</time></trkpt><trkpt lat="38.0366981" lon="13.3125002"><ele>645.0</ele><time>2026-04-28T15:22:05.793Z</time></trkpt><trkpt lat="38.0366752" lon="13.3126827"><ele>640.6666666666666</ele><time>2026-04-28T15:22:06.79Z</time></trkpt><trkpt lat="38.036646" lon="13.3128715"><ele>636.3333333333333</ele><time>2026-04-28T15:22:07.792Z</time></trkpt><trkpt lat="38.0365939" lon="13.3130538"><ele>632.0</ele><time>2026-04-28T15:22:08.798Z</time></trkpt><trkpt lat="38.036525" lon="13.3132359"><ele>645.0</ele><time>2026-04-28T15:22:09.792Z</time></trkpt><trkpt lat="38.0364489" lon="13.3134226"><ele>658.0</ele><time>2026-04-28T15:22:10.796Z</time></trkpt><trkpt lat="38.0363726" lon="13.3136143"><ele>671.0</ele><time>2026-04-28T15:22:11.788Z</time></trkpt><trkpt lat="38.0362995" lon="13.3138098"><ele>664.6666666666666</ele><time>2026-04-28T15:22:12.791Z</time></trkpt><trkpt lat="38.0362179" lon="13.3140006"><ele>658.3333333333334</ele><time>2026-04-28T15:22:13.789Z</time></trkpt><trkpt lat="38.0361149" lon="13.3141796"><ele>652.0</ele><time>2026-04-28T15:22:14.794Z</time></trkpt><trkpt lat="38.0359924" lon="13.3143319"><ele>652.0</ele><time>2026-04-28T15:22:15.793Z</time></trkpt><trkpt lat="38.0358709" lon="13.314468"><ele>652.0</ele><time>2026-04-28T15:22:16.797Z</time></trkpt><trkpt lat="38.0357822" lon="13.3146142"><ele>652.0</ele><time>2026-04-28T15:22:17.791Z</time></trkpt><trkpt lat="38.035737" lon="13.3147865"><ele>665.6666666666667</ele><time>2026-04-28T15:22:18.792Z</time></trkpt><trkpt lat="38.0357166" lon="13.3149774"><ele>679.3333333333334</ele><time>2026-04-28T15:22:19.793Z</time></trkpt><trkpt lat="38.0356841" lon="13.3151701"><ele>693.0</ele><time>2026-04-28T15:22:20.797Z</time></trkpt><trkpt lat="38.0356291" lon="13.3153487"><ele>693.0</ele><time>2026-04-28T15:22:21.794Z</time></trkpt><trkpt lat="38.0355379" lon="13.3155124"><ele>693.0</ele><time>2026-04-28T15:22:22.79Z</time></trkpt><trkpt lat="38.0354418" lon="13.3156858"><ele>693.0</ele><time>2026-04-28T15:22:23.789Z</time></trkpt><trkpt lat="38.0353722" lon="13.3158784"><ele>688.0</ele><time>2026-04-28T15:22:24.793Z</time></trkpt><trkpt lat="38.0353368" lon="13.3160889"><ele>683.0</ele><time>2026-04-28T15:22:25.794Z</time></trkpt><trkpt lat="38.0353005" lon="13.3162991"><ele>678.0</ele><time>2026-04-28T15:22:26.799Z</time></trkpt><trkpt lat="38.0352416" lon="13.3165005"><ele>674.0</ele><time>2026-04-28T15:22:27.793Z</time></trkpt><trkpt lat="38.0351528" lon="13.3166912"><ele>670.0</ele><time>2026-04-28T15:22:28.794Z</time></trkpt><trkpt lat="38.0350664" lon="13.3168822"><ele>666.0</ele><time>2026-04-28T15:22:29.794Z</time></trkpt><trkpt lat="38.0350031" lon="13.3170882"><ele>678.6666666666666</ele><time>2026-04-28T15:22:30.792Z</time></trkpt><trkpt lat="38.0349392" lon="13.3172993"><ele>691.3333333333333</ele><time>2026-04-28T15:22:31.791Z</time></trkpt><trkpt lat="38.0348516" lon="13.3174948"><ele>704.0</ele><time>2026-04-28T15:22:32.793Z</time></trkpt><trkpt lat="38.0347305" lon="13.3176675"><ele>704.0</ele><time>2026-04-28T15:22:33.792Z</time></trkpt><trkpt lat="38.0345952" lon="13.3178341"><ele>704.0</ele><time>2026-04-28T15:22:34.795Z</time></trkpt><trkpt lat="38.0344676" lon="13.3180138"><ele>704.0</ele><time>2026-04-28T15:22:35.791Z</time></trkpt><trkpt lat="38.0343445" lon="13.3182021"><ele>693.6666666666666</ele><time>2026-04-28T15:22:36.791Z</time></trkpt><trkpt lat="38.0342307" lon="13.3184074"><ele>683.3333333333334</ele><time>2026-04-28T15:22:37.795Z</time></trkpt><trkpt lat="38.0341341" lon="13.3186296"><ele>673.0</ele><time>2026-04-28T15:22:38.789Z</time></trkpt><trkpt lat="38.034058" lon="13.3188716"><ele>691.0</ele><time>2026-04-28T15:22:39.794Z</time></trkpt><trkpt lat="38.0339911" lon="13.3191204"><ele>709.0</ele><time>2026-04-28T15:22:40.796Z</time></trkpt><trkpt lat="38.0339264" lon="13.3193754"><ele>727.0</ele><time>2026-04-28T15:22:41.793Z</time></trkpt><trkpt lat="38.0338667" lon="13.3196372"><ele>721.0</ele><time>2026-04-28T15:22:42.795Z</time></trkpt><trkpt lat="38.0338058" lon="13.3199015"><ele>715.0</ele><time>2026-04-28T15:22:43.797Z</time></trkpt><trkpt lat="38.0337383" lon="13.3201655"><ele>709.0</ele><time>2026-04-28T15:22:44.79Z</time></trkpt><trkpt lat="38.0336575" lon="13.3204244"><ele>702.0</ele><time>2026-04-28T15:22:45.797Z</time></trkpt><trkpt lat="38.0335629" lon="13.3206809"><ele>695.0</ele><time>2026-04-28T15:22:46.792Z</time></trkpt><trkpt lat="38.0334699" lon="13.3209331"><ele>688.0</ele><time>2026-04-28T15:22:47.796Z</time></trkpt><trkpt lat="38.0333854" lon="13.3211849"><ele>682.0</ele><time>2026-04-28T15:22:48.791Z</time></trkpt><trkpt lat="38.0333059" lon="13.3214438"><ele>676.0</ele><time>2026-04-28T15:22:49.791Z</time></trkpt><trkpt lat="38.0332257" lon="13.3217066"><ele>670.0</ele><time>2026-04-28T15:22:50.794Z</time></trkpt><trkpt lat="38.0331414" lon="13.3219707"><ele>694.5</ele><time>2026-04-28T15:22:51.796Z</time></trkpt><trkpt lat="38.0330564" lon="13.3222366"><ele>719.0</ele><time>2026-04-28T15:22:52.792Z</time></trkpt><trkpt lat="38.0329694" lon="13.3225032"><ele>719.0</ele><time>2026-04-28T15:22:53.796Z</time></trkpt><trkpt lat="38.0328869" lon="13.3227723"><ele>719.0</ele><time>2026-04-28T15:22:54.792Z</time></trkpt><trkpt lat="38.0328151" lon="13.3230522"><ele>716.0</ele><time>2026-04-28T15:22:55.79Z</time></trkpt><trkpt lat="38.0327636" lon="13.3233355"><ele>713.0</ele><time>2026-04-28T15:22:56.796Z</time></trkpt><trkpt lat="38.0327378" lon="13.3236179"><ele>713.0</ele><time>2026-04-28T15:22:57.792Z</time></trkpt><trkpt lat="38.0327285" lon="13.3238887"><ele>713.0</ele><time>2026-04-28T15:22:58.794Z</time></trkpt><trkpt lat="38.0327263" lon="13.3241268"><ele>713.0</ele><time>2026-04-28T15:22:59.794Z</time></trkpt><trkpt lat="38.0327364" lon="13.3243424"><ele>711.6666666666666</ele><time>2026-04-28T15:23:00.796Z</time></trkpt><trkpt lat="38.0327462" lon="13.324545"><ele>710.3333333333334</ele><time>2026-04-28T15:23:01.794Z</time></trkpt><trkpt lat="38.0327475" lon="13.3247434"><ele>709.0</ele><time>2026-04-28T15:23:02.792Z</time></trkpt><trkpt lat="38.0327345" lon="13.3249428"><ele>707.6666666666667</ele><time>2026-04-28T15:23:03.799Z</time></trkpt><trkpt lat="38.0327061" lon="13.3251503"><ele>706.3333333333334</ele><time>2026-04-28T15:23:04.794Z</time></trkpt><trkpt lat="38.0326656" lon="13.3253674"><ele>705.0</ele><time>2026-04-28T15:23:05.796Z</time></trkpt><trkpt lat="38.0326214" lon="13.325584"><ele>702.0</ele><time>2026-04-28T15:23:06.794Z</time></trkpt><trkpt lat="38.0325761" lon="13.325791"><ele>699.0</ele><time>2026-04-28T15:23:07.805Z</time></trkpt><trkpt lat="38.0325302" lon="13.3259813"><ele>696.0</ele><time>2026-04-28T15:23:08.803Z</time></trkpt><trkpt lat="38.0324846" lon="13.326143"><ele>695.5999999999999</ele><time>2026-04-28T15:23:09.796Z</time></trkpt><trkpt lat="38.0324326" lon="13.3262818"><ele>695.2</ele><time>2026-04-28T15:23:10.799Z</time></trkpt><trkpt lat="38.0323626" lon="13.3263839"><ele>694.8</ele><time>2026-04-28T15:23:11.794Z</time></trkpt><trkpt lat="38.032268" lon="13.3264341"><ele>694.4000000000001</ele><time>2026-04-28T15:23:12.794Z</time></trkpt><trkpt lat="38.0321552" lon="13.3264403"><ele>694.0</ele><time>2026-04-28T15:23:13.796Z</time></trkpt><trkpt lat="38.0320353" lon="13.3264196"><ele>700.0</ele><time>2026-04-28T15:23:14.797Z</time></trkpt><trkpt lat="38.0319108" lon="13.326383"><ele>706.0</ele><time>2026-04-28T15:23:15.795Z</time></trkpt><trkpt lat="38.031775" lon="13.3263427"><ele>712.0</ele><time>2026-04-28T15:23:16.794Z</time></trkpt><trkpt lat="38.0316353" lon="13.3263118"><ele>718.0</ele><time>2026-04-28T15:23:17.802Z</time></trkpt><trkpt lat="38.0314912" lon="13.3262925"><ele>720.6666666666667</ele><time>2026-04-28T15:23:18.796Z</time></trkpt><trkpt lat="38.0313416" lon="13.3262896"><ele>723.3333333333334</ele><time>2026-04-28T15:23:19.803Z</time></trkpt><trkpt lat="38.031189" lon="13.326316"><ele>726.0</ele><time>2026-04-28T15:23:20.793Z</time></trkpt><trkpt lat="38.0310353" lon="13.3263713"><ele>724.6666666666666</ele><time>2026-04-28T15:23:21.796Z</time></trkpt><trkpt lat="38.0308875" lon="13.3264649"><ele>723.3333333333333</ele><time>2026-04-28T15:23:22.794Z</time></trkpt><trkpt lat="38.0307555" lon="13.3266104"><ele>722.0</ele><time>2026-04-28T15:23:23.791Z</time></trkpt><trkpt lat="38.0306386" lon="13.3267767"><ele>722.0</ele><time>2026-04-28T15:23:24.797Z</time></trkpt><trkpt lat="38.0305404" lon="13.3269416"><ele>722.0</ele><time>2026-04-28T15:23:25.792Z</time></trkpt><trkpt lat="38.0304467" lon="13.3270845"><ele>722.0</ele><time>2026-04-28T15:23:26.792Z</time></trkpt><trkpt lat="38.030348" lon="13.3271991"><ele>722.0</ele><time>2026-04-28T15:23:27.795Z</time></trkpt><trkpt lat="38.0302459" lon="13.3272622"><ele>722.0</ele><time>2026-04-28T15:23:28.792Z</time></trkpt><trkpt lat="38.0301334" lon="13.3272497"><ele>722.0</ele><time>2026-04-28T15:23:29.794Z</time></trkpt><trkpt lat="38.0300152" lon="13.3271815"><ele>722.0</ele><time>2026-04-28T15:23:30.795Z</time></trkpt><trkpt lat="38.0298937" lon="13.3270772"><ele>722.0</ele><time>2026-04-28T15:23:31.793Z</time></trkpt><trkpt lat="38.0297764" lon="13.3269518"><ele>719.3333333333333</ele><time>2026-04-28T15:23:32.804Z</time></trkpt><trkpt lat="38.029674" lon="13.3268007"><ele>716.6666666666666</ele><time>2026-04-28T15:23:33.797Z</time></trkpt><trkpt lat="38.0295885" lon="13.3266234"><ele>714.0</ele><time>2026-04-28T15:23:34.8Z</time></trkpt><trkpt lat="38.0295228" lon="13.3264196"><ele>716.6666666666666</ele><time>2026-04-28T15:23:35.8Z</time></trkpt><trkpt lat="38.0294898" lon="13.326212"><ele>719.3333333333333</ele><time>2026-04-28T15:23:36.795Z</time></trkpt><trkpt lat="38.0294829" lon="13.3260054"><ele>722.0</ele><time>2026-04-28T15:23:37.8Z</time></trkpt><trkpt lat="38.0294804" lon="13.3258029"><ele>722.0</ele><time>2026-04-28T15:23:38.796Z</time></trkpt><trkpt lat="38.0294684" lon="13.3255948"><ele>722.0</ele><time>2026-04-28T15:23:39.805Z</time></trkpt><trkpt lat="38.029446" lon="13.3253833"><ele>722.0</ele><time>2026-04-28T15:23:40.799Z</time></trkpt><trkpt lat="38.0294148" lon="13.3251713"><ele>721.3333333333333</ele><time>2026-04-28T15:23:41.792Z</time></trkpt><trkpt lat="38.0293858" lon="13.324965"><ele>720.6666666666666</ele><time>2026-04-28T15:23:42.793Z</time></trkpt><trkpt lat="38.0293686" lon="13.3247624"><ele>720.0</ele><time>2026-04-28T15:23:43.8Z</time></trkpt><trkpt lat="38.0293698" lon="13.3245559"><ele>720.0</ele><time>2026-04-28T15:23:44.799Z</time></trkpt><trkpt lat="38.0293953" lon="13.3243438"><ele>720.0</ele><time>2026-04-28T15:23:45.799Z</time></trkpt><trkpt lat="38.0294486" lon="13.3241259"><ele>720.0</ele><time>2026-04-28T15:23:46.8Z</time></trkpt><trkpt lat="38.0295181" lon="13.3239015"><ele>717.0</ele><time>2026-04-28T15:23:47.798Z</time></trkpt><trkpt lat="38.0295868" lon="13.3236812"><ele>714.0</ele><time>2026-04-28T15:23:48.802Z</time></trkpt><trkpt lat="38.029649" lon="13.3234769"><ele>711.0</ele><time>2026-04-28T15:23:49.8Z</time></trkpt><trkpt lat="38.0297047" lon="13.3232887"><ele>711.0</ele><time>2026-04-28T15:23:50.806Z</time></trkpt><trkpt lat="38.0297516" lon="13.3231164"><ele>711.0</ele><time>2026-04-28T15:23:51.793Z</time></trkpt><trkpt lat="38.0297876" lon="13.3229498"><ele>711.0</ele><time>2026-04-28T15:23:52.799Z</time></trkpt><trkpt lat="38.0298054" lon="13.3227893"><ele>711.0</ele><time>2026-04-28T15:23:53.794Z</time></trkpt><trkpt lat="38.0298078" lon="13.3226382"><ele>709.25</ele><time>2026-04-28T15:23:54.801Z</time></trkpt><trkpt lat="38.0298058" lon="13.3224862"><ele>707.5</ele><time>2026-04-28T15:23:55.797Z</time></trkpt><trkpt lat="38.0298081" lon="13.3223326"><ele>705.75</ele><time>2026-04-28T15:23:56.797Z</time></trkpt><trkpt lat="38.0298226" lon="13.3221858"><ele>704.0</ele><time>2026-04-28T15:23:57.797Z</time></trkpt><trkpt lat="38.029856" lon="13.3220466"><ele>703.25</ele><time>2026-04-28T15:23:58.798Z</time></trkpt><trkpt lat="38.0299121" lon="13.321914"><ele>702.5</ele><time>2026-04-28T15:23:59.798Z</time></trkpt><trkpt lat="38.0299817" lon="13.3217883"><ele>701.75</ele><time>2026-04-28T15:24:00.791Z</time></trkpt><trkpt lat="38.0300551" lon="13.3216701"><ele>701.0</ele><time>2026-04-28T15:24:01.8Z</time></trkpt><trkpt lat="38.0301376" lon="13.321569"><ele>702.8</ele><time>2026-04-28T15:24:02.803Z</time></trkpt><trkpt lat="38.0302314" lon="13.3214891"><ele>704.5999999999999</ele><time>2026-04-28T15:24:03.798Z</time></trkpt><trkpt lat="38.0303304" lon="13.3214345"><ele>706.4</ele><time>2026-04-28T15:24:04.8Z</time></trkpt><trkpt lat="38.0304322" lon="13.3214121"><ele>708.2</ele><time>2026-04-28T15:24:05.797Z</time></trkpt><trkpt lat="38.030535" lon="13.3214118"><ele>710.0</ele><time>2026-04-28T15:24:06.791Z</time></trkpt><trkpt lat="38.030631" lon="13.3213978"><ele>710.0</ele><time>2026-04-28T15:24:07.798Z</time></trkpt><trkpt lat="38.0307296" lon="13.3213595"><ele>710.0</ele><time>2026-04-28T15:24:08.796Z</time></trkpt><trkpt lat="38.030813" lon="13.3212873"><ele>710.0</ele><time>2026-04-28T15:24:09.8Z</time></trkpt><trkpt lat="38.0308724" lon="13.3211909"><ele>710.0</ele><time>2026-04-28T15:24:10.792Z</time></trkpt><trkpt lat="38.0309063" lon="13.3210654"><ele>710.0</ele><time>2026-04-28T15:24:11.793Z</time></trkpt><trkpt lat="38.0309141" lon="13.3209265"><ele>709.75</ele><time>2026-04-28T15:24:12.798Z</time></trkpt><trkpt lat="38.0308962" lon="13.3207766"><ele>709.5</ele><time>2026-04-28T15:24:13.799Z</time></trkpt><trkpt lat="38.0308595" lon="13.3206194"><ele>709.25</ele><time>2026-04-28T15:24:14.796Z</time></trkpt><trkpt lat="38.0308101" lon="13.3204526"><ele>709.0</ele><time>2026-04-28T15:24:15.794Z</time></trkpt><trkpt lat="38.0307551" lon="13.3202749"><ele>709.0</ele><time>2026-04-28T15:24:16.796Z</time></trkpt><trkpt lat="38.0307013" lon="13.3200942"><ele>709.0</ele><time>2026-04-28T15:24:17.794Z</time></trkpt><trkpt lat="38.0306489" lon="13.3199143"><ele>709.0</ele><time>2026-04-28T15:24:18.797Z</time></trkpt><trkpt lat="38.0305982" lon="13.3197342"><ele>712.6666666666667</ele><time>2026-04-28T15:24:19.801Z</time></trkpt><trkpt lat="38.0305468" lon="13.3195453"><ele>716.3333333333334</ele><time>2026-04-28T15:24:20.792Z</time></trkpt><trkpt lat="38.0304939" lon="13.3193544"><ele>720.0</ele><time>2026-04-28T15:24:21.801Z</time></trkpt><trkpt lat="38.0304467" lon="13.3191674"><ele>720.0</ele><time>2026-04-28T15:24:22.79Z</time></trkpt><trkpt lat="38.0304063" lon="13.3189921"><ele>720.0</ele><time>2026-04-28T15:24:23.794Z</time></trkpt><trkpt lat="38.0303731" lon="13.318839"><ele>720.0</ele><time>2026-04-28T15:24:24.789Z</time></trkpt><trkpt lat="38.030341" lon="13.3187072"><ele>720.0</ele><time>2026-04-28T15:24:25.79Z</time></trkpt><trkpt lat="38.0303048" lon="13.3185867"><ele>721.25</ele><time>2026-04-28T15:24:26.796Z</time></trkpt><trkpt lat="38.030258" lon="13.3184736"><ele>722.5</ele><time>2026-04-28T15:24:27.79Z</time></trkpt><trkpt lat="38.0301853" lon="13.3183742"><ele>723.75</ele><time>2026-04-28T15:24:28.792Z</time></trkpt><trkpt lat="38.0300829" lon="13.3182855"><ele>725.0</ele><time>2026-04-28T15:24:29.791Z</time></trkpt><trkpt lat="38.0299584" lon="13.3181986"><ele>725.0</ele><time>2026-04-28T15:24:30.789Z</time></trkpt><trkpt lat="38.0298177" lon="13.3181052"><ele>725.0</ele><time>2026-04-28T15:24:31.791Z</time></trkpt><trkpt lat="38.0296677" lon="13.3179962"><ele>725.0</ele><time>2026-04-28T15:24:32.79Z</time></trkpt><trkpt lat="38.0295189" lon="13.3178795"><ele>723.6666666666666</ele><time>2026-04-28T15:24:33.804Z</time></trkpt><trkpt lat="38.0293796" lon="13.3177592"><ele>722.3333333333334</ele><time>2026-04-28T15:24:34.795Z</time></trkpt><trkpt lat="38.0292516" lon="13.3176331"><ele>721.0</ele><time>2026-04-28T15:24:35.793Z</time></trkpt><trkpt lat="38.0291265" lon="13.3174923"><ele>721.0</ele><time>2026-04-28T15:24:36.792Z</time></trkpt><trkpt lat="38.0290017" lon="13.3173337"><ele>721.0</ele><time>2026-04-28T15:24:37.794Z</time></trkpt><trkpt lat="38.0288889" lon="13.3171492"><ele>721.0</ele><time>2026-04-28T15:24:38.794Z</time></trkpt><trkpt lat="38.0287746" lon="13.316952"><ele>726.6666666666667</ele><time>2026-04-28T15:24:39.793Z</time></trkpt><trkpt lat="38.028652" lon="13.3167572"><ele>732.3333333333334</ele><time>2026-04-28T15:24:40.793Z</time></trkpt><trkpt lat="38.0285204" lon="13.3165715"><ele>738.0</ele><time>2026-04-28T15:24:41.795Z</time></trkpt><trkpt lat="38.0283802" lon="13.3163998"><ele>740.0</ele><time>2026-04-28T15:24:42.791Z</time></trkpt><trkpt lat="38.028233" lon="13.316239"><ele>742.0</ele><time>2026-04-28T15:24:43.793Z</time></trkpt><trkpt lat="38.0280894" lon="13.316074"><ele>744.0</ele><time>2026-04-28T15:24:44.794Z</time></trkpt><trkpt lat="38.0279636" lon="13.3159002"><ele>744.0</ele><time>2026-04-28T15:24:45.796Z</time></trkpt><trkpt lat="38.0278707" lon="13.3157218"><ele>744.0</ele><time>2026-04-28T15:24:46.796Z</time></trkpt><trkpt lat="38.0278037" lon="13.3155514"><ele>744.0</ele><time>2026-04-28T15:24:47.79Z</time></trkpt><trkpt lat="38.0277455" lon="13.3153947"><ele>752.75</ele><time>2026-04-28T15:24:48.794Z</time></trkpt><trkpt lat="38.0276647" lon="13.3152858"><ele>761.5</ele><time>2026-04-28T15:24:49.794Z</time></trkpt><trkpt lat="38.0275561" lon="13.3152191"><ele>770.25</ele><time>2026-04-28T15:24:50.797Z</time></trkpt><trkpt lat="38.027427" lon="13.3152071"><ele>779.0</ele><time>2026-04-28T15:24:51.79Z</time></trkpt><trkpt lat="38.0272749" lon="13.3152408"><ele>780.3333333333334</ele><time>2026-04-28T15:24:52.79Z</time></trkpt><trkpt lat="38.027107" lon="13.3152807"><ele>781.6666666666667</ele><time>2026-04-28T15:24:53.796Z</time></trkpt><trkpt lat="38.0269233" lon="13.3153097"><ele>783.0</ele><time>2026-04-28T15:24:54.796Z</time></trkpt><trkpt lat="38.0267258" lon="13.3153176"><ele>779.6666666666667</ele><time>2026-04-28T15:24:55.796Z</time></trkpt><trkpt lat="38.026533" lon="13.3153229"><ele>776.3333333333334</ele><time>2026-04-28T15:24:56.799Z</time></trkpt><trkpt lat="38.0263343" lon="13.3153189"><ele>773.0</ele><time>2026-04-28T15:24:57.793Z</time></trkpt><trkpt lat="38.0261313" lon="13.3153153"><ele>773.0</ele><time>2026-04-28T15:24:58.791Z</time></trkpt><trkpt lat="38.0259249" lon="13.3153043"><ele>773.0</ele><time>2026-04-28T15:24:59.795Z</time></trkpt><trkpt lat="38.0257146" lon="13.3152866"><ele>773.0</ele><time>2026-04-28T15:25:00.795Z</time></trkpt><trkpt lat="38.0255014" lon="13.3152694"><ele>771.3333333333334</ele><time>2026-04-28T15:25:01.794Z</time></trkpt><trkpt lat="38.0252835" lon="13.3152501"><ele>769.6666666666667</ele><time>2026-04-28T15:25:02.798Z</time></trkpt><trkpt lat="38.0250634" lon="13.3152231"><ele>768.0</ele><time>2026-04-28T15:25:03.795Z</time></trkpt><trkpt lat="38.0248445" lon="13.3151824"><ele>764.0</ele><time>2026-04-28T15:25:04.796Z</time></trkpt><trkpt lat="38.0246243" lon="13.3151316"><ele>760.0</ele><time>2026-04-28T15:25:05.796Z</time></trkpt><trkpt lat="38.0244045" lon="13.3150738"><ele>756.0</ele><time>2026-04-28T15:25:06.8Z</time></trkpt><trkpt lat="38.0241855" lon="13.3150122"><ele>754.0</ele><time>2026-04-28T15:25:07.798Z</time></trkpt><trkpt lat="38.0239683" lon="13.3149451"><ele>752.0</ele><time>2026-04-28T15:25:08.798Z</time></trkpt><trkpt lat="38.0237564" lon="13.314892"><ele>750.0</ele><time>2026-04-28T15:25:09.797Z</time></trkpt><trkpt lat="38.0235574" lon="13.3148677"><ele>750.0</ele><time>2026-04-28T15:25:10.796Z</time></trkpt><trkpt lat="38.023371" lon="13.3148789"><ele>750.0</ele><time>2026-04-28T15:25:11.792Z</time></trkpt><trkpt lat="38.0231891" lon="13.3149082"><ele>750.0</ele><time>2026-04-28T15:25:12.793Z</time></trkpt><trkpt lat="38.0230032" lon="13.3149301"><ele>753.0</ele><time>2026-04-28T15:25:13.792Z</time></trkpt><trkpt lat="38.0228149" lon="13.3149556"><ele>756.0</ele><time>2026-04-28T15:25:14.795Z</time></trkpt><trkpt lat="38.0226222" lon="13.3149883"><ele>759.0</ele><time>2026-04-28T15:25:15.794Z</time></trkpt><trkpt lat="38.0224287" lon="13.3150276"><ele>761.6666666666666</ele><time>2026-04-28T15:25:16.798Z</time></trkpt><trkpt lat="38.0222347" lon="13.3150845"><ele>764.3333333333333</ele><time>2026-04-28T15:25:17.797Z</time></trkpt><trkpt lat="38.0220406" lon="13.3151662"><ele>767.0</ele><time>2026-04-28T15:25:18.793Z</time></trkpt><trkpt lat="38.0218479" lon="13.3152592"><ele>767.0</ele><time>2026-04-28T15:25:19.792Z</time></trkpt><trkpt lat="38.0216559" lon="13.3153467"><ele>767.0</ele><time>2026-04-28T15:25:20.798Z</time></trkpt><trkpt lat="38.021464" lon="13.3154151"><ele>767.0</ele><time>2026-04-28T15:25:21.79Z</time></trkpt><trkpt lat="38.0212734" lon="13.3154623"><ele>765.3333333333333</ele><time>2026-04-28T15:25:22.789Z</time></trkpt><trkpt lat="38.0210861" lon="13.3154888"><ele>763.6666666666666</ele><time>2026-04-28T15:25:23.801Z</time></trkpt><trkpt lat="38.0208996" lon="13.3155045"><ele>762.0</ele><time>2026-04-28T15:25:24.794Z</time></trkpt><trkpt lat="38.0207212" lon="13.3155077"><ele>760.0</ele><time>2026-04-28T15:25:25.8Z</time></trkpt><trkpt lat="38.0205484" lon="13.315497"><ele>758.0</ele><time>2026-04-28T15:25:26.796Z</time></trkpt><trkpt lat="38.020385" lon="13.315467"><ele>756.0</ele><time>2026-04-28T15:25:27.799Z</time></trkpt><trkpt lat="38.0202389" lon="13.3154067"><ele>756.0</ele><time>2026-04-28T15:25:28.798Z</time></trkpt><trkpt lat="38.0201132" lon="13.3153143"><ele>756.0</ele><time>2026-04-28T15:25:29.801Z</time></trkpt><trkpt lat="38.0200234" lon="13.3151878"><ele>756.0</ele><time>2026-04-28T15:25:30.795Z</time></trkpt><trkpt lat="38.0199666" lon="13.3150364"><ele>756.0</ele><time>2026-04-28T15:25:31.799Z</time></trkpt><trkpt lat="38.019953" lon="13.3148685"><ele>756.25</ele><time>2026-04-28T15:25:32.802Z</time></trkpt><trkpt lat="38.019987" lon="13.314694"><ele>756.5</ele><time>2026-04-28T15:25:33.8Z</time></trkpt><trkpt lat="38.0200677" lon="13.3145321"><ele>756.75</ele><time>2026-04-28T15:25:34.798Z</time></trkpt><trkpt lat="38.0201766" lon="13.3143893"><ele>757.0</ele><time>2026-04-28T15:25:35.792Z</time></trkpt><trkpt lat="38.0203093" lon="13.314247"><ele>757.0</ele><time>2026-04-28T15:25:36.796Z</time></trkpt><trkpt lat="38.0204223" lon="13.3141007"><ele>757.0</ele><time>2026-04-28T15:25:37.793Z</time></trkpt><trkpt lat="38.0205128" lon="13.3139552"><ele>757.0</ele><time>2026-04-28T15:25:38.799Z</time></trkpt><trkpt lat="38.0205863" lon="13.3138191"><ele>757.0</ele><time>2026-04-28T15:25:39.795Z</time></trkpt><trkpt lat="38.0206552" lon="13.3136856"><ele>757.25</ele><time>2026-04-28T15:25:40.798Z</time></trkpt><trkpt lat="38.0207222" lon="13.3135495"><ele>757.5</ele><time>2026-04-28T15:25:41.793Z</time></trkpt><trkpt lat="38.0207829" lon="13.313406"><ele>757.75</ele><time>2026-04-28T15:25:42.794Z</time></trkpt><trkpt lat="38.0208312" lon="13.3132496"><ele>758.0</ele><time>2026-04-28T15:25:43.801Z</time></trkpt><trkpt lat="38.0208587" lon="13.3130767"><ele>756.5</ele><time>2026-04-28T15:25:44.794Z</time></trkpt><trkpt lat="38.0208649" lon="13.3128958"><ele>755.0</ele><time>2026-04-28T15:25:45.8Z</time></trkpt><trkpt lat="38.0208583" lon="13.3127113"><ele>753.5</ele><time>2026-04-28T15:25:46.8Z</time></trkpt><trkpt lat="38.0208503" lon="13.3125302"><ele>752.0</ele><time>2026-04-28T15:25:47.8Z</time></trkpt><trkpt lat="38.0208459" lon="13.3123584"><ele>751.5</ele><time>2026-04-28T15:25:48.799Z</time></trkpt><trkpt lat="38.0208329" lon="13.3121961"><ele>751.0</ele><time>2026-04-28T15:25:49.793Z</time></trkpt><trkpt lat="38.0208056" lon="13.3120488"><ele>750.5</ele><time>2026-04-28T15:25:50.793Z</time></trkpt><trkpt lat="38.0207471" lon="13.3119203"><ele>750.0</ele><time>2026-04-28T15:25:51.797Z</time></trkpt><trkpt lat="38.0206538" lon="13.3118168"><ele>751.0</ele><time>2026-04-28T15:25:52.798Z</time></trkpt><trkpt lat="38.0205309" lon="13.3117306"><ele>752.0</ele><time>2026-04-28T15:25:53.803Z</time></trkpt><trkpt lat="38.0203939" lon="13.3116515"><ele>753.0</ele><time>2026-04-28T15:25:54.796Z</time></trkpt><trkpt lat="38.0202642" lon="13.311562"><ele>754.0</ele><time>2026-04-28T15:25:55.797Z</time></trkpt><trkpt lat="38.0201469" lon="13.3114488"><ele>754.0</ele><time>2026-04-28T15:25:56.803Z</time></trkpt><trkpt lat="38.0200429" lon="13.3113129"><ele>754.0</ele><time>2026-04-28T15:25:57.792Z</time></trkpt><trkpt lat="38.0199543" lon="13.3111584"><ele>754.0</ele><time>2026-04-28T15:25:58.801Z</time></trkpt><trkpt lat="38.0198727" lon="13.3109899"><ele>756.0</ele><time>2026-04-28T15:25:59.792Z</time></trkpt><trkpt lat="38.0197822" lon="13.3108237"><ele>758.0</ele><time>2026-04-28T15:26:00.797Z</time></trkpt><trkpt lat="38.0196855" lon="13.3106664"><ele>760.0</ele><time>2026-04-28T15:26:01.794Z</time></trkpt><trkpt lat="38.0195824" lon="13.3105124"><ele>755.3333333333334</ele><time>2026-04-28T15:26:02.795Z</time></trkpt><trkpt lat="38.0194669" lon="13.3103726"><ele>750.6666666666666</ele><time>2026-04-28T15:26:03.803Z</time></trkpt><trkpt lat="38.0193316" lon="13.3102461"><ele>746.0</ele><time>2026-04-28T15:26:04.797Z</time></trkpt><trkpt lat="38.0191848" lon="13.3101236"><ele>745.3333333333333</ele><time>2026-04-28T15:26:05.798Z</time></trkpt><trkpt lat="38.0190305" lon="13.3099927"><ele>744.6666666666666</ele><time>2026-04-28T15:26:06.799Z</time></trkpt><trkpt lat="38.0188694" lon="13.309854"><ele>744.0</ele><time>2026-04-28T15:26:07.797Z</time></trkpt><trkpt lat="38.018712" lon="13.3097285"><ele>744.0</ele><time>2026-04-28T15:26:08.8Z</time></trkpt><trkpt lat="38.0185612" lon="13.3096288"><ele>744.0</ele><time>2026-04-28T15:26:09.796Z</time></trkpt><trkpt lat="38.0184212" lon="13.3095558"><ele>744.0</ele><time>2026-04-28T15:26:10.803Z</time></trkpt><trkpt lat="38.0182866" lon="13.309501"><ele>744.0</ele><time>2026-04-28T15:26:11.792Z</time></trkpt><trkpt lat="38.0181645" lon="13.309453"><ele>744.0</ele><time>2026-04-28T15:26:12.795Z</time></trkpt><trkpt lat="38.0180446" lon="13.3094143"><ele>744.0</ele><time>2026-04-28T15:26:13.792Z</time></trkpt><trkpt lat="38.0179032" lon="13.3093723"><ele>744.0</ele><time>2026-04-28T15:26:14.799Z</time></trkpt><trkpt lat="38.017742" lon="13.3093231"><ele>744.0</ele><time>2026-04-28T15:26:15.795Z</time></trkpt><trkpt lat="38.0175689" lon="13.3092735"><ele>744.0</ele><time>2026-04-28T15:26:16.799Z</time></trkpt><trkpt lat="38.0173839" lon="13.3092401"><ele>744.0</ele><time>2026-04-28T15:26:17.798Z</time></trkpt><trkpt lat="38.0171878" lon="13.3092208"><ele>743.3333333333334</ele><time>2026-04-28T15:26:18.802Z</time></trkpt><trkpt lat="38.0169814" lon="13.3092049"><ele>742.6666666666667</ele><time>2026-04-28T15:26:19.799Z</time></trkpt><trkpt lat="38.0167705" lon="13.3091868"><ele>742.0</ele><time>2026-04-28T15:26:20.797Z</time></trkpt><trkpt lat="38.0165548" lon="13.3091681"><ele>742.0</ele><time>2026-04-28T15:26:21.8Z</time></trkpt><trkpt lat="38.016335" lon="13.3091449"><ele>742.0</ele><time>2026-04-28T15:26:22.798Z</time></trkpt><trkpt lat="38.0161145" lon="13.3091164"><ele>742.0</ele><time>2026-04-28T15:26:23.801Z</time></trkpt><trkpt lat="38.0158972" lon="13.3090804"><ele>741.6666666666667</ele><time>2026-04-28T15:26:24.798Z</time></trkpt><trkpt lat="38.0156823" lon="13.3090311"><ele>741.3333333333334</ele><time>2026-04-28T15:26:25.799Z</time></trkpt><trkpt lat="38.0154712" lon="13.3089675"><ele>741.0</ele><time>2026-04-28T15:26:26.795Z</time></trkpt><trkpt lat="38.0152634" lon="13.3088927"><ele>741.0</ele><time>2026-04-28T15:26:27.8Z</time></trkpt><trkpt lat="38.0150678" lon="13.3088064"><ele>741.0</ele><time>2026-04-28T15:26:28.793Z</time></trkpt><trkpt lat="38.0148847" lon="13.3087013"><ele>741.0</ele><time>2026-04-28T15:26:29.796Z</time></trkpt><trkpt lat="38.0147087" lon="13.3085722"><ele>740.0</ele><time>2026-04-28T15:26:30.798Z</time></trkpt><trkpt lat="38.0145478" lon="13.3084013"><ele>739.0</ele><time>2026-04-28T15:26:31.796Z</time></trkpt><trkpt lat="38.0143877" lon="13.3082047"><ele>738.0</ele><time>2026-04-28T15:26:32.794Z</time></trkpt><trkpt lat="38.0142299" lon="13.3079943"><ele>733.5</ele><time>2026-04-28T15:26:33.795Z</time></trkpt><trkpt lat="38.0140626" lon="13.3077843"><ele>729.0</ele><time>2026-04-28T15:26:34.798Z</time></trkpt><trkpt lat="38.0138915" lon="13.3075796"><ele>729.0</ele><time>2026-04-28T15:26:35.799Z</time></trkpt><trkpt lat="38.013715" lon="13.3073834"><ele>729.0</ele><time>2026-04-28T15:26:36.8Z</time></trkpt><trkpt lat="38.0135326" lon="13.3072028"><ele>727.6666666666666</ele><time>2026-04-28T15:26:37.792Z</time></trkpt><trkpt lat="38.0133505" lon="13.3070311"><ele>726.3333333333333</ele><time>2026-04-28T15:26:38.789Z</time></trkpt><trkpt lat="38.0131795" lon="13.3068554"><ele>725.0</ele><time>2026-04-28T15:26:39.797Z</time></trkpt><trkpt lat="38.0130238" lon="13.3066663"><ele>724.0</ele><time>2026-04-28T15:26:40.797Z</time></trkpt><trkpt lat="38.0128781" lon="13.3064785"><ele>723.0</ele><time>2026-04-28T15:26:41.797Z</time></trkpt><trkpt lat="38.01275" lon="13.3062876"><ele>722.0</ele><time>2026-04-28T15:26:42.796Z</time></trkpt><trkpt lat="38.0126266" lon="13.3060975"><ele>722.3333333333333</ele><time>2026-04-28T15:26:43.8Z</time></trkpt><trkpt lat="38.012518" lon="13.3059032"><ele>722.6666666666666</ele><time>2026-04-28T15:26:44.799Z</time></trkpt><trkpt lat="38.0124287" lon="13.3056836"><ele>723.0</ele><time>2026-04-28T15:26:45.798Z</time></trkpt><trkpt lat="38.0123526" lon="13.3054424"><ele>723.0</ele><time>2026-04-28T15:26:46.8Z</time></trkpt><trkpt lat="38.0122807" lon="13.3051846"><ele>723.0</ele><time>2026-04-28T15:26:47.797Z</time></trkpt><trkpt lat="38.0122074" lon="13.3049275"><ele>723.0</ele><time>2026-04-28T15:26:48.791Z</time></trkpt><trkpt lat="38.0121289" lon="13.3046738"><ele>721.0</ele><time>2026-04-28T15:26:49.795Z</time></trkpt><trkpt lat="38.0120491" lon="13.3044276"><ele>719.0</ele><time>2026-04-28T15:26:50.794Z</time></trkpt><trkpt lat="38.0119682" lon="13.304184"><ele>717.0</ele><time>2026-04-28T15:26:51.799Z</time></trkpt><trkpt lat="38.0118756" lon="13.3039572"><ele>716.6666666666666</ele><time>2026-04-28T15:26:52.799Z</time></trkpt><trkpt lat="38.0117549" lon="13.30375"><ele>716.3333333333333</ele><time>2026-04-28T15:26:53.8Z</time></trkpt><trkpt lat="38.0116084" lon="13.3035555"><ele>716.0</ele><time>2026-04-28T15:26:54.796Z</time></trkpt><trkpt lat="38.0114435" lon="13.3033684"><ele>712.5</ele><time>2026-04-28T15:26:55.795Z</time></trkpt><trkpt lat="38.0112668" lon="13.3031799"><ele>709.0</ele><time>2026-04-28T15:26:56.794Z</time></trkpt><trkpt lat="38.0110912" lon="13.3029994"><ele>708.3333333333334</ele><time>2026-04-28T15:26:57.795Z</time></trkpt><trkpt lat="38.0109072" lon="13.3028343"><ele>707.6666666666666</ele><time>2026-04-28T15:26:58.798Z</time></trkpt><trkpt lat="38.0107181" lon="13.3026866"><ele>707.0</ele><time>2026-04-28T15:26:59.799Z</time></trkpt><trkpt lat="38.0105379" lon="13.3025486"><ele>707.0</ele><time>2026-04-28T15:27:00.795Z</time></trkpt><trkpt lat="38.010371" lon="13.3024101"><ele>707.0</ele><time>2026-04-28T15:27:01.796Z</time></trkpt><trkpt lat="38.0102099" lon="13.302284"><ele>707.0</ele><time>2026-04-28T15:27:02.794Z</time></trkpt><trkpt lat="38.0100578" lon="13.3021766"><ele>706.3333333333333</ele><time>2026-04-28T15:27:03.799Z</time></trkpt><trkpt lat="38.0099131" lon="13.3020898"><ele>705.6666666666666</ele><time>2026-04-28T15:27:04.799Z</time></trkpt><trkpt lat="38.0097711" lon="13.3020213"><ele>705.0</ele><time>2026-04-28T15:27:05.799Z</time></trkpt><trkpt lat="38.0096237" lon="13.3019909"><ele>705.0</ele><time>2026-04-28T15:27:06.799Z</time></trkpt><trkpt lat="38.0094752" lon="13.3020072"><ele>705.0</ele><time>2026-04-28T15:27:07.795Z</time></trkpt><trkpt lat="38.0093226" lon="13.3020512"><ele>705.0</ele><time>2026-04-28T15:27:08.799Z</time></trkpt><trkpt lat="38.0091802" lon="13.3020688"><ele>705.0</ele><time>2026-04-28T15:27:09.799Z</time></trkpt><trkpt lat="38.0090561" lon="13.3020708"><ele>704.6666666666666</ele><time>2026-04-28T15:27:10.8Z</time></trkpt><trkpt lat="38.0089508" lon="13.3020711"><ele>704.3333333333334</ele><time>2026-04-28T15:27:11.793Z</time></trkpt><trkpt lat="38.0088653" lon="13.3020882"><ele>704.0</ele><time>2026-04-28T15:27:12.798Z</time></trkpt><trkpt lat="38.0087945" lon="13.3021291"><ele>703.6666666666667</ele><time>2026-04-28T15:27:13.795Z</time></trkpt><trkpt lat="38.0087398" lon="13.3022032"><ele>703.3333333333334</ele><time>2026-04-28T15:27:14.797Z</time></trkpt><trkpt lat="38.0087005" lon="13.3023006"><ele>703.0</ele><time>2026-04-28T15:27:15.795Z</time></trkpt><trkpt lat="38.0086826" lon="13.3024228"><ele>704.5999999999999</ele><time>2026-04-28T15:27:16.795Z</time></trkpt><trkpt lat="38.0086912" lon="13.3025401"><ele>706.1999999999999</ele><time>2026-04-28T15:27:17.793Z</time></trkpt><trkpt lat="38.0087169" lon="13.3026657"><ele>707.8</ele><time>2026-04-28T15:27:18.792Z</time></trkpt><trkpt lat="38.0087486" lon="13.3028024"><ele>709.4</ele><time>2026-04-28T15:27:19.796Z</time></trkpt><trkpt lat="38.0087769" lon="13.3029441"><ele>711.0</ele><time>2026-04-28T15:27:20.796Z</time></trkpt><trkpt lat="38.0088031" lon="13.3030907"><ele>712.5</ele><time>2026-04-28T15:27:21.796Z</time></trkpt><trkpt lat="38.0088257" lon="13.3032488"><ele>714.0</ele><time>2026-04-28T15:27:22.795Z</time></trkpt><trkpt lat="38.008841" lon="13.3034149"><ele>715.5</ele><time>2026-04-28T15:27:23.801Z</time></trkpt><trkpt lat="38.0088391" lon="13.3035865"><ele>717.0</ele><time>2026-04-28T15:27:24.801Z</time></trkpt><trkpt lat="38.0088163" lon="13.3037608"><ele>716.75</ele><time>2026-04-28T15:27:25.801Z</time></trkpt><trkpt lat="38.0087674" lon="13.3039301"><ele>716.5</ele><time>2026-04-28T15:27:26.792Z</time></trkpt><trkpt lat="38.0086909" lon="13.3040883"><ele>716.25</ele><time>2026-04-28T15:27:27.802Z</time></trkpt><trkpt lat="38.0085923" lon="13.3042257"><ele>716.0</ele><time>2026-04-28T15:27:28.794Z</time></trkpt><trkpt lat="38.0084756" lon="13.3043429"><ele>716.0</ele><time>2026-04-28T15:27:29.8Z</time></trkpt><trkpt lat="38.0083423" lon="13.3044398"><ele>716.0</ele><time>2026-04-28T15:27:30.793Z</time></trkpt><trkpt lat="38.0081966" lon="13.304516"><ele>716.0</ele><time>2026-04-28T15:27:31.799Z</time></trkpt><trkpt lat="38.0080381" lon="13.3045654"><ele>715.3333333333333</ele><time>2026-04-28T15:27:32.795Z</time></trkpt><trkpt lat="38.0078672" lon="13.3045777"><ele>714.6666666666666</ele><time>2026-04-28T15:27:33.798Z</time></trkpt><trkpt lat="38.0076883" lon="13.304547"><ele>714.0</ele><time>2026-04-28T15:27:34.801Z</time></trkpt><trkpt lat="38.0075091" lon="13.3044746"><ele>713.0</ele><time>2026-04-28T15:27:35.802Z</time></trkpt><trkpt lat="38.0073378" lon="13.304364"><ele>712.0</ele><time>2026-04-28T15:27:36.797Z</time></trkpt><trkpt lat="38.0071686" lon="13.3042299"><ele>711.0</ele><time>2026-04-28T15:27:37.798Z</time></trkpt><trkpt lat="38.0070001" lon="13.3040993"><ele>711.0</ele><time>2026-04-28T15:27:38.799Z</time></trkpt><trkpt lat="38.0068216" lon="13.3039859"><ele>711.0</ele><time>2026-04-28T15:27:39.798Z</time></trkpt><trkpt lat="38.0066338" lon="13.3038827"><ele>711.0</ele><time>2026-04-28T15:27:40.801Z</time></trkpt><trkpt lat="38.0064403" lon="13.303789"><ele>710.6666666666666</ele><time>2026-04-28T15:27:41.794Z</time></trkpt><trkpt lat="38.0062424" lon="13.3037074"><ele>710.3333333333333</ele><time>2026-04-28T15:27:42.799Z</time></trkpt><trkpt lat="38.0060403" lon="13.3036237"><ele>710.0</ele><time>2026-04-28T15:27:43.795Z</time></trkpt><trkpt lat="38.0058328" lon="13.3035397"><ele>708.3333333333333</ele><time>2026-04-28T15:27:44.792Z</time></trkpt><trkpt lat="38.0056236" lon="13.3034579"><ele>706.6666666666666</ele><time>2026-04-28T15:27:45.796Z</time></trkpt><trkpt lat="38.0054133" lon="13.3033725"><ele>705.0</ele><time>2026-04-28T15:27:46.794Z</time></trkpt><trkpt lat="38.0052065" lon="13.3032796"><ele>705.0</ele><time>2026-04-28T15:27:47.799Z</time></trkpt><trkpt lat="38.0050105" lon="13.303173"><ele>705.0</ele><time>2026-04-28T15:27:48.789Z</time></trkpt><trkpt lat="38.0048283" lon="13.3030535"><ele>705.0</ele><time>2026-04-28T15:27:49.794Z</time></trkpt><trkpt lat="38.0046503" lon="13.3029197"><ele>700.6666666666666</ele><time>2026-04-28T15:27:50.794Z</time></trkpt><trkpt lat="38.0044753" lon="13.3027833"><ele>696.3333333333333</ele><time>2026-04-28T15:27:51.799Z</time></trkpt><trkpt lat="38.0043015" lon="13.3026472"><ele>692.0</ele><time>2026-04-28T15:27:52.799Z</time></trkpt><trkpt lat="38.0041284" lon="13.3025081"><ele>690.6666666666666</ele><time>2026-04-28T15:27:53.793Z</time></trkpt><trkpt lat="38.00396" lon="13.3023732"><ele>689.3333333333334</ele><time>2026-04-28T15:27:54.796Z</time></trkpt><trkpt lat="38.0037934" lon="13.3022406"><ele>688.0</ele><time>2026-04-28T15:27:55.793Z</time></trkpt><trkpt lat="38.0036306" lon="13.302111"><ele>688.0</ele><time>2026-04-28T15:27:56.795Z</time></trkpt><trkpt lat="38.0034703" lon="13.3019842"><ele>688.0</ele><time>2026-04-28T15:27:57.794Z</time></trkpt><trkpt lat="38.0033113" lon="13.3018617"><ele>688.0</ele><time>2026-04-28T15:27:58.798Z</time></trkpt><trkpt lat="38.0031535" lon="13.3017422"><ele>687.6666666666667</ele><time>2026-04-28T15:27:59.796Z</time></trkpt><trkpt lat="38.0029962" lon="13.3016261"><ele>687.3333333333334</ele><time>2026-04-28T15:28:00.796Z</time></trkpt><trkpt lat="38.0028373" lon="13.3015126"><ele>687.0</ele><time>2026-04-28T15:28:01.8Z</time></trkpt><trkpt lat="38.0026871" lon="13.3014038"><ele>687.0</ele><time>2026-04-28T15:28:02.798Z</time></trkpt><trkpt lat="38.0025419" lon="13.3012972"><ele>687.0</ele><time>2026-04-28T15:28:03.795Z</time></trkpt><trkpt lat="38.0023998" lon="13.3012026"><ele>687.0</ele><time>2026-04-28T15:28:04.8Z</time></trkpt><trkpt lat="38.002256" lon="13.3011256"><ele>689.0</ele><time>2026-04-28T15:28:05.798Z</time></trkpt><trkpt lat="38.0021126" lon="13.301072"><ele>691.0</ele><time>2026-04-28T15:28:06.8Z</time></trkpt><trkpt lat="38.0019639" lon="13.3010479"><ele>693.0</ele><time>2026-04-28T15:28:07.798Z</time></trkpt><trkpt lat="38.0018139" lon="13.301064"><ele>696.0</ele><time>2026-04-28T15:28:08.796Z</time></trkpt><trkpt lat="38.0016596" lon="13.3011222"><ele>699.0</ele><time>2026-04-28T15:28:09.799Z</time></trkpt><trkpt lat="38.001503" lon="13.3011942"><ele>702.0</ele><time>2026-04-28T15:28:10.793Z</time></trkpt><trkpt lat="38.0013441" lon="13.3012798"><ele>702.0</ele><time>2026-04-28T15:28:11.801Z</time></trkpt><trkpt lat="38.0011829" lon="13.3013672"><ele>702.0</ele><time>2026-04-28T15:28:12.795Z</time></trkpt><trkpt lat="38.0010224" lon="13.3014427"><ele>702.0</ele><time>2026-04-28T15:28:13.8Z</time></trkpt><trkpt lat="38.0008594" lon="13.3015"><ele>696.0</ele><time>2026-04-28T15:28:14.806Z</time></trkpt><trkpt lat="38.0006943" lon="13.3015237"><ele>690.0</ele><time>2026-04-28T15:28:15.795Z</time></trkpt><trkpt lat="38.0005297" lon="13.3015072"><ele>684.0</ele><time>2026-04-28T15:28:16.799Z</time></trkpt><trkpt lat="38.0003681" lon="13.3014459"><ele>687.6666666666666</ele><time>2026-04-28T15:28:17.797Z</time></trkpt><trkpt lat="38.0002194" lon="13.3013502"><ele>691.3333333333333</ele><time>2026-04-28T15:28:18.802Z</time></trkpt><trkpt lat="38.0000697" lon="13.3012443"><ele>695.0</ele><time>2026-04-28T15:28:19.794Z</time></trkpt><trkpt lat="37.9999192" lon="13.3011524"><ele>695.0</ele><time>2026-04-28T15:28:20.795Z</time></trkpt><trkpt lat="37.999761" lon="13.3010928"><ele>695.0</ele><time>2026-04-28T15:28:21.79Z</time></trkpt><trkpt lat="37.9995972" lon="13.301078"><ele>695.0</ele><time>2026-04-28T15:28:22.794Z</time></trkpt><trkpt lat="37.9994194" lon="13.3011067"><ele>695.0</ele><time>2026-04-28T15:28:23.792Z</time></trkpt><trkpt lat="37.9992284" lon="13.3011336"><ele>695.0</ele><time>2026-04-28T15:28:24.794Z</time></trkpt><trkpt lat="37.999023" lon="13.3011527"><ele>695.0</ele><time>2026-04-28T15:28:25.797Z</time></trkpt><trkpt lat="37.9988135" lon="13.3011726"><ele>691.0</ele><time>2026-04-28T15:28:26.794Z</time></trkpt><trkpt lat="37.9985999" lon="13.3012005"><ele>687.0</ele><time>2026-04-28T15:28:27.793Z</time></trkpt><trkpt lat="37.9983844" lon="13.3012244"><ele>683.0</ele><time>2026-04-28T15:28:28.798Z</time></trkpt><trkpt lat="37.9981682" lon="13.3012487"><ele>678.6666666666666</ele><time>2026-04-28T15:28:29.792Z</time></trkpt><trkpt lat="37.997961" lon="13.3012722"><ele>674.3333333333334</ele><time>2026-04-28T15:28:30.8Z</time></trkpt><trkpt lat="37.9977601" lon="13.3012969"><ele>670.0</ele><time>2026-04-28T15:28:31.798Z</time></trkpt><trkpt lat="37.9975681" lon="13.3013216"><ele>670.6666666666667</ele><time>2026-04-28T15:28:32.796Z</time></trkpt><trkpt lat="37.9973815" lon="13.3013505"><ele>671.3333333333334</ele><time>2026-04-28T15:28:33.799Z</time></trkpt><trkpt lat="37.9972" lon="13.3013866"><ele>672.0</ele><time>2026-04-28T15:28:34.795Z</time></trkpt><trkpt lat="37.9970231" lon="13.301437"><ele>666.6666666666666</ele><time>2026-04-28T15:28:35.806Z</time></trkpt><trkpt lat="37.9968481" lon="13.3014947"><ele>661.3333333333333</ele><time>2026-04-28T15:28:36.801Z</time></trkpt><trkpt lat="37.9966711" lon="13.3015502"><ele>656.0</ele><time>2026-04-28T15:28:37.798Z</time></trkpt><trkpt lat="37.9964904" lon="13.3015908"><ele>654.3333333333333</ele><time>2026-04-28T15:28:38.798Z</time></trkpt><trkpt lat="37.9963076" lon="13.3016144"><ele>652.6666666666666</ele><time>2026-04-28T15:28:39.801Z</time></trkpt><trkpt lat="37.9961265" lon="13.3016113"><ele>651.0</ele><time>2026-04-28T15:28:40.795Z</time></trkpt><trkpt lat="37.9959438" lon="13.3015766"><ele>647.0</ele><time>2026-04-28T15:28:41.8Z</time></trkpt><trkpt lat="37.9957634" lon="13.3015016"><ele>643.0</ele><time>2026-04-28T15:28:42.801Z</time></trkpt><trkpt lat="37.9955863" lon="13.3013884"><ele>639.0</ele><time>2026-04-28T15:28:43.794Z</time></trkpt><trkpt lat="37.9954323" lon="13.3012399"><ele>639.0</ele><time>2026-04-28T15:28:44.802Z</time></trkpt><trkpt lat="37.9953015" lon="13.3010632"><ele>639.0</ele><time>2026-04-28T15:28:45.8Z</time></trkpt><trkpt lat="37.9951877" lon="13.3008793"><ele>639.0</ele><time>2026-04-28T15:28:46.799Z</time></trkpt><trkpt lat="37.9950675" lon="13.3007165"><ele>640.0</ele><time>2026-04-28T15:28:47.796Z</time></trkpt><trkpt lat="37.9949378" lon="13.3005981"><ele>641.0</ele><time>2026-04-28T15:28:48.799Z</time></trkpt><trkpt lat="37.9947885" lon="13.3005315"><ele>642.0</ele><time>2026-04-28T15:28:49.797Z</time></trkpt><trkpt lat="37.9946231" lon="13.300514"><ele>642.0</ele><time>2026-04-28T15:28:50.796Z</time></trkpt><trkpt lat="37.9944424" lon="13.3005245"><ele>642.0</ele><time>2026-04-28T15:28:51.8Z</time></trkpt><trkpt lat="37.9942544" lon="13.3005538"><ele>642.0</ele><time>2026-04-28T15:28:52.795Z</time></trkpt><trkpt lat="37.9940686" lon="13.3005653"><ele>643.3333333333334</ele><time>2026-04-28T15:28:53.802Z</time></trkpt><trkpt lat="37.9938864" lon="13.3005684"><ele>644.6666666666667</ele><time>2026-04-28T15:28:54.798Z</time></trkpt><trkpt lat="37.9937071" lon="13.30057"><ele>646.0</ele><time>2026-04-28T15:28:55.796Z</time></trkpt><trkpt lat="37.9935416" lon="13.300557"><ele>646.0</ele><time>2026-04-28T15:28:56.794Z</time></trkpt><trkpt lat="37.993384" lon="13.3005118"><ele>646.0</ele><time>2026-04-28T15:28:57.793Z</time></trkpt><trkpt lat="37.9932348" lon="13.3004382"><ele>646.0</ele><time>2026-04-28T15:28:58.797Z</time></trkpt><trkpt lat="37.993117" lon="13.3003168"><ele>642.6666666666667</ele><time>2026-04-28T15:28:59.797Z</time></trkpt><trkpt lat="37.9930101" lon="13.3001659"><ele>639.3333333333334</ele><time>2026-04-28T15:29:00.801Z</time></trkpt><trkpt lat="37.9929053" lon="13.2999846"><ele>636.0</ele><time>2026-04-28T15:29:01.802Z</time></trkpt><trkpt lat="37.9928032" lon="13.2997904"><ele>638.3333333333334</ele><time>2026-04-28T15:29:02.799Z</time></trkpt><trkpt lat="37.9926919" lon="13.2996028"><ele>640.6666666666667</ele><time>2026-04-28T15:29:03.798Z</time></trkpt><trkpt lat="37.9925774" lon="13.2994232"><ele>643.0</ele><time>2026-04-28T15:29:04.795Z</time></trkpt><trkpt lat="37.9924539" lon="13.2992493"><ele>639.0</ele><time>2026-04-28T15:29:05.798Z</time></trkpt><trkpt lat="37.9923289" lon="13.299078"><ele>635.0</ele><time>2026-04-28T15:29:06.798Z</time></trkpt><trkpt lat="37.9922097" lon="13.2988991"><ele>631.0</ele><time>2026-04-28T15:29:07.797Z</time></trkpt><trkpt lat="37.9921028" lon="13.2987075"><ele>631.0</ele><time>2026-04-28T15:29:08.802Z</time></trkpt><trkpt lat="37.9920115" lon="13.2985075"><ele>631.0</ele><time>2026-04-28T15:29:09.795Z</time></trkpt><trkpt lat="37.9919417" lon="13.2982891"><ele>631.0</ele><time>2026-04-28T15:29:10.8Z</time></trkpt><trkpt lat="37.9918981" lon="13.2980569"><ele>630.6666666666667</ele><time>2026-04-28T15:29:11.802Z</time></trkpt><trkpt lat="37.9918861" lon="13.2978223"><ele>630.3333333333334</ele><time>2026-04-28T15:29:12.796Z</time></trkpt><trkpt lat="37.9919009" lon="13.2975899"><ele>630.0</ele><time>2026-04-28T15:29:13.803Z</time></trkpt><trkpt lat="37.9919359" lon="13.2973668"><ele>629.6666666666666</ele><time>2026-04-28T15:29:14.8Z</time></trkpt><trkpt lat="37.9919817" lon="13.2971593"><ele>629.3333333333333</ele><time>2026-04-28T15:29:15.8Z</time></trkpt><trkpt lat="37.9920303" lon="13.296963"><ele>629.0</ele><time>2026-04-28T15:29:16.8Z</time></trkpt><trkpt lat="37.992081" lon="13.2967707"><ele>629.0</ele><time>2026-04-28T15:29:17.8Z</time></trkpt><trkpt lat="37.9921288" lon="13.2965765"><ele>629.0</ele><time>2026-04-28T15:29:18.794Z</time></trkpt><trkpt lat="37.9921702" lon="13.2963872"><ele>629.0</ele><time>2026-04-28T15:29:19.794Z</time></trkpt><trkpt lat="37.9922047" lon="13.2961989"><ele>629.0</ele><time>2026-04-28T15:29:20.796Z</time></trkpt><trkpt lat="37.9922321" lon="13.2960111"><ele>629.0</ele><time>2026-04-28T15:29:21.799Z</time></trkpt><trkpt lat="37.9922495" lon="13.2958207"><ele>629.0</ele><time>2026-04-28T15:29:22.8Z</time></trkpt><trkpt lat="37.9922537" lon="13.2956284"><ele>629.0</ele><time>2026-04-28T15:29:23.8Z</time></trkpt><trkpt lat="37.9922438" lon="13.295422"><ele>629.0</ele><time>2026-04-28T15:29:24.801Z</time></trkpt><trkpt lat="37.9922286" lon="13.2952051"><ele>629.0</ele><time>2026-04-28T15:29:25.8Z</time></trkpt><trkpt lat="37.9922148" lon="13.2949816"><ele>629.0</ele><time>2026-04-28T15:29:26.804Z</time></trkpt><trkpt lat="37.9922024" lon="13.2947572"><ele>629.0</ele><time>2026-04-28T15:29:27.8Z</time></trkpt><trkpt lat="37.9921926" lon="13.2945287"><ele>629.0</ele><time>2026-04-28T15:29:28.796Z</time></trkpt><trkpt lat="37.9921829" lon="13.2942937"><ele>630.6666666666666</ele><time>2026-04-28T15:29:29.793Z</time></trkpt><trkpt lat="37.9921748" lon="13.2940586"><ele>632.3333333333334</ele><time>2026-04-28T15:29:30.796Z</time></trkpt><trkpt lat="37.9921657" lon="13.2938221"><ele>634.0</ele><time>2026-04-28T15:29:31.795Z</time></trkpt><trkpt lat="37.9921527" lon="13.2935832"><ele>635.0</ele><time>2026-04-28T15:29:32.8Z</time></trkpt><trkpt lat="37.9921399" lon="13.2933453"><ele>636.0</ele><time>2026-04-28T15:29:33.802Z</time></trkpt><trkpt lat="37.9921293" lon="13.2931169"><ele>637.0</ele><time>2026-04-28T15:29:34.801Z</time></trkpt><trkpt lat="37.9921182" lon="13.2929048"><ele>638.5</ele><time>2026-04-28T15:29:35.802Z</time></trkpt><trkpt lat="37.9921093" lon="13.2927161"><ele>640.0</ele><time>2026-04-28T15:29:36.801Z</time></trkpt><trkpt lat="37.9921053" lon="13.2925546"><ele>641.5</ele><time>2026-04-28T15:29:37.798Z</time></trkpt><trkpt lat="37.9921034" lon="13.2924178"><ele>643.0</ele><time>2026-04-28T15:29:38.799Z</time></trkpt><trkpt lat="37.9921029" lon="13.292302"><ele>644.1666666666667</ele><time>2026-04-28T15:29:39.797Z</time></trkpt><trkpt lat="37.9921054" lon="13.2922107"><ele>645.3333333333334</ele><time>2026-04-28T15:29:40.796Z</time></trkpt><trkpt lat="37.9921039" lon="13.2921118"><ele>646.5</ele><time>2026-04-28T15:29:42.793Z</time></trkpt><trkpt lat="37.9920058" lon="13.2920795"><ele>647.6666666666666</ele><time>2026-04-28T15:29:48.792Z</time></trkpt><trkpt lat="37.9919425" lon="13.2920791"><ele>648.8333333333333</ele><time>2026-04-28T15:29:49.798Z</time></trkpt><trkpt lat="37.991873" lon="13.2920916"><ele>650.0</ele><time>2026-04-28T15:29:50.794Z</time></trkpt><trkpt lat="37.9917863" lon="13.2921003"><ele>650.0</ele><time>2026-04-28T15:29:51.793Z</time></trkpt><trkpt lat="37.9916904" lon="13.2921077"><ele>650.0</ele><time>2026-04-28T15:29:52.793Z</time></trkpt><trkpt lat="37.9915905" lon="13.2921303"><ele>650.0</ele><time>2026-04-28T15:29:53.793Z</time></trkpt><trkpt lat="37.9914868" lon="13.2921774"><ele>650.0</ele><time>2026-04-28T15:29:54.794Z</time></trkpt><trkpt lat="37.991389" lon="13.2922403"><ele>650.0</ele><time>2026-04-28T15:29:55.801Z</time></trkpt><trkpt lat="37.9912984" lon="13.2923131"><ele>647.4</ele><time>2026-04-28T15:29:56.796Z</time></trkpt><trkpt lat="37.9912078" lon="13.2923841"><ele>644.8</ele><time>2026-04-28T15:29:57.793Z</time></trkpt><trkpt lat="37.9911151" lon="13.2924518"><ele>642.2</ele><time>2026-04-28T15:29:58.801Z</time></trkpt><trkpt lat="37.9910162" lon="13.2925108"><ele>639.6</ele><time>2026-04-28T15:29:59.795Z</time></trkpt><trkpt lat="37.9909065" lon="13.292551"><ele>637.0</ele><time>2026-04-28T15:30:00.798Z</time></trkpt><trkpt lat="37.9907843" lon="13.2925716"><ele>636.5</ele><time>2026-04-28T15:30:01.798Z</time></trkpt><trkpt lat="37.9906524" lon="13.2925761"><ele>636.0</ele><time>2026-04-28T15:30:02.79Z</time></trkpt><trkpt lat="37.9905152" lon="13.292568"><ele>635.5</ele><time>2026-04-28T15:30:03.794Z</time></trkpt><trkpt lat="37.9903794" lon="13.2925483"><ele>635.0</ele><time>2026-04-28T15:30:04.793Z</time></trkpt><trkpt lat="37.9902348" lon="13.292508"><ele>635.0</ele><time>2026-04-28T15:30:05.795Z</time></trkpt><trkpt lat="37.9900851" lon="13.2924406"><ele>635.0</ele><time>2026-04-28T15:30:06.796Z</time></trkpt><trkpt lat="37.9899372" lon="13.2923541"><ele>635.0</ele><time>2026-04-28T15:30:07.797Z</time></trkpt><trkpt lat="37.9897918" lon="13.2922491"><ele>631.6666666666666</ele><time>2026-04-28T15:30:08.798Z</time></trkpt><trkpt lat="37.9896432" lon="13.2921394"><ele>628.3333333333334</ele><time>2026-04-28T15:30:09.798Z</time></trkpt><trkpt lat="37.9894926" lon="13.2920286"><ele>625.0</ele><time>2026-04-28T15:30:10.8Z</time></trkpt><trkpt lat="37.9893387" lon="13.2919195"><ele>625.0</ele><time>2026-04-28T15:30:11.798Z</time></trkpt><trkpt lat="37.9891809" lon="13.2918092"><ele>625.0</ele><time>2026-04-28T15:30:12.797Z</time></trkpt><trkpt lat="37.9890212" lon="13.2917027"><ele>625.0</ele><time>2026-04-28T15:30:13.801Z</time></trkpt><trkpt lat="37.9888615" lon="13.2915949"><ele>623.3333333333334</ele><time>2026-04-28T15:30:14.796Z</time></trkpt><trkpt lat="37.9887016" lon="13.2914868"><ele>621.6666666666666</ele><time>2026-04-28T15:30:15.803Z</time></trkpt><trkpt lat="37.9885404" lon="13.2913797"><ele>620.0</ele><time>2026-04-28T15:30:16.797Z</time></trkpt><trkpt lat="37.9883798" lon="13.2912695"><ele>621.3333333333333</ele><time>2026-04-28T15:30:17.801Z</time></trkpt><trkpt lat="37.9882157" lon="13.2911568"><ele>622.6666666666666</ele><time>2026-04-28T15:30:18.796Z</time></trkpt><trkpt lat="37.9880564" lon="13.2910414"><ele>624.0</ele><time>2026-04-28T15:30:19.799Z</time></trkpt><trkpt lat="37.9878972" lon="13.2909248"><ele>624.0</ele><time>2026-04-28T15:30:20.802Z</time></trkpt><trkpt lat="37.9877398" lon="13.2908138"><ele>624.0</ele><time>2026-04-28T15:30:21.804Z</time></trkpt><trkpt lat="37.9875919" lon="13.2907111"><ele>624.0</ele><time>2026-04-28T15:30:22.8Z</time></trkpt><trkpt lat="37.9874534" lon="13.2906136"><ele>625.25</ele><time>2026-04-28T15:30:23.801Z</time></trkpt><trkpt lat="37.9873281" lon="13.2905189"><ele>626.5</ele><time>2026-04-28T15:30:24.801Z</time></trkpt><trkpt lat="37.9872147" lon="13.290428"><ele>627.75</ele><time>2026-04-28T15:30:25.8Z</time></trkpt><trkpt lat="37.9871119" lon="13.2903499"><ele>629.0</ele><time>2026-04-28T15:30:26.796Z</time></trkpt><trkpt lat="37.9870187" lon="13.2902823"><ele>629.0</ele><time>2026-04-28T15:30:27.798Z</time></trkpt><trkpt lat="37.9869404" lon="13.2902265"><ele>629.0</ele><time>2026-04-28T15:30:28.798Z</time></trkpt><trkpt lat="37.9868723" lon="13.2901809"><ele>629.0</ele><time>2026-04-28T15:30:29.798Z</time></trkpt><trkpt lat="37.9868136" lon="13.2901493"><ele>629.0</ele><time>2026-04-28T15:30:30.8Z</time></trkpt><trkpt lat="37.9867254" lon="13.2901513"><ele>629.0</ele><time>2026-04-28T15:30:32.792Z</time></trkpt></trkseg></trk></gpx>